<?xml version="1.0" encoding="UTF-8" standalone="no" ?>
<gpx xmlns="http://www.topografix.com/GPX/1/1" xmlns:xsi="http://www.w3.org/2001/XMLSchema-instance" xsi:schemaLocation="http://www.topografix.com/GPX/1/1 http://www.topografix.com/GPX/1/1/gpx.xsd" version="1.1" creator="VisuGPX - https://www.visugpx.com">
  <metadata>
    <name>20200709 - Sortie 41km</name>
  </metadata>
  <trk>
    <name><![CDATA[2020-07-09 18:16:58]]></name>
    <trkseg>
      <trkpt lat="50.1248" lon="3.67811">
        <ele>136.16</ele>
        <time>2020-07-09T14:25:45Z</time>
      </trkpt>
      <trkpt lat="50.12481" lon="3.67813">
        <ele>136.16</ele>
        <time>2020-07-09T14:25:55Z</time>
      </trkpt>
      <trkpt lat="50.12484" lon="3.67818">
        <ele>136.16</ele>
        <time>2020-07-09T14:25:57Z</time>
      </trkpt>
      <trkpt lat="50.12485" lon="3.6782">
        <ele>136.16</ele>
        <time>2020-07-09T14:25:58Z</time>
      </trkpt>
      <trkpt lat="50.12502" lon="3.67841">
        <ele>137.13</ele>
        <time>2020-07-09T14:26:05Z</time>
      </trkpt>
      <trkpt lat="50.12505" lon="3.67845">
        <ele>136.64</ele>
        <time>2020-07-09T14:26:06Z</time>
      </trkpt>
      <trkpt lat="50.12512" lon="3.67852">
        <ele>136.64</ele>
        <time>2020-07-09T14:26:08Z</time>
      </trkpt>
      <trkpt lat="50.1254" lon="3.67881">
        <ele>137.13</ele>
        <time>2020-07-09T14:26:15Z</time>
      </trkpt>
      <trkpt lat="50.12553" lon="3.6789">
        <ele>137.13</ele>
        <time>2020-07-09T14:26:18Z</time>
      </trkpt>
      <trkpt lat="50.12557" lon="3.67893">
        <ele>137.13</ele>
        <time>2020-07-09T14:26:19Z</time>
      </trkpt>
      <trkpt lat="50.12561" lon="3.67897">
        <ele>137.13</ele>
        <time>2020-07-09T14:26:20Z</time>
      </trkpt>
      <trkpt lat="50.12591" lon="3.67936">
        <ele>137.13</ele>
        <time>2020-07-09T14:26:28Z</time>
      </trkpt>
      <trkpt lat="50.12595" lon="3.67942">
        <ele>137.13</ele>
        <time>2020-07-09T14:26:29Z</time>
      </trkpt>
      <trkpt lat="50.12655" lon="3.68065">
        <ele>137.61</ele>
        <time>2020-07-09T14:26:47Z</time>
      </trkpt>
      <trkpt lat="50.12716" lon="3.68193">
        <ele>137.61</ele>
        <time>2020-07-09T14:27:05Z</time>
      </trkpt>
      <trkpt lat="50.12724" lon="3.68212">
        <ele>138.09</ele>
        <time>2020-07-09T14:27:08Z</time>
      </trkpt>
      <trkpt lat="50.12726" lon="3.6822">
        <ele>138.09</ele>
        <time>2020-07-09T14:27:09Z</time>
      </trkpt>
      <trkpt lat="50.12727" lon="3.68227">
        <ele>138.09</ele>
        <time>2020-07-09T14:27:10Z</time>
      </trkpt>
      <trkpt lat="50.12739" lon="3.68263">
        <ele>138.09</ele>
        <time>2020-07-09T14:27:15Z</time>
      </trkpt>
      <trkpt lat="50.12786" lon="3.68403">
        <ele>138.09</ele>
        <time>2020-07-09T14:27:33Z</time>
      </trkpt>
      <trkpt lat="50.12797" lon="3.68447">
        <ele>138.57</ele>
        <time>2020-07-09T14:27:40Z</time>
      </trkpt>
      <trkpt lat="50.12795" lon="3.68452">
        <ele>138.57</ele>
        <time>2020-07-09T14:27:41Z</time>
      </trkpt>
      <trkpt lat="50.12791" lon="3.68455">
        <ele>138.57</ele>
        <time>2020-07-09T14:27:42Z</time>
      </trkpt>
      <trkpt lat="50.12737" lon="3.68498">
        <ele>138.09</ele>
        <time>2020-07-09T14:27:53Z</time>
      </trkpt>
      <trkpt lat="50.12733" lon="3.68506">
        <ele>137.13</ele>
        <time>2020-07-09T14:27:54Z</time>
      </trkpt>
      <trkpt lat="50.12732" lon="3.68515">
        <ele>137.13</ele>
        <time>2020-07-09T14:27:55Z</time>
      </trkpt>
      <trkpt lat="50.12734" lon="3.68524">
        <ele>137.13</ele>
        <time>2020-07-09T14:27:56Z</time>
      </trkpt>
      <trkpt lat="50.12738" lon="3.68531">
        <ele>137.13</ele>
        <time>2020-07-09T14:27:57Z</time>
      </trkpt>
      <trkpt lat="50.12742" lon="3.68537">
        <ele>137.13</ele>
        <time>2020-07-09T14:27:58Z</time>
      </trkpt>
      <trkpt lat="50.12747" lon="3.68544">
        <ele>137.13</ele>
        <time>2020-07-09T14:27:59Z</time>
      </trkpt>
      <trkpt lat="50.12751" lon="3.68552">
        <ele>137.13</ele>
        <time>2020-07-09T14:28:00Z</time>
      </trkpt>
      <trkpt lat="50.12752" lon="3.6856">
        <ele>137.13</ele>
        <time>2020-07-09T14:28:01Z</time>
      </trkpt>
      <trkpt lat="50.12751" lon="3.6857">
        <ele>137.13</ele>
        <time>2020-07-09T14:28:02Z</time>
      </trkpt>
      <trkpt lat="50.12748" lon="3.68576">
        <ele>137.13</ele>
        <time>2020-07-09T14:28:03Z</time>
      </trkpt>
      <trkpt lat="50.12743" lon="3.68584">
        <ele>137.13</ele>
        <time>2020-07-09T14:28:04Z</time>
      </trkpt>
      <trkpt lat="50.12708" lon="3.68647">
        <ele>137.13</ele>
        <time>2020-07-09T14:28:13Z</time>
      </trkpt>
      <trkpt lat="50.12706" lon="3.68657">
        <ele>137.13</ele>
        <time>2020-07-09T14:28:14Z</time>
      </trkpt>
      <trkpt lat="50.12708" lon="3.68664">
        <ele>137.13</ele>
        <time>2020-07-09T14:28:15Z</time>
      </trkpt>
      <trkpt lat="50.12711" lon="3.68671">
        <ele>137.13</ele>
        <time>2020-07-09T14:28:16Z</time>
      </trkpt>
      <trkpt lat="50.12714" lon="3.68676">
        <ele>137.13</ele>
        <time>2020-07-09T14:28:17Z</time>
      </trkpt>
      <trkpt lat="50.12718" lon="3.68683">
        <ele>137.13</ele>
        <time>2020-07-09T14:28:18Z</time>
      </trkpt>
      <trkpt lat="50.12721" lon="3.68688">
        <ele>137.13</ele>
        <time>2020-07-09T14:28:19Z</time>
      </trkpt>
      <trkpt lat="50.1273" lon="3.68707">
        <ele>137.13</ele>
        <time>2020-07-09T14:28:23Z</time>
      </trkpt>
      <trkpt lat="50.12729" lon="3.68712">
        <ele>137.13</ele>
        <time>2020-07-09T14:28:24Z</time>
      </trkpt>
      <trkpt lat="50.12726" lon="3.68717">
        <ele>137.13</ele>
        <time>2020-07-09T14:28:25Z</time>
      </trkpt>
      <trkpt lat="50.12722" lon="3.68722">
        <ele>137.13</ele>
        <time>2020-07-09T14:28:26Z</time>
      </trkpt>
      <trkpt lat="50.12718" lon="3.68727">
        <ele>137.13</ele>
        <time>2020-07-09T14:28:27Z</time>
      </trkpt>
      <trkpt lat="50.12701" lon="3.68749">
        <ele>138.09</ele>
        <time>2020-07-09T14:28:31Z</time>
      </trkpt>
      <trkpt lat="50.12654" lon="3.68808">
        <ele>139.05</ele>
        <time>2020-07-09T14:28:42Z</time>
      </trkpt>
      <trkpt lat="50.12649" lon="3.68813">
        <ele>139.05</ele>
        <time>2020-07-09T14:28:43Z</time>
      </trkpt>
      <trkpt lat="50.12643" lon="3.68816">
        <ele>139.05</ele>
        <time>2020-07-09T14:28:44Z</time>
      </trkpt>
      <trkpt lat="50.12572" lon="3.68851">
        <ele>139.05</ele>
        <time>2020-07-09T14:28:55Z</time>
      </trkpt>
      <trkpt lat="50.12566" lon="3.68853">
        <ele>139.05</ele>
        <time>2020-07-09T14:28:56Z</time>
      </trkpt>
      <trkpt lat="50.1256" lon="3.68856">
        <ele>139.05</ele>
        <time>2020-07-09T14:28:57Z</time>
      </trkpt>
      <trkpt lat="50.12533" lon="3.68877">
        <ele>139.05</ele>
        <time>2020-07-09T14:29:02Z</time>
      </trkpt>
      <trkpt lat="50.12528" lon="3.68881">
        <ele>139.05</ele>
        <time>2020-07-09T14:29:03Z</time>
      </trkpt>
      <trkpt lat="50.12523" lon="3.68887">
        <ele>139.05</ele>
        <time>2020-07-09T14:29:04Z</time>
      </trkpt>
      <trkpt lat="50.12496" lon="3.68913">
        <ele>139.05</ele>
        <time>2020-07-09T14:29:09Z</time>
      </trkpt>
      <trkpt lat="50.12492" lon="3.6892">
        <ele>139.05</ele>
        <time>2020-07-09T14:29:10Z</time>
      </trkpt>
      <trkpt lat="50.12465" lon="3.68962">
        <ele>139.05</ele>
        <time>2020-07-09T14:29:16Z</time>
      </trkpt>
      <trkpt lat="50.12414" lon="3.6906">
        <ele>139.05</ele>
        <time>2020-07-09T14:29:29Z</time>
      </trkpt>
      <trkpt lat="50.12379" lon="3.69137">
        <ele>139.05</ele>
        <time>2020-07-09T14:29:39Z</time>
      </trkpt>
      <trkpt lat="50.12377" lon="3.69146">
        <ele>139.53</ele>
        <time>2020-07-09T14:29:40Z</time>
      </trkpt>
      <trkpt lat="50.12353" lon="3.6922">
        <ele>139.53</ele>
        <time>2020-07-09T14:29:49Z</time>
      </trkpt>
      <trkpt lat="50.12348" lon="3.69227">
        <ele>139.53</ele>
        <time>2020-07-09T14:29:50Z</time>
      </trkpt>
      <trkpt lat="50.12326" lon="3.69262">
        <ele>139.53</ele>
        <time>2020-07-09T14:29:55Z</time>
      </trkpt>
      <trkpt lat="50.12247" lon="3.69381">
        <ele>140.97</ele>
        <time>2020-07-09T14:30:13Z</time>
      </trkpt>
      <trkpt lat="50.12202" lon="3.69447">
        <ele>141.45</ele>
        <time>2020-07-09T14:30:23Z</time>
      </trkpt>
      <trkpt lat="50.12197" lon="3.69451">
        <ele>141.45</ele>
        <time>2020-07-09T14:30:24Z</time>
      </trkpt>
      <trkpt lat="50.1219" lon="3.69455">
        <ele>141.45</ele>
        <time>2020-07-09T14:30:25Z</time>
      </trkpt>
      <trkpt lat="50.12183" lon="3.69457">
        <ele>141.45</ele>
        <time>2020-07-09T14:30:26Z</time>
      </trkpt>
      <trkpt lat="50.12179" lon="3.69457">
        <ele>141.45</ele>
        <time>2020-07-09T14:30:27Z</time>
      </trkpt>
      <trkpt lat="50.12172" lon="3.69456">
        <ele>141.45</ele>
        <time>2020-07-09T14:30:28Z</time>
      </trkpt>
      <trkpt lat="50.12165" lon="3.69455">
        <ele>141.45</ele>
        <time>2020-07-09T14:30:29Z</time>
      </trkpt>
      <trkpt lat="50.12053" lon="3.69436">
        <ele>141.45</ele>
        <time>2020-07-09T14:30:48Z</time>
      </trkpt>
      <trkpt lat="50.12007" lon="3.6943">
        <ele>141.45</ele>
        <time>2020-07-09T14:30:56Z</time>
      </trkpt>
      <trkpt lat="50.11904" lon="3.69413">
        <ele>142.41</ele>
        <time>2020-07-09T14:31:15Z</time>
      </trkpt>
      <trkpt lat="50.11898" lon="3.69412">
        <ele>142.89</ele>
        <time>2020-07-09T14:31:16Z</time>
      </trkpt>
      <trkpt lat="50.11864" lon="3.69407">
        <ele>143.85</ele>
        <time>2020-07-09T14:31:22Z</time>
      </trkpt>
      <trkpt lat="50.11785" lon="3.69395">
        <ele>145.3</ele>
        <time>2020-07-09T14:31:37Z</time>
      </trkpt>
      <trkpt lat="50.11687" lon="3.6938">
        <ele>147.7</ele>
        <time>2020-07-09T14:31:55Z</time>
      </trkpt>
      <trkpt lat="50.11581" lon="3.69363">
        <ele>148.66</ele>
        <time>2020-07-09T14:32:15Z</time>
      </trkpt>
      <trkpt lat="50.11504" lon="3.69351">
        <ele>149.14</ele>
        <time>2020-07-09T14:32:30Z</time>
      </trkpt>
      <trkpt lat="50.11452" lon="3.69342">
        <ele>150.1</ele>
        <time>2020-07-09T14:32:40Z</time>
      </trkpt>
      <trkpt lat="50.11364" lon="3.69328">
        <ele>150.58</ele>
        <time>2020-07-09T14:32:57Z</time>
      </trkpt>
      <trkpt lat="50.11241" lon="3.69309">
        <ele>149.62</ele>
        <time>2020-07-09T14:33:19Z</time>
      </trkpt>
      <trkpt lat="50.1113" lon="3.69293">
        <ele>149.62</ele>
        <time>2020-07-09T14:33:38Z</time>
      </trkpt>
      <trkpt lat="50.111" lon="3.69288">
        <ele>151.06</ele>
        <time>2020-07-09T14:33:44Z</time>
      </trkpt>
      <trkpt lat="50.11029" lon="3.69277">
        <ele>152.99</ele>
        <time>2020-07-09T14:33:57Z</time>
      </trkpt>
      <trkpt lat="50.10917" lon="3.6926">
        <ele>153.47</ele>
        <time>2020-07-09T14:34:17Z</time>
      </trkpt>
      <trkpt lat="50.10862" lon="3.69252">
        <ele>152.51</ele>
        <time>2020-07-09T14:34:26Z</time>
      </trkpt>
      <trkpt lat="50.10792" lon="3.69242">
        <ele>151.06</ele>
        <time>2020-07-09T14:34:37Z</time>
      </trkpt>
      <trkpt lat="50.1075" lon="3.69236">
        <ele>149.62</ele>
        <time>2020-07-09T14:34:43Z</time>
      </trkpt>
      <trkpt lat="50.10743" lon="3.69238">
        <ele>149.14</ele>
        <time>2020-07-09T14:34:44Z</time>
      </trkpt>
      <trkpt lat="50.10736" lon="3.69246">
        <ele>148.18</ele>
        <time>2020-07-09T14:34:45Z</time>
      </trkpt>
      <trkpt lat="50.10732" lon="3.69255">
        <ele>147.7</ele>
        <time>2020-07-09T14:34:46Z</time>
      </trkpt>
      <trkpt lat="50.10729" lon="3.69265">
        <ele>147.7</ele>
        <time>2020-07-09T14:34:47Z</time>
      </trkpt>
      <trkpt lat="50.10727" lon="3.69276">
        <ele>147.7</ele>
        <time>2020-07-09T14:34:48Z</time>
      </trkpt>
      <trkpt lat="50.10725" lon="3.69287">
        <ele>147.7</ele>
        <time>2020-07-09T14:34:49Z</time>
      </trkpt>
      <trkpt lat="50.10704" lon="3.69371">
        <ele>149.14</ele>
        <time>2020-07-09T14:34:57Z</time>
      </trkpt>
      <trkpt lat="50.10676" lon="3.69493">
        <ele>151.06</ele>
        <time>2020-07-09T14:35:11Z</time>
      </trkpt>
      <trkpt lat="50.10633" lon="3.69635">
        <ele>151.06</ele>
        <time>2020-07-09T14:35:28Z</time>
      </trkpt>
      <trkpt lat="50.10573" lon="3.69782">
        <ele>151.54</ele>
        <time>2020-07-09T14:35:46Z</time>
      </trkpt>
      <trkpt lat="50.10529" lon="3.69886">
        <ele>152.03</ele>
        <time>2020-07-09T14:35:59Z</time>
      </trkpt>
      <trkpt lat="50.10526" lon="3.69894">
        <ele>152.03</ele>
        <time>2020-07-09T14:36:00Z</time>
      </trkpt>
      <trkpt lat="50.10522" lon="3.69902">
        <ele>152.03</ele>
        <time>2020-07-09T14:36:01Z</time>
      </trkpt>
      <trkpt lat="50.10493" lon="3.69982">
        <ele>152.99</ele>
        <time>2020-07-09T14:36:10Z</time>
      </trkpt>
      <trkpt lat="50.10465" lon="3.70106">
        <ele>154.91</ele>
        <time>2020-07-09T14:36:24Z</time>
      </trkpt>
      <trkpt lat="50.10452" lon="3.70148">
        <ele>155.87</ele>
        <time>2020-07-09T14:36:30Z</time>
      </trkpt>
      <trkpt lat="50.10404" lon="3.70254">
        <ele>154.43</ele>
        <time>2020-07-09T14:36:45Z</time>
      </trkpt>
      <trkpt lat="50.10399" lon="3.70272">
        <ele>152.99</ele>
        <time>2020-07-09T14:36:47Z</time>
      </trkpt>
      <trkpt lat="50.1039" lon="3.70389">
        <ele>154.43</ele>
        <time>2020-07-09T14:36:59Z</time>
      </trkpt>
      <trkpt lat="50.10397" lon="3.70519">
        <ele>154.43</ele>
        <time>2020-07-09T14:37:14Z</time>
      </trkpt>
      <trkpt lat="50.10422" lon="3.70662">
        <ele>155.87</ele>
        <time>2020-07-09T14:37:33Z</time>
      </trkpt>
      <trkpt lat="50.10428" lon="3.70728">
        <ele>156.83</ele>
        <time>2020-07-09T14:37:43Z</time>
      </trkpt>
      <trkpt lat="50.10426" lon="3.70772">
        <ele>157.79</ele>
        <time>2020-07-09T14:37:50Z</time>
      </trkpt>
      <trkpt lat="50.10419" lon="3.70809">
        <ele>158.75</ele>
        <time>2020-07-09T14:37:55Z</time>
      </trkpt>
      <trkpt lat="50.10417" lon="3.70817">
        <ele>158.75</ele>
        <time>2020-07-09T14:37:56Z</time>
      </trkpt>
      <trkpt lat="50.10396" lon="3.70905">
        <ele>159.72</ele>
        <time>2020-07-09T14:38:08Z</time>
      </trkpt>
      <trkpt lat="50.10394" lon="3.70912">
        <ele>160.2</ele>
        <time>2020-07-09T14:38:09Z</time>
      </trkpt>
      <trkpt lat="50.10372" lon="3.7103">
        <ele>160.2</ele>
        <time>2020-07-09T14:38:24Z</time>
      </trkpt>
      <trkpt lat="50.10345" lon="3.71204">
        <ele>161.64</ele>
        <time>2020-07-09T14:38:45Z</time>
      </trkpt>
      <trkpt lat="50.10336" lon="3.71334">
        <ele>161.16</ele>
        <time>2020-07-09T14:39:00Z</time>
      </trkpt>
      <trkpt lat="50.10325" lon="3.71468">
        <ele>161.16</ele>
        <time>2020-07-09T14:39:15Z</time>
      </trkpt>
      <trkpt lat="50.10326" lon="3.71529">
        <ele>161.64</ele>
        <time>2020-07-09T14:39:22Z</time>
      </trkpt>
      <trkpt lat="50.10326" lon="3.71537">
        <ele>161.64</ele>
        <time>2020-07-09T14:39:23Z</time>
      </trkpt>
      <trkpt lat="50.10335" lon="3.71668">
        <ele>162.6</ele>
        <time>2020-07-09T14:39:38Z</time>
      </trkpt>
      <trkpt lat="50.10342" lon="3.7177">
        <ele>165.96</ele>
        <time>2020-07-09T14:39:50Z</time>
      </trkpt>
      <trkpt lat="50.10342" lon="3.71777">
        <ele>165.96</ele>
        <time>2020-07-09T14:39:51Z</time>
      </trkpt>
      <trkpt lat="50.10342" lon="3.71905">
        <ele>165.96</ele>
        <time>2020-07-09T14:40:07Z</time>
      </trkpt>
      <trkpt lat="50.1034" lon="3.71954">
        <ele>165.96</ele>
        <time>2020-07-09T14:40:13Z</time>
      </trkpt>
      <trkpt lat="50.1034" lon="3.71962">
        <ele>165.96</ele>
        <time>2020-07-09T14:40:14Z</time>
      </trkpt>
      <trkpt lat="50.1034" lon="3.71969">
        <ele>165.96</ele>
        <time>2020-07-09T14:40:15Z</time>
      </trkpt>
      <trkpt lat="50.10341" lon="3.71974">
        <ele>165.96</ele>
        <time>2020-07-09T14:40:16Z</time>
      </trkpt>
      <trkpt lat="50.10341" lon="3.71978">
        <ele>165.96</ele>
        <time>2020-07-09T14:40:17Z</time>
      </trkpt>
      <trkpt lat="50.10342" lon="3.71987">
        <ele>165.96</ele>
        <time>2020-07-09T14:40:23Z</time>
      </trkpt>
      <trkpt lat="50.10342" lon="3.71989">
        <ele>165.96</ele>
        <time>2020-07-09T14:40:24Z</time>
      </trkpt>
      <trkpt lat="50.10341" lon="3.71993">
        <ele>165.96</ele>
        <time>2020-07-09T14:40:25Z</time>
      </trkpt>
      <trkpt lat="50.1034" lon="3.71997">
        <ele>165.96</ele>
        <time>2020-07-09T14:40:26Z</time>
      </trkpt>
      <trkpt lat="50.10339" lon="3.72002">
        <ele>165.96</ele>
        <time>2020-07-09T14:40:27Z</time>
      </trkpt>
      <trkpt lat="50.10336" lon="3.72007">
        <ele>165.96</ele>
        <time>2020-07-09T14:40:28Z</time>
      </trkpt>
      <trkpt lat="50.10334" lon="3.72015">
        <ele>165.96</ele>
        <time>2020-07-09T14:40:29Z</time>
      </trkpt>
      <trkpt lat="50.10332" lon="3.72022">
        <ele>165.96</ele>
        <time>2020-07-09T14:40:30Z</time>
      </trkpt>
      <trkpt lat="50.1033" lon="3.7203">
        <ele>165.96</ele>
        <time>2020-07-09T14:40:31Z</time>
      </trkpt>
      <trkpt lat="50.10329" lon="3.72039">
        <ele>165.96</ele>
        <time>2020-07-09T14:40:32Z</time>
      </trkpt>
      <trkpt lat="50.10301" lon="3.72176">
        <ele>165.96</ele>
        <time>2020-07-09T14:40:48Z</time>
      </trkpt>
      <trkpt lat="50.10265" lon="3.72308">
        <ele>165.96</ele>
        <time>2020-07-09T14:41:03Z</time>
      </trkpt>
      <trkpt lat="50.10235" lon="3.72416">
        <ele>167.41</ele>
        <time>2020-07-09T14:41:17Z</time>
      </trkpt>
      <trkpt lat="50.10198" lon="3.72539">
        <ele>167.89</ele>
        <time>2020-07-09T14:41:34Z</time>
      </trkpt>
      <trkpt lat="50.1018" lon="3.72585">
        <ele>167.89</ele>
        <time>2020-07-09T14:41:40Z</time>
      </trkpt>
      <trkpt lat="50.10176" lon="3.72592">
        <ele>167.89</ele>
        <time>2020-07-09T14:41:41Z</time>
      </trkpt>
      <trkpt lat="50.10162" lon="3.72611">
        <ele>166.45</ele>
        <time>2020-07-09T14:41:44Z</time>
      </trkpt>
      <trkpt lat="50.10089" lon="3.72684">
        <ele>165.96</ele>
        <time>2020-07-09T14:41:58Z</time>
      </trkpt>
      <trkpt lat="50.10019" lon="3.72771">
        <ele>165</ele>
        <time>2020-07-09T14:42:11Z</time>
      </trkpt>
      <trkpt lat="50.09937" lon="3.72913">
        <ele>162.6</ele>
        <time>2020-07-09T14:42:25Z</time>
      </trkpt>
      <trkpt lat="50.0988" lon="3.73042">
        <ele>162.6</ele>
        <time>2020-07-09T14:42:38Z</time>
      </trkpt>
      <trkpt lat="50.09808" lon="3.7322">
        <ele>162.12</ele>
        <time>2020-07-09T14:42:55Z</time>
      </trkpt>
      <trkpt lat="50.09782" lon="3.73274">
        <ele>159.72</ele>
        <time>2020-07-09T14:43:00Z</time>
      </trkpt>
      <trkpt lat="50.09743" lon="3.73342">
        <ele>158.75</ele>
        <time>2020-07-09T14:43:07Z</time>
      </trkpt>
      <trkpt lat="50.0971" lon="3.73386">
        <ele>160.2</ele>
        <time>2020-07-09T14:43:13Z</time>
      </trkpt>
      <trkpt lat="50.0969" lon="3.73412">
        <ele>161.16</ele>
        <time>2020-07-09T14:43:17Z</time>
      </trkpt>
      <trkpt lat="50.09628" lon="3.73487">
        <ele>163.08</ele>
        <time>2020-07-09T14:43:31Z</time>
      </trkpt>
      <trkpt lat="50.09559" lon="3.73573">
        <ele>163.08</ele>
        <time>2020-07-09T14:43:48Z</time>
      </trkpt>
      <trkpt lat="50.09545" lon="3.73601">
        <ele>163.08</ele>
        <time>2020-07-09T14:43:52Z</time>
      </trkpt>
      <trkpt lat="50.09541" lon="3.73609">
        <ele>163.08</ele>
        <time>2020-07-09T14:43:53Z</time>
      </trkpt>
      <trkpt lat="50.09538" lon="3.73617">
        <ele>163.08</ele>
        <time>2020-07-09T14:43:54Z</time>
      </trkpt>
      <trkpt lat="50.09503" lon="3.73726">
        <ele>163.56</ele>
        <time>2020-07-09T14:44:07Z</time>
      </trkpt>
      <trkpt lat="50.09452" lon="3.73822">
        <ele>164.52</ele>
        <time>2020-07-09T14:44:21Z</time>
      </trkpt>
      <trkpt lat="50.09394" lon="3.73941">
        <ele>166.45</ele>
        <time>2020-07-09T14:44:38Z</time>
      </trkpt>
      <trkpt lat="50.09351" lon="3.74032">
        <ele>162.6</ele>
        <time>2020-07-09T14:44:49Z</time>
      </trkpt>
      <trkpt lat="50.09301" lon="3.74141">
        <ele>161.64</ele>
        <time>2020-07-09T14:45:01Z</time>
      </trkpt>
      <trkpt lat="50.09234" lon="3.74249">
        <ele>162.12</ele>
        <time>2020-07-09T14:45:16Z</time>
      </trkpt>
      <trkpt lat="50.09222" lon="3.7427">
        <ele>162.12</ele>
        <time>2020-07-09T14:45:19Z</time>
      </trkpt>
      <trkpt lat="50.09218" lon="3.74277">
        <ele>163.56</ele>
        <time>2020-07-09T14:45:20Z</time>
      </trkpt>
      <trkpt lat="50.0921" lon="3.74291">
        <ele>164.04</ele>
        <time>2020-07-09T14:45:22Z</time>
      </trkpt>
      <trkpt lat="50.09205" lon="3.74298">
        <ele>164.52</ele>
        <time>2020-07-09T14:45:23Z</time>
      </trkpt>
      <trkpt lat="50.09171" lon="3.74357">
        <ele>166.93</ele>
        <time>2020-07-09T14:45:33Z</time>
      </trkpt>
      <trkpt lat="50.09157" lon="3.74382">
        <ele>167.89</ele>
        <time>2020-07-09T14:45:37Z</time>
      </trkpt>
      <trkpt lat="50.09094" lon="3.74456">
        <ele>171.25</ele>
        <time>2020-07-09T14:45:53Z</time>
      </trkpt>
      <trkpt lat="50.09049" lon="3.74504">
        <ele>172.21</ele>
        <time>2020-07-09T14:46:05Z</time>
      </trkpt>
      <trkpt lat="50.09045" lon="3.74508">
        <ele>172.21</ele>
        <time>2020-07-09T14:46:06Z</time>
      </trkpt>
      <trkpt lat="50.08993" lon="3.74563">
        <ele>174.14</ele>
        <time>2020-07-09T14:46:20Z</time>
      </trkpt>
      <trkpt lat="50.08965" lon="3.74591">
        <ele>175.1</ele>
        <time>2020-07-09T14:46:28Z</time>
      </trkpt>
      <trkpt lat="50.08945" lon="3.74611">
        <ele>175.58</ele>
        <time>2020-07-09T14:46:33Z</time>
      </trkpt>
      <trkpt lat="50.08887" lon="3.74676">
        <ele>177.98</ele>
        <time>2020-07-09T14:46:47Z</time>
      </trkpt>
      <trkpt lat="50.08836" lon="3.74768">
        <ele>178.94</ele>
        <time>2020-07-09T14:47:01Z</time>
      </trkpt>
      <trkpt lat="50.08792" lon="3.74888">
        <ele>179.9</ele>
        <time>2020-07-09T14:47:16Z</time>
      </trkpt>
      <trkpt lat="50.08759" lon="3.74985">
        <ele>178.46</ele>
        <time>2020-07-09T14:47:28Z</time>
      </trkpt>
      <trkpt lat="50.0871" lon="3.75124">
        <ele>176.54</ele>
        <time>2020-07-09T14:47:43Z</time>
      </trkpt>
      <trkpt lat="50.08648" lon="3.75299">
        <ele>174.62</ele>
        <time>2020-07-09T14:48:01Z</time>
      </trkpt>
      <trkpt lat="50.086" lon="3.7547">
        <ele>173.66</ele>
        <time>2020-07-09T14:48:18Z</time>
      </trkpt>
      <trkpt lat="50.08582" lon="3.75557">
        <ele>173.17</ele>
        <time>2020-07-09T14:48:27Z</time>
      </trkpt>
      <trkpt lat="50.0858" lon="3.75566">
        <ele>173.17</ele>
        <time>2020-07-09T14:48:28Z</time>
      </trkpt>
      <trkpt lat="50.08556" lon="3.75676">
        <ele>173.17</ele>
        <time>2020-07-09T14:48:42Z</time>
      </trkpt>
      <trkpt lat="50.0855" lon="3.75702">
        <ele>173.17</ele>
        <time>2020-07-09T14:48:46Z</time>
      </trkpt>
      <trkpt lat="50.08524" lon="3.7582">
        <ele>175.58</ele>
        <time>2020-07-09T14:49:02Z</time>
      </trkpt>
      <trkpt lat="50.08494" lon="3.75957">
        <ele>177.5</ele>
        <time>2020-07-09T14:49:22Z</time>
      </trkpt>
      <trkpt lat="50.08472" lon="3.76035">
        <ele>177.98</ele>
        <time>2020-07-09T14:49:33Z</time>
      </trkpt>
      <trkpt lat="50.08451" lon="3.76079">
        <ele>176.54</ele>
        <time>2020-07-09T14:49:39Z</time>
      </trkpt>
      <trkpt lat="50.08386" lon="3.76178">
        <ele>176.06</ele>
        <time>2020-07-09T14:49:54Z</time>
      </trkpt>
      <trkpt lat="50.08342" lon="3.76242">
        <ele>177.5</ele>
        <time>2020-07-09T14:50:05Z</time>
      </trkpt>
      <trkpt lat="50.08264" lon="3.76358">
        <ele>177.98</ele>
        <time>2020-07-09T14:50:24Z</time>
      </trkpt>
      <trkpt lat="50.08197" lon="3.76441">
        <ele>177.5</ele>
        <time>2020-07-09T14:50:39Z</time>
      </trkpt>
      <trkpt lat="50.08144" lon="3.76484">
        <ele>177.98</ele>
        <time>2020-07-09T14:50:50Z</time>
      </trkpt>
      <trkpt lat="50.08138" lon="3.76489">
        <ele>177.98</ele>
        <time>2020-07-09T14:50:51Z</time>
      </trkpt>
      <trkpt lat="50.08072" lon="3.76557">
        <ele>178.94</ele>
        <time>2020-07-09T14:51:06Z</time>
      </trkpt>
      <trkpt lat="50.08002" lon="3.76651">
        <ele>178.94</ele>
        <time>2020-07-09T14:51:23Z</time>
      </trkpt>
      <trkpt lat="50.0798" lon="3.76675">
        <ele>177.5</ele>
        <time>2020-07-09T14:51:28Z</time>
      </trkpt>
      <trkpt lat="50.07913" lon="3.76752">
        <ele>175.58</ele>
        <time>2020-07-09T14:51:42Z</time>
      </trkpt>
      <trkpt lat="50.0787" lon="3.76812">
        <ele>175.58</ele>
        <time>2020-07-09T14:51:52Z</time>
      </trkpt>
      <trkpt lat="50.07863" lon="3.76823">
        <ele>176.06</ele>
        <time>2020-07-09T14:51:54Z</time>
      </trkpt>
      <trkpt lat="50.07861" lon="3.76829">
        <ele>176.54</ele>
        <time>2020-07-09T14:51:55Z</time>
      </trkpt>
      <trkpt lat="50.07859" lon="3.76836">
        <ele>176.54</ele>
        <time>2020-07-09T14:51:56Z</time>
      </trkpt>
      <trkpt lat="50.07858" lon="3.76842">
        <ele>176.54</ele>
        <time>2020-07-09T14:51:57Z</time>
      </trkpt>
      <trkpt lat="50.07857" lon="3.76849">
        <ele>176.54</ele>
        <time>2020-07-09T14:51:58Z</time>
      </trkpt>
      <trkpt lat="50.07855" lon="3.76857">
        <ele>176.54</ele>
        <time>2020-07-09T14:51:59Z</time>
      </trkpt>
      <trkpt lat="50.07854" lon="3.76864">
        <ele>176.54</ele>
        <time>2020-07-09T14:52:00Z</time>
      </trkpt>
      <trkpt lat="50.07851" lon="3.76879">
        <ele>177.02</ele>
        <time>2020-07-09T14:52:02Z</time>
      </trkpt>
      <trkpt lat="50.07849" lon="3.76888">
        <ele>177.02</ele>
        <time>2020-07-09T14:52:03Z</time>
      </trkpt>
      <trkpt lat="50.07847" lon="3.76896">
        <ele>177.02</ele>
        <time>2020-07-09T14:52:04Z</time>
      </trkpt>
      <trkpt lat="50.07844" lon="3.76905">
        <ele>177.98</ele>
        <time>2020-07-09T14:52:05Z</time>
      </trkpt>
      <trkpt lat="50.07842" lon="3.76914">
        <ele>177.98</ele>
        <time>2020-07-09T14:52:06Z</time>
      </trkpt>
      <trkpt lat="50.07841" lon="3.76923">
        <ele>178.94</ele>
        <time>2020-07-09T14:52:07Z</time>
      </trkpt>
      <trkpt lat="50.07832" lon="3.76989">
        <ele>179.9</ele>
        <time>2020-07-09T14:52:15Z</time>
      </trkpt>
      <trkpt lat="50.07825" lon="3.77027">
        <ele>180.87</ele>
        <time>2020-07-09T14:52:20Z</time>
      </trkpt>
      <trkpt lat="50.07825" lon="3.77035">
        <ele>180.87</ele>
        <time>2020-07-09T14:52:21Z</time>
      </trkpt>
      <trkpt lat="50.07824" lon="3.77042">
        <ele>181.83</ele>
        <time>2020-07-09T14:52:22Z</time>
      </trkpt>
      <trkpt lat="50.07822" lon="3.77049">
        <ele>181.83</ele>
        <time>2020-07-09T14:52:23Z</time>
      </trkpt>
      <trkpt lat="50.0782" lon="3.77056">
        <ele>182.31</ele>
        <time>2020-07-09T14:52:24Z</time>
      </trkpt>
      <trkpt lat="50.07812" lon="3.77075">
        <ele>182.31</ele>
        <time>2020-07-09T14:52:27Z</time>
      </trkpt>
      <trkpt lat="50.07808" lon="3.77081">
        <ele>182.31</ele>
        <time>2020-07-09T14:52:28Z</time>
      </trkpt>
      <trkpt lat="50.07805" lon="3.77087">
        <ele>182.79</ele>
        <time>2020-07-09T14:52:29Z</time>
      </trkpt>
      <trkpt lat="50.07802" lon="3.77094">
        <ele>182.79</ele>
        <time>2020-07-09T14:52:30Z</time>
      </trkpt>
      <trkpt lat="50.07799" lon="3.771">
        <ele>182.79</ele>
        <time>2020-07-09T14:52:31Z</time>
      </trkpt>
      <trkpt lat="50.07766" lon="3.77168">
        <ele>181.83</ele>
        <time>2020-07-09T14:52:41Z</time>
      </trkpt>
      <trkpt lat="50.07715" lon="3.77271">
        <ele>182.79</ele>
        <time>2020-07-09T14:52:57Z</time>
      </trkpt>
      <trkpt lat="50.07644" lon="3.77378">
        <ele>182.79</ele>
        <time>2020-07-09T14:53:15Z</time>
      </trkpt>
      <trkpt lat="50.0757" lon="3.77465">
        <ele>182.79</ele>
        <time>2020-07-09T14:53:32Z</time>
      </trkpt>
      <trkpt lat="50.07518" lon="3.77533">
        <ele>184.71</ele>
        <time>2020-07-09T14:53:46Z</time>
      </trkpt>
      <trkpt lat="50.07449" lon="3.77618">
        <ele>185.19</ele>
        <time>2020-07-09T14:54:03Z</time>
      </trkpt>
      <trkpt lat="50.07371" lon="3.777">
        <ele>183.75</ele>
        <time>2020-07-09T14:54:18Z</time>
      </trkpt>
      <trkpt lat="50.07367" lon="3.77707">
        <ele>182.79</ele>
        <time>2020-07-09T14:54:19Z</time>
      </trkpt>
      <trkpt lat="50.07329" lon="3.77751">
        <ele>181.83</ele>
        <time>2020-07-09T14:54:26Z</time>
      </trkpt>
      <trkpt lat="50.07323" lon="3.77757">
        <ele>181.83</ele>
        <time>2020-07-09T14:54:27Z</time>
      </trkpt>
      <trkpt lat="50.07236" lon="3.77798">
        <ele>181.35</ele>
        <time>2020-07-09T14:54:40Z</time>
      </trkpt>
      <trkpt lat="50.07165" lon="3.77846">
        <ele>181.35</ele>
        <time>2020-07-09T14:54:53Z</time>
      </trkpt>
      <trkpt lat="50.07152" lon="3.77855">
        <ele>182.79</ele>
        <time>2020-07-09T14:54:56Z</time>
      </trkpt>
      <trkpt lat="50.07126" lon="3.77872">
        <ele>182.79</ele>
        <time>2020-07-09T14:55:02Z</time>
      </trkpt>
      <trkpt lat="50.07113" lon="3.7788">
        <ele>182.79</ele>
        <time>2020-07-09T14:55:05Z</time>
      </trkpt>
      <trkpt lat="50.07104" lon="3.77887">
        <ele>182.79</ele>
        <time>2020-07-09T14:55:07Z</time>
      </trkpt>
      <trkpt lat="50.071" lon="3.7789">
        <ele>182.79</ele>
        <time>2020-07-09T14:55:08Z</time>
      </trkpt>
      <trkpt lat="50.07085" lon="3.779">
        <ele>182.79</ele>
        <time>2020-07-09T14:55:11Z</time>
      </trkpt>
      <trkpt lat="50.0708" lon="3.77903">
        <ele>182.79</ele>
        <time>2020-07-09T14:55:12Z</time>
      </trkpt>
      <trkpt lat="50.06992" lon="3.77971">
        <ele>180.87</ele>
        <time>2020-07-09T14:55:29Z</time>
      </trkpt>
      <trkpt lat="50.06979" lon="3.77986">
        <ele>180.87</ele>
        <time>2020-07-09T14:55:32Z</time>
      </trkpt>
      <trkpt lat="50.06968" lon="3.77996">
        <ele>180.87</ele>
        <time>2020-07-09T14:55:34Z</time>
      </trkpt>
      <trkpt lat="50.06962" lon="3.78002">
        <ele>180.87</ele>
        <time>2020-07-09T14:55:35Z</time>
      </trkpt>
      <trkpt lat="50.06935" lon="3.78031">
        <ele>182.31</ele>
        <time>2020-07-09T14:55:40Z</time>
      </trkpt>
      <trkpt lat="50.06853" lon="3.78115">
        <ele>183.27</ele>
        <time>2020-07-09T14:55:58Z</time>
      </trkpt>
      <trkpt lat="50.06779" lon="3.7819">
        <ele>183.27</ele>
        <time>2020-07-09T14:56:15Z</time>
      </trkpt>
      <trkpt lat="50.06703" lon="3.7828">
        <ele>183.75</ele>
        <time>2020-07-09T14:56:33Z</time>
      </trkpt>
      <trkpt lat="50.06657" lon="3.7837">
        <ele>184.71</ele>
        <time>2020-07-09T14:56:48Z</time>
      </trkpt>
      <trkpt lat="50.06654" lon="3.78375">
        <ele>184.71</ele>
        <time>2020-07-09T14:56:49Z</time>
      </trkpt>
      <trkpt lat="50.06651" lon="3.78381">
        <ele>184.71</ele>
        <time>2020-07-09T14:56:50Z</time>
      </trkpt>
      <trkpt lat="50.06648" lon="3.78387">
        <ele>184.71</ele>
        <time>2020-07-09T14:56:51Z</time>
      </trkpt>
      <trkpt lat="50.06645" lon="3.78394">
        <ele>184.71</ele>
        <time>2020-07-09T14:56:52Z</time>
      </trkpt>
      <trkpt lat="50.06617" lon="3.78454">
        <ele>185.67</ele>
        <time>2020-07-09T14:57:01Z</time>
      </trkpt>
      <trkpt lat="50.06612" lon="3.78464">
        <ele>185.67</ele>
        <time>2020-07-09T14:57:02Z</time>
      </trkpt>
      <trkpt lat="50.06609" lon="3.78472">
        <ele>185.67</ele>
        <time>2020-07-09T14:57:03Z</time>
      </trkpt>
      <trkpt lat="50.06569" lon="3.78569">
        <ele>186.15</ele>
        <time>2020-07-09T14:57:14Z</time>
      </trkpt>
      <trkpt lat="50.06555" lon="3.78611">
        <ele>187.11</ele>
        <time>2020-07-09T14:57:19Z</time>
      </trkpt>
      <trkpt lat="50.06523" lon="3.78727">
        <ele>187.59</ele>
        <time>2020-07-09T14:57:35Z</time>
      </trkpt>
      <trkpt lat="50.06486" lon="3.78863">
        <ele>188.08</ele>
        <time>2020-07-09T14:57:53Z</time>
      </trkpt>
      <trkpt lat="50.06438" lon="3.78966">
        <ele>185.67</ele>
        <time>2020-07-09T14:58:06Z</time>
      </trkpt>
      <trkpt lat="50.06351" lon="3.79063">
        <ele>185.19</ele>
        <time>2020-07-09T14:58:22Z</time>
      </trkpt>
      <trkpt lat="50.06325" lon="3.79093">
        <ele>186.63</ele>
        <time>2020-07-09T14:58:28Z</time>
      </trkpt>
      <trkpt lat="50.06303" lon="3.79126">
        <ele>187.11</ele>
        <time>2020-07-09T14:58:34Z</time>
      </trkpt>
      <trkpt lat="50.06272" lon="3.79208">
        <ele>188.08</ele>
        <time>2020-07-09T14:58:48Z</time>
      </trkpt>
      <trkpt lat="50.0627" lon="3.79214">
        <ele>188.08</ele>
        <time>2020-07-09T14:58:49Z</time>
      </trkpt>
      <trkpt lat="50.06265" lon="3.79225">
        <ele>188.08</ele>
        <time>2020-07-09T14:58:51Z</time>
      </trkpt>
      <trkpt lat="50.06263" lon="3.79231">
        <ele>188.08</ele>
        <time>2020-07-09T14:58:52Z</time>
      </trkpt>
      <trkpt lat="50.06261" lon="3.79236">
        <ele>188.08</ele>
        <time>2020-07-09T14:58:53Z</time>
      </trkpt>
      <trkpt lat="50.06221" lon="3.79341">
        <ele>189.04</ele>
        <time>2020-07-09T14:59:09Z</time>
      </trkpt>
      <trkpt lat="50.06209" lon="3.79368">
        <ele>189.04</ele>
        <time>2020-07-09T14:59:13Z</time>
      </trkpt>
      <trkpt lat="50.06197" lon="3.79396">
        <ele>189.04</ele>
        <time>2020-07-09T14:59:17Z</time>
      </trkpt>
      <trkpt lat="50.06157" lon="3.7947">
        <ele>189.04</ele>
        <time>2020-07-09T14:59:29Z</time>
      </trkpt>
      <trkpt lat="50.06154" lon="3.79476">
        <ele>189.04</ele>
        <time>2020-07-09T14:59:30Z</time>
      </trkpt>
      <trkpt lat="50.06135" lon="3.79511">
        <ele>189.52</ele>
        <time>2020-07-09T14:59:36Z</time>
      </trkpt>
      <trkpt lat="50.06132" lon="3.79516">
        <ele>189.52</ele>
        <time>2020-07-09T14:59:37Z</time>
      </trkpt>
      <trkpt lat="50.06126" lon="3.79528">
        <ele>189.52</ele>
        <time>2020-07-09T14:59:39Z</time>
      </trkpt>
      <trkpt lat="50.06122" lon="3.79534">
        <ele>189.52</ele>
        <time>2020-07-09T14:59:40Z</time>
      </trkpt>
      <trkpt lat="50.06119" lon="3.7954">
        <ele>189.52</ele>
        <time>2020-07-09T14:59:41Z</time>
      </trkpt>
      <trkpt lat="50.06066" lon="3.79641">
        <ele>189.52</ele>
        <time>2020-07-09T14:59:57Z</time>
      </trkpt>
      <trkpt lat="50.06054" lon="3.79662">
        <ele>189.52</ele>
        <time>2020-07-09T15:00:01Z</time>
      </trkpt>
      <trkpt lat="50.06051" lon="3.79668">
        <ele>189.52</ele>
        <time>2020-07-09T15:00:02Z</time>
      </trkpt>
      <trkpt lat="50.06049" lon="3.79675">
        <ele>189.52</ele>
        <time>2020-07-09T15:00:03Z</time>
      </trkpt>
      <trkpt lat="50.06051" lon="3.79681">
        <ele>189.52</ele>
        <time>2020-07-09T15:00:04Z</time>
      </trkpt>
      <trkpt lat="50.06056" lon="3.79688">
        <ele>189.52</ele>
        <time>2020-07-09T15:00:05Z</time>
      </trkpt>
      <trkpt lat="50.06059" lon="3.79693">
        <ele>189.52</ele>
        <time>2020-07-09T15:00:06Z</time>
      </trkpt>
      <trkpt lat="50.06063" lon="3.79702">
        <ele>189.52</ele>
        <time>2020-07-09T15:00:07Z</time>
      </trkpt>
      <trkpt lat="50.06066" lon="3.79711">
        <ele>189.52</ele>
        <time>2020-07-09T15:00:08Z</time>
      </trkpt>
      <trkpt lat="50.0607" lon="3.7972">
        <ele>189.52</ele>
        <time>2020-07-09T15:00:09Z</time>
      </trkpt>
      <trkpt lat="50.06073" lon="3.79729">
        <ele>189.52</ele>
        <time>2020-07-09T15:00:10Z</time>
      </trkpt>
      <trkpt lat="50.06076" lon="3.79737">
        <ele>190.48</ele>
        <time>2020-07-09T15:00:11Z</time>
      </trkpt>
      <trkpt lat="50.06112" lon="3.79845">
        <ele>193.36</ele>
        <time>2020-07-09T15:00:25Z</time>
      </trkpt>
      <trkpt lat="50.06149" lon="3.79946">
        <ele>194.8</ele>
        <time>2020-07-09T15:00:39Z</time>
      </trkpt>
      <trkpt lat="50.06176" lon="3.80011">
        <ele>196.25</ele>
        <time>2020-07-09T15:00:47Z</time>
      </trkpt>
      <trkpt lat="50.06187" lon="3.80032">
        <ele>197.21</ele>
        <time>2020-07-09T15:00:50Z</time>
      </trkpt>
      <trkpt lat="50.06246" lon="3.80089">
        <ele>198.17</ele>
        <time>2020-07-09T15:01:03Z</time>
      </trkpt>
      <trkpt lat="50.0625" lon="3.80093">
        <ele>198.17</ele>
        <time>2020-07-09T15:01:04Z</time>
      </trkpt>
      <trkpt lat="50.06255" lon="3.80095">
        <ele>198.17</ele>
        <time>2020-07-09T15:01:05Z</time>
      </trkpt>
      <trkpt lat="50.0626" lon="3.80098">
        <ele>198.65</ele>
        <time>2020-07-09T15:01:06Z</time>
      </trkpt>
      <trkpt lat="50.06264" lon="3.80102">
        <ele>198.65</ele>
        <time>2020-07-09T15:01:07Z</time>
      </trkpt>
      <trkpt lat="50.06268" lon="3.80105">
        <ele>199.13</ele>
        <time>2020-07-09T15:01:08Z</time>
      </trkpt>
      <trkpt lat="50.06272" lon="3.80107">
        <ele>199.13</ele>
        <time>2020-07-09T15:01:09Z</time>
      </trkpt>
      <trkpt lat="50.06297" lon="3.80129">
        <ele>200.57</ele>
        <time>2020-07-09T15:01:17Z</time>
      </trkpt>
      <trkpt lat="50.063" lon="3.80132">
        <ele>201.05</ele>
        <time>2020-07-09T15:01:18Z</time>
      </trkpt>
      <trkpt lat="50.06319" lon="3.80158">
        <ele>202.01</ele>
        <time>2020-07-09T15:01:24Z</time>
      </trkpt>
      <trkpt lat="50.06333" lon="3.80186">
        <ele>203.46</ele>
        <time>2020-07-09T15:01:29Z</time>
      </trkpt>
      <trkpt lat="50.06344" lon="3.80212">
        <ele>203.94</ele>
        <time>2020-07-09T15:01:33Z</time>
      </trkpt>
      <trkpt lat="50.06372" lon="3.80322">
        <ele>204.42</ele>
        <time>2020-07-09T15:01:49Z</time>
      </trkpt>
      <trkpt lat="50.06387" lon="3.80393">
        <ele>204.42</ele>
        <time>2020-07-09T15:01:58Z</time>
      </trkpt>
      <trkpt lat="50.06388" lon="3.80401">
        <ele>204.42</ele>
        <time>2020-07-09T15:01:59Z</time>
      </trkpt>
      <trkpt lat="50.0641" lon="3.80552">
        <ele>204.9</ele>
        <time>2020-07-09T15:02:18Z</time>
      </trkpt>
      <trkpt lat="50.06427" lon="3.80696">
        <ele>205.38</ele>
        <time>2020-07-09T15:02:37Z</time>
      </trkpt>
      <trkpt lat="50.06433" lon="3.80771">
        <ele>205.38</ele>
        <time>2020-07-09T15:02:46Z</time>
      </trkpt>
      <trkpt lat="50.06435" lon="3.8078">
        <ele>205.38</ele>
        <time>2020-07-09T15:02:47Z</time>
      </trkpt>
      <trkpt lat="50.06438" lon="3.80787">
        <ele>205.38</ele>
        <time>2020-07-09T15:02:48Z</time>
      </trkpt>
      <trkpt lat="50.06442" lon="3.80795">
        <ele>205.38</ele>
        <time>2020-07-09T15:02:49Z</time>
      </trkpt>
      <trkpt lat="50.06446" lon="3.80801">
        <ele>203.94</ele>
        <time>2020-07-09T15:02:50Z</time>
      </trkpt>
      <trkpt lat="50.06451" lon="3.80808">
        <ele>203.94</ele>
        <time>2020-07-09T15:02:51Z</time>
      </trkpt>
      <trkpt lat="50.06525" lon="3.80884">
        <ele>202.49</ele>
        <time>2020-07-09T15:03:04Z</time>
      </trkpt>
      <trkpt lat="50.06552" lon="3.80929">
        <ele>202.01</ele>
        <time>2020-07-09T15:03:10Z</time>
      </trkpt>
      <trkpt lat="50.06572" lon="3.80998">
        <ele>202.01</ele>
        <time>2020-07-09T15:03:18Z</time>
      </trkpt>
      <trkpt lat="50.06607" lon="3.81078">
        <ele>203.94</ele>
        <time>2020-07-09T15:03:29Z</time>
      </trkpt>
      <trkpt lat="50.06627" lon="3.81125">
        <ele>205.38</ele>
        <time>2020-07-09T15:03:36Z</time>
      </trkpt>
      <trkpt lat="50.06662" lon="3.81197">
        <ele>203.46</ele>
        <time>2020-07-09T15:03:45Z</time>
      </trkpt>
      <trkpt lat="50.06731" lon="3.81302">
        <ele>202.01</ele>
        <time>2020-07-09T15:03:58Z</time>
      </trkpt>
      <trkpt lat="50.0677" lon="3.81374">
        <ele>202.01</ele>
        <time>2020-07-09T15:04:06Z</time>
      </trkpt>
      <trkpt lat="50.06775" lon="3.81384">
        <ele>202.01</ele>
        <time>2020-07-09T15:04:07Z</time>
      </trkpt>
      <trkpt lat="50.0678" lon="3.81392">
        <ele>202.01</ele>
        <time>2020-07-09T15:04:08Z</time>
      </trkpt>
      <trkpt lat="50.06786" lon="3.81401">
        <ele>202.01</ele>
        <time>2020-07-09T15:04:09Z</time>
      </trkpt>
      <trkpt lat="50.06791" lon="3.81411">
        <ele>202.01</ele>
        <time>2020-07-09T15:04:10Z</time>
      </trkpt>
      <trkpt lat="50.06795" lon="3.81421">
        <ele>202.01</ele>
        <time>2020-07-09T15:04:11Z</time>
      </trkpt>
      <trkpt lat="50.06866" lon="3.81546">
        <ele>200.57</ele>
        <time>2020-07-09T15:04:24Z</time>
      </trkpt>
      <trkpt lat="50.06886" lon="3.81575">
        <ele>200.09</ele>
        <time>2020-07-09T15:04:27Z</time>
      </trkpt>
      <trkpt lat="50.06924" lon="3.81643">
        <ele>197.21</ele>
        <time>2020-07-09T15:04:33Z</time>
      </trkpt>
      <trkpt lat="50.06977" lon="3.81719">
        <ele>193.84</ele>
        <time>2020-07-09T15:04:40Z</time>
      </trkpt>
      <trkpt lat="50.0701" lon="3.81756">
        <ele>193.36</ele>
        <time>2020-07-09T15:04:44Z</time>
      </trkpt>
      <trkpt lat="50.0702" lon="3.81762">
        <ele>193.36</ele>
        <time>2020-07-09T15:04:45Z</time>
      </trkpt>
      <trkpt lat="50.07039" lon="3.81772">
        <ele>192.88</ele>
        <time>2020-07-09T15:04:47Z</time>
      </trkpt>
      <trkpt lat="50.07048" lon="3.81776">
        <ele>192.88</ele>
        <time>2020-07-09T15:04:48Z</time>
      </trkpt>
      <trkpt lat="50.07057" lon="3.81781">
        <ele>192.88</ele>
        <time>2020-07-09T15:04:49Z</time>
      </trkpt>
      <trkpt lat="50.07066" lon="3.81786">
        <ele>192.88</ele>
        <time>2020-07-09T15:04:50Z</time>
      </trkpt>
      <trkpt lat="50.07074" lon="3.81794">
        <ele>192.4</ele>
        <time>2020-07-09T15:04:51Z</time>
      </trkpt>
      <trkpt lat="50.07081" lon="3.81802">
        <ele>192.4</ele>
        <time>2020-07-09T15:04:52Z</time>
      </trkpt>
      <trkpt lat="50.07102" lon="3.81827">
        <ele>192.4</ele>
        <time>2020-07-09T15:04:55Z</time>
      </trkpt>
      <trkpt lat="50.07206" lon="3.81935">
        <ele>190.96</ele>
        <time>2020-07-09T15:05:08Z</time>
      </trkpt>
      <trkpt lat="50.07317" lon="3.82028">
        <ele>188.08</ele>
        <time>2020-07-09T15:05:22Z</time>
      </trkpt>
      <trkpt lat="50.07339" lon="3.82053">
        <ele>187.11</ele>
        <time>2020-07-09T15:05:25Z</time>
      </trkpt>
      <trkpt lat="50.07383" lon="3.82133">
        <ele>185.67</ele>
        <time>2020-07-09T15:05:32Z</time>
      </trkpt>
      <trkpt lat="50.07454" lon="3.8225">
        <ele>183.75</ele>
        <time>2020-07-09T15:05:43Z</time>
      </trkpt>
      <trkpt lat="50.07511" lon="3.82305">
        <ele>180.87</ele>
        <time>2020-07-09T15:05:50Z</time>
      </trkpt>
      <trkpt lat="50.07579" lon="3.82394">
        <ele>177.5</ele>
        <time>2020-07-09T15:05:59Z</time>
      </trkpt>
      <trkpt lat="50.07659" lon="3.82566">
        <ele>174.14</ele>
        <time>2020-07-09T15:06:12Z</time>
      </trkpt>
      <trkpt lat="50.07735" lon="3.82727">
        <ele>171.25</ele>
        <time>2020-07-09T15:06:25Z</time>
      </trkpt>
      <trkpt lat="50.07761" lon="3.82769">
        <ele>170.29</ele>
        <time>2020-07-09T15:06:29Z</time>
      </trkpt>
      <trkpt lat="50.07768" lon="3.82779">
        <ele>170.29</ele>
        <time>2020-07-09T15:06:30Z</time>
      </trkpt>
      <trkpt lat="50.07775" lon="3.82788">
        <ele>169.81</ele>
        <time>2020-07-09T15:06:31Z</time>
      </trkpt>
      <trkpt lat="50.07783" lon="3.82797">
        <ele>169.33</ele>
        <time>2020-07-09T15:06:32Z</time>
      </trkpt>
      <trkpt lat="50.07792" lon="3.82805">
        <ele>169.33</ele>
        <time>2020-07-09T15:06:33Z</time>
      </trkpt>
      <trkpt lat="50.07801" lon="3.82812">
        <ele>169.33</ele>
        <time>2020-07-09T15:06:34Z</time>
      </trkpt>
      <trkpt lat="50.07845" lon="3.82843">
        <ele>167.89</ele>
        <time>2020-07-09T15:06:39Z</time>
      </trkpt>
      <trkpt lat="50.07854" lon="3.8285">
        <ele>166.93</ele>
        <time>2020-07-09T15:06:40Z</time>
      </trkpt>
      <trkpt lat="50.07952" lon="3.82896">
        <ele>163.56</ele>
        <time>2020-07-09T15:06:50Z</time>
      </trkpt>
      <trkpt lat="50.08018" lon="3.82929">
        <ele>161.64</ele>
        <time>2020-07-09T15:06:57Z</time>
      </trkpt>
      <trkpt lat="50.08121" lon="3.82981">
        <ele>161.64</ele>
        <time>2020-07-09T15:07:10Z</time>
      </trkpt>
      <trkpt lat="50.0818" lon="3.83004">
        <ele>163.56</ele>
        <time>2020-07-09T15:07:20Z</time>
      </trkpt>
      <trkpt lat="50.08189" lon="3.83009">
        <ele>164.52</ele>
        <time>2020-07-09T15:07:22Z</time>
      </trkpt>
      <trkpt lat="50.08194" lon="3.83011">
        <ele>164.52</ele>
        <time>2020-07-09T15:07:23Z</time>
      </trkpt>
      <trkpt lat="50.08198" lon="3.83014">
        <ele>164.52</ele>
        <time>2020-07-09T15:07:24Z</time>
      </trkpt>
      <trkpt lat="50.08206" lon="3.8302">
        <ele>164.52</ele>
        <time>2020-07-09T15:07:26Z</time>
      </trkpt>
      <trkpt lat="50.08284" lon="3.83067">
        <ele>164.52</ele>
        <time>2020-07-09T15:07:43Z</time>
      </trkpt>
      <trkpt lat="50.08294" lon="3.83075">
        <ele>164.04</ele>
        <time>2020-07-09T15:07:45Z</time>
      </trkpt>
      <trkpt lat="50.08303" lon="3.83084">
        <ele>164.04</ele>
        <time>2020-07-09T15:07:47Z</time>
      </trkpt>
      <trkpt lat="50.08364" lon="3.83174">
        <ele>161.64</ele>
        <time>2020-07-09T15:08:01Z</time>
      </trkpt>
      <trkpt lat="50.08423" lon="3.83256">
        <ele>161.16</ele>
        <time>2020-07-09T15:08:14Z</time>
      </trkpt>
      <trkpt lat="50.08489" lon="3.83372">
        <ele>157.79</ele>
        <time>2020-07-09T15:08:29Z</time>
      </trkpt>
      <trkpt lat="50.08546" lon="3.83519">
        <ele>154.91</ele>
        <time>2020-07-09T15:08:42Z</time>
      </trkpt>
      <trkpt lat="50.08617" lon="3.83614">
        <ele>153.95</ele>
        <time>2020-07-09T15:08:53Z</time>
      </trkpt>
      <trkpt lat="50.08639" lon="3.83625">
        <ele>153.95</ele>
        <time>2020-07-09T15:08:56Z</time>
      </trkpt>
      <trkpt lat="50.08645" lon="3.8363">
        <ele>153.95</ele>
        <time>2020-07-09T15:08:57Z</time>
      </trkpt>
      <trkpt lat="50.08745" lon="3.83688">
        <ele>153.47</ele>
        <time>2020-07-09T15:09:12Z</time>
      </trkpt>
      <trkpt lat="50.0883" lon="3.83776">
        <ele>150.58</ele>
        <time>2020-07-09T15:09:27Z</time>
      </trkpt>
      <trkpt lat="50.0893" lon="3.83897">
        <ele>149.14</ele>
        <time>2020-07-09T15:09:44Z</time>
      </trkpt>
      <trkpt lat="50.0894" lon="3.83911">
        <ele>147.7</ele>
        <time>2020-07-09T15:09:46Z</time>
      </trkpt>
      <trkpt lat="50.09027" lon="3.84021">
        <ele>147.7</ele>
        <time>2020-07-09T15:10:03Z</time>
      </trkpt>
      <trkpt lat="50.09042" lon="3.84039">
        <ele>147.7</ele>
        <time>2020-07-09T15:10:06Z</time>
      </trkpt>
      <trkpt lat="50.09102" lon="3.84112">
        <ele>146.74</ele>
        <time>2020-07-09T15:10:19Z</time>
      </trkpt>
      <trkpt lat="50.09105" lon="3.84119">
        <ele>146.74</ele>
        <time>2020-07-09T15:10:20Z</time>
      </trkpt>
      <trkpt lat="50.09108" lon="3.84127">
        <ele>146.74</ele>
        <time>2020-07-09T15:10:21Z</time>
      </trkpt>
      <trkpt lat="50.09122" lon="3.84183">
        <ele>146.74</ele>
        <time>2020-07-09T15:10:27Z</time>
      </trkpt>
      <trkpt lat="50.09125" lon="3.8419">
        <ele>146.74</ele>
        <time>2020-07-09T15:10:28Z</time>
      </trkpt>
      <trkpt lat="50.09162" lon="3.84268">
        <ele>146.74</ele>
        <time>2020-07-09T15:10:38Z</time>
      </trkpt>
      <trkpt lat="50.09186" lon="3.84313">
        <ele>146.74</ele>
        <time>2020-07-09T15:10:44Z</time>
      </trkpt>
      <trkpt lat="50.09203" lon="3.8434">
        <ele>146.74</ele>
        <time>2020-07-09T15:10:48Z</time>
      </trkpt>
      <trkpt lat="50.09227" lon="3.84381">
        <ele>146.74</ele>
        <time>2020-07-09T15:10:54Z</time>
      </trkpt>
      <trkpt lat="50.0923" lon="3.84389">
        <ele>146.74</ele>
        <time>2020-07-09T15:10:55Z</time>
      </trkpt>
      <trkpt lat="50.09244" lon="3.84434">
        <ele>146.74</ele>
        <time>2020-07-09T15:11:01Z</time>
      </trkpt>
      <trkpt lat="50.09247" lon="3.8444">
        <ele>146.74</ele>
        <time>2020-07-09T15:11:02Z</time>
      </trkpt>
      <trkpt lat="50.09277" lon="3.84499">
        <ele>148.18</ele>
        <time>2020-07-09T15:11:12Z</time>
      </trkpt>
      <trkpt lat="50.09281" lon="3.84505">
        <ele>148.18</ele>
        <time>2020-07-09T15:11:13Z</time>
      </trkpt>
      <trkpt lat="50.09301" lon="3.84544">
        <ele>149.14</ele>
        <time>2020-07-09T15:11:19Z</time>
      </trkpt>
      <trkpt lat="50.09303" lon="3.84551">
        <ele>149.14</ele>
        <time>2020-07-09T15:11:20Z</time>
      </trkpt>
      <trkpt lat="50.09306" lon="3.84557">
        <ele>149.14</ele>
        <time>2020-07-09T15:11:21Z</time>
      </trkpt>
      <trkpt lat="50.09309" lon="3.84564">
        <ele>149.62</ele>
        <time>2020-07-09T15:11:22Z</time>
      </trkpt>
      <trkpt lat="50.09313" lon="3.8457">
        <ele>149.62</ele>
        <time>2020-07-09T15:11:23Z</time>
      </trkpt>
      <trkpt lat="50.09317" lon="3.84575">
        <ele>149.62</ele>
        <time>2020-07-09T15:11:24Z</time>
      </trkpt>
      <trkpt lat="50.09322" lon="3.8458">
        <ele>149.62</ele>
        <time>2020-07-09T15:11:25Z</time>
      </trkpt>
      <trkpt lat="50.09397" lon="3.84663">
        <ele>146.74</ele>
        <time>2020-07-09T15:11:38Z</time>
      </trkpt>
      <trkpt lat="50.09474" lon="3.84715">
        <ele>146.74</ele>
        <time>2020-07-09T15:11:51Z</time>
      </trkpt>
      <trkpt lat="50.09505" lon="3.84725">
        <ele>146.74</ele>
        <time>2020-07-09T15:11:56Z</time>
      </trkpt>
      <trkpt lat="50.09511" lon="3.84725">
        <ele>146.74</ele>
        <time>2020-07-09T15:11:57Z</time>
      </trkpt>
      <trkpt lat="50.09518" lon="3.84725">
        <ele>146.74</ele>
        <time>2020-07-09T15:11:58Z</time>
      </trkpt>
      <trkpt lat="50.09525" lon="3.84721">
        <ele>146.74</ele>
        <time>2020-07-09T15:11:59Z</time>
      </trkpt>
      <trkpt lat="50.0953" lon="3.84719">
        <ele>146.74</ele>
        <time>2020-07-09T15:12:00Z</time>
      </trkpt>
      <trkpt lat="50.09543" lon="3.84713">
        <ele>146.74</ele>
        <time>2020-07-09T15:12:02Z</time>
      </trkpt>
      <trkpt lat="50.09549" lon="3.84712">
        <ele>146.74</ele>
        <time>2020-07-09T15:12:03Z</time>
      </trkpt>
      <trkpt lat="50.09556" lon="3.84712">
        <ele>146.74</ele>
        <time>2020-07-09T15:12:04Z</time>
      </trkpt>
      <trkpt lat="50.09563" lon="3.84713">
        <ele>146.74</ele>
        <time>2020-07-09T15:12:05Z</time>
      </trkpt>
      <trkpt lat="50.09569" lon="3.84716">
        <ele>146.74</ele>
        <time>2020-07-09T15:12:06Z</time>
      </trkpt>
      <trkpt lat="50.09576" lon="3.8472">
        <ele>146.26</ele>
        <time>2020-07-09T15:12:07Z</time>
      </trkpt>
      <trkpt lat="50.09582" lon="3.84724">
        <ele>146.26</ele>
        <time>2020-07-09T15:12:08Z</time>
      </trkpt>
      <trkpt lat="50.09654" lon="3.84787">
        <ele>149.14</ele>
        <time>2020-07-09T15:12:22Z</time>
      </trkpt>
      <trkpt lat="50.09658" lon="3.8479">
        <ele>149.14</ele>
        <time>2020-07-09T15:12:23Z</time>
      </trkpt>
      <trkpt lat="50.09662" lon="3.84793">
        <ele>149.62</ele>
        <time>2020-07-09T15:12:24Z</time>
      </trkpt>
      <trkpt lat="50.09667" lon="3.84796">
        <ele>149.62</ele>
        <time>2020-07-09T15:12:25Z</time>
      </trkpt>
      <trkpt lat="50.09671" lon="3.848">
        <ele>150.1</ele>
        <time>2020-07-09T15:12:26Z</time>
      </trkpt>
      <trkpt lat="50.09675" lon="3.84803">
        <ele>150.58</ele>
        <time>2020-07-09T15:12:27Z</time>
      </trkpt>
      <trkpt lat="50.0968" lon="3.84806">
        <ele>151.54</ele>
        <time>2020-07-09T15:12:28Z</time>
      </trkpt>
      <trkpt lat="50.09685" lon="3.84808">
        <ele>152.03</ele>
        <time>2020-07-09T15:12:29Z</time>
      </trkpt>
      <trkpt lat="50.09736" lon="3.84835">
        <ele>154.43</ele>
        <time>2020-07-09T15:12:40Z</time>
      </trkpt>
      <trkpt lat="50.09741" lon="3.84838">
        <ele>154.91</ele>
        <time>2020-07-09T15:12:41Z</time>
      </trkpt>
      <trkpt lat="50.0975" lon="3.84841">
        <ele>154.91</ele>
        <time>2020-07-09T15:12:43Z</time>
      </trkpt>
      <trkpt lat="50.09755" lon="3.84841">
        <ele>154.91</ele>
        <time>2020-07-09T15:12:44Z</time>
      </trkpt>
      <trkpt lat="50.0976" lon="3.84839">
        <ele>154.91</ele>
        <time>2020-07-09T15:12:45Z</time>
      </trkpt>
      <trkpt lat="50.09765" lon="3.84834">
        <ele>154.91</ele>
        <time>2020-07-09T15:12:46Z</time>
      </trkpt>
      <trkpt lat="50.09769" lon="3.84829">
        <ele>154.91</ele>
        <time>2020-07-09T15:12:47Z</time>
      </trkpt>
      <trkpt lat="50.09773" lon="3.84823">
        <ele>154.91</ele>
        <time>2020-07-09T15:12:48Z</time>
      </trkpt>
      <trkpt lat="50.09818" lon="3.84747">
        <ele>156.35</ele>
        <time>2020-07-09T15:13:00Z</time>
      </trkpt>
      <trkpt lat="50.09828" lon="3.84726">
        <ele>157.79</ele>
        <time>2020-07-09T15:13:03Z</time>
      </trkpt>
      <trkpt lat="50.09839" lon="3.84706">
        <ele>157.79</ele>
        <time>2020-07-09T15:13:06Z</time>
      </trkpt>
      <trkpt lat="50.09866" lon="3.84657">
        <ele>157.79</ele>
        <time>2020-07-09T15:13:14Z</time>
      </trkpt>
      <trkpt lat="50.09882" lon="3.84631">
        <ele>157.79</ele>
        <time>2020-07-09T15:13:18Z</time>
      </trkpt>
      <trkpt lat="50.09885" lon="3.84622">
        <ele>156.83</ele>
        <time>2020-07-09T15:13:19Z</time>
      </trkpt>
      <trkpt lat="50.09889" lon="3.84614">
        <ele>156.35</ele>
        <time>2020-07-09T15:13:20Z</time>
      </trkpt>
      <trkpt lat="50.09892" lon="3.84604">
        <ele>155.39</ele>
        <time>2020-07-09T15:13:21Z</time>
      </trkpt>
      <trkpt lat="50.09894" lon="3.84594">
        <ele>155.39</ele>
        <time>2020-07-09T15:13:22Z</time>
      </trkpt>
      <trkpt lat="50.09904" lon="3.84514">
        <ele>153.47</ele>
        <time>2020-07-09T15:13:29Z</time>
      </trkpt>
      <trkpt lat="50.09904" lon="3.84502">
        <ele>153.47</ele>
        <time>2020-07-09T15:13:30Z</time>
      </trkpt>
      <trkpt lat="50.09902" lon="3.84491">
        <ele>153.47</ele>
        <time>2020-07-09T15:13:31Z</time>
      </trkpt>
      <trkpt lat="50.099" lon="3.8448">
        <ele>152.51</ele>
        <time>2020-07-09T15:13:32Z</time>
      </trkpt>
      <trkpt lat="50.09898" lon="3.84468">
        <ele>152.51</ele>
        <time>2020-07-09T15:13:33Z</time>
      </trkpt>
      <trkpt lat="50.09896" lon="3.84457">
        <ele>152.51</ele>
        <time>2020-07-09T15:13:34Z</time>
      </trkpt>
      <trkpt lat="50.09896" lon="3.84446">
        <ele>152.51</ele>
        <time>2020-07-09T15:13:35Z</time>
      </trkpt>
      <trkpt lat="50.09897" lon="3.84435">
        <ele>151.54</ele>
        <time>2020-07-09T15:13:36Z</time>
      </trkpt>
      <trkpt lat="50.09899" lon="3.84425">
        <ele>151.54</ele>
        <time>2020-07-09T15:13:37Z</time>
      </trkpt>
      <trkpt lat="50.09901" lon="3.84414">
        <ele>151.54</ele>
        <time>2020-07-09T15:13:38Z</time>
      </trkpt>
      <trkpt lat="50.09904" lon="3.84404">
        <ele>151.06</ele>
        <time>2020-07-09T15:13:39Z</time>
      </trkpt>
      <trkpt lat="50.09907" lon="3.84394">
        <ele>151.06</ele>
        <time>2020-07-09T15:13:40Z</time>
      </trkpt>
      <trkpt lat="50.09923" lon="3.84342">
        <ele>150.58</ele>
        <time>2020-07-09T15:13:45Z</time>
      </trkpt>
      <trkpt lat="50.0994" lon="3.84302">
        <ele>150.1</ele>
        <time>2020-07-09T15:13:49Z</time>
      </trkpt>
      <trkpt lat="50.09945" lon="3.84294">
        <ele>150.1</ele>
        <time>2020-07-09T15:13:50Z</time>
      </trkpt>
      <trkpt lat="50.09951" lon="3.84286">
        <ele>150.1</ele>
        <time>2020-07-09T15:13:51Z</time>
      </trkpt>
      <trkpt lat="50.09973" lon="3.8425">
        <ele>150.1</ele>
        <time>2020-07-09T15:13:55Z</time>
      </trkpt>
      <trkpt lat="50.09978" lon="3.84242">
        <ele>150.1</ele>
        <time>2020-07-09T15:13:56Z</time>
      </trkpt>
      <trkpt lat="50.09982" lon="3.84234">
        <ele>151.06</ele>
        <time>2020-07-09T15:13:57Z</time>
      </trkpt>
      <trkpt lat="50.09992" lon="3.84211">
        <ele>151.06</ele>
        <time>2020-07-09T15:14:00Z</time>
      </trkpt>
      <trkpt lat="50.10001" lon="3.84186">
        <ele>152.03</ele>
        <time>2020-07-09T15:14:03Z</time>
      </trkpt>
      <trkpt lat="50.10012" lon="3.84153">
        <ele>153.47</ele>
        <time>2020-07-09T15:14:07Z</time>
      </trkpt>
      <trkpt lat="50.10018" lon="3.84151">
        <ele>155.39</ele>
        <time>2020-07-09T15:14:08Z</time>
      </trkpt>
      <trkpt lat="50.10022" lon="3.84153">
        <ele>155.87</ele>
        <time>2020-07-09T15:14:09Z</time>
      </trkpt>
      <trkpt lat="50.10025" lon="3.84158">
        <ele>156.35</ele>
        <time>2020-07-09T15:14:10Z</time>
      </trkpt>
      <trkpt lat="50.10029" lon="3.84163">
        <ele>156.35</ele>
        <time>2020-07-09T15:14:11Z</time>
      </trkpt>
      <trkpt lat="50.10032" lon="3.84168">
        <ele>156.83</ele>
        <time>2020-07-09T15:14:12Z</time>
      </trkpt>
      <trkpt lat="50.10064" lon="3.84194">
        <ele>159.24</ele>
        <time>2020-07-09T15:14:22Z</time>
      </trkpt>
      <trkpt lat="50.10078" lon="3.84204">
        <ele>160.2</ele>
        <time>2020-07-09T15:14:26Z</time>
      </trkpt>
      <trkpt lat="50.10082" lon="3.84208">
        <ele>160.2</ele>
        <time>2020-07-09T15:14:27Z</time>
      </trkpt>
      <trkpt lat="50.1014" lon="3.84254">
        <ele>162.12</ele>
        <time>2020-07-09T15:14:42Z</time>
      </trkpt>
      <trkpt lat="50.10144" lon="3.84257">
        <ele>162.12</ele>
        <time>2020-07-09T15:14:43Z</time>
      </trkpt>
      <trkpt lat="50.10149" lon="3.84261">
        <ele>162.12</ele>
        <time>2020-07-09T15:14:44Z</time>
      </trkpt>
      <trkpt lat="50.10229" lon="3.84332">
        <ele>163.56</ele>
        <time>2020-07-09T15:15:01Z</time>
      </trkpt>
      <trkpt lat="50.10279" lon="3.8438">
        <ele>165.48</ele>
        <time>2020-07-09T15:15:13Z</time>
      </trkpt>
      <trkpt lat="50.10305" lon="3.84405">
        <ele>167.41</ele>
        <time>2020-07-09T15:15:19Z</time>
      </trkpt>
      <trkpt lat="50.1035" lon="3.84427">
        <ele>169.33</ele>
        <time>2020-07-09T15:15:30Z</time>
      </trkpt>
      <trkpt lat="50.10359" lon="3.84432">
        <ele>169.33</ele>
        <time>2020-07-09T15:15:32Z</time>
      </trkpt>
      <trkpt lat="50.10368" lon="3.84438">
        <ele>169.81</ele>
        <time>2020-07-09T15:15:34Z</time>
      </trkpt>
      <trkpt lat="50.10373" lon="3.84439">
        <ele>169.81</ele>
        <time>2020-07-09T15:15:35Z</time>
      </trkpt>
      <trkpt lat="50.10377" lon="3.84441">
        <ele>169.81</ele>
        <time>2020-07-09T15:15:36Z</time>
      </trkpt>
      <trkpt lat="50.1038" lon="3.84443">
        <ele>169.81</ele>
        <time>2020-07-09T15:15:37Z</time>
      </trkpt>
      <trkpt lat="50.10384" lon="3.84445">
        <ele>170.29</ele>
        <time>2020-07-09T15:15:38Z</time>
      </trkpt>
      <trkpt lat="50.10388" lon="3.84447">
        <ele>170.29</ele>
        <time>2020-07-09T15:15:39Z</time>
      </trkpt>
      <trkpt lat="50.10446" lon="3.84472">
        <ele>172.21</ele>
        <time>2020-07-09T15:15:53Z</time>
      </trkpt>
      <trkpt lat="50.10479" lon="3.84484">
        <ele>173.17</ele>
        <time>2020-07-09T15:16:01Z</time>
      </trkpt>
      <trkpt lat="50.1049" lon="3.84489">
        <ele>173.66</ele>
        <time>2020-07-09T15:16:04Z</time>
      </trkpt>
      <trkpt lat="50.10495" lon="3.8449">
        <ele>173.66</ele>
        <time>2020-07-09T15:16:05Z</time>
      </trkpt>
      <trkpt lat="50.10499" lon="3.84493">
        <ele>173.66</ele>
        <time>2020-07-09T15:16:06Z</time>
      </trkpt>
      <trkpt lat="50.10564" lon="3.84522">
        <ele>177.02</ele>
        <time>2020-07-09T15:16:20Z</time>
      </trkpt>
      <trkpt lat="50.10596" lon="3.84538">
        <ele>178.46</ele>
        <time>2020-07-09T15:16:28Z</time>
      </trkpt>
      <trkpt lat="50.10626" lon="3.84548">
        <ele>180.87</ele>
        <time>2020-07-09T15:16:38Z</time>
      </trkpt>
      <trkpt lat="50.10669" lon="3.84563">
        <ele>182.31</ele>
        <time>2020-07-09T15:16:52Z</time>
      </trkpt>
      <trkpt lat="50.10705" lon="3.84575">
        <ele>183.75</ele>
        <time>2020-07-09T15:17:03Z</time>
      </trkpt>
      <trkpt lat="50.10722" lon="3.8456">
        <ele>184.71</ele>
        <time>2020-07-09T15:17:08Z</time>
      </trkpt>
      <trkpt lat="50.10726" lon="3.84556">
        <ele>185.67</ele>
        <time>2020-07-09T15:17:09Z</time>
      </trkpt>
      <trkpt lat="50.10729" lon="3.84552">
        <ele>185.67</ele>
        <time>2020-07-09T15:17:10Z</time>
      </trkpt>
      <trkpt lat="50.10731" lon="3.84548">
        <ele>186.15</ele>
        <time>2020-07-09T15:17:11Z</time>
      </trkpt>
      <trkpt lat="50.10735" lon="3.84544">
        <ele>186.15</ele>
        <time>2020-07-09T15:17:12Z</time>
      </trkpt>
      <trkpt lat="50.10753" lon="3.84522">
        <ele>187.11</ele>
        <time>2020-07-09T15:17:18Z</time>
      </trkpt>
      <trkpt lat="50.10783" lon="3.84492">
        <ele>188.56</ele>
        <time>2020-07-09T15:17:26Z</time>
      </trkpt>
      <trkpt lat="50.10829" lon="3.8447">
        <ele>190.96</ele>
        <time>2020-07-09T15:17:39Z</time>
      </trkpt>
      <trkpt lat="50.10878" lon="3.84452">
        <ele>192.4</ele>
        <time>2020-07-09T15:17:54Z</time>
      </trkpt>
      <trkpt lat="50.10924" lon="3.84434">
        <ele>193.36</ele>
        <time>2020-07-09T15:18:07Z</time>
      </trkpt>
      <trkpt lat="50.10979" lon="3.84409">
        <ele>193.84</ele>
        <time>2020-07-09T15:18:23Z</time>
      </trkpt>
      <trkpt lat="50.11" lon="3.844">
        <ele>193.84</ele>
        <time>2020-07-09T15:18:29Z</time>
      </trkpt>
      <trkpt lat="50.11003" lon="3.84396">
        <ele>193.84</ele>
        <time>2020-07-09T15:18:30Z</time>
      </trkpt>
      <trkpt lat="50.11005" lon="3.84389">
        <ele>193.84</ele>
        <time>2020-07-09T15:18:31Z</time>
      </trkpt>
      <trkpt lat="50.11005" lon="3.84382">
        <ele>193.84</ele>
        <time>2020-07-09T15:18:32Z</time>
      </trkpt>
      <trkpt lat="50.11005" lon="3.84376">
        <ele>192.88</ele>
        <time>2020-07-09T15:18:33Z</time>
      </trkpt>
      <trkpt lat="50.11004" lon="3.84369">
        <ele>192.88</ele>
        <time>2020-07-09T15:18:34Z</time>
      </trkpt>
      <trkpt lat="50.10999" lon="3.84325">
        <ele>191.92</ele>
        <time>2020-07-09T15:18:40Z</time>
      </trkpt>
      <trkpt lat="50.11" lon="3.84319">
        <ele>190.96</ele>
        <time>2020-07-09T15:18:41Z</time>
      </trkpt>
      <trkpt lat="50.11002" lon="3.84312">
        <ele>190.96</ele>
        <time>2020-07-09T15:18:42Z</time>
      </trkpt>
      <trkpt lat="50.11006" lon="3.84308">
        <ele>190.96</ele>
        <time>2020-07-09T15:18:43Z</time>
      </trkpt>
      <trkpt lat="50.11011" lon="3.84307">
        <ele>191.44</ele>
        <time>2020-07-09T15:18:44Z</time>
      </trkpt>
      <trkpt lat="50.11016" lon="3.84306">
        <ele>190.96</ele>
        <time>2020-07-09T15:18:45Z</time>
      </trkpt>
      <trkpt lat="50.11049" lon="3.84295">
        <ele>191.44</ele>
        <time>2020-07-09T15:18:51Z</time>
      </trkpt>
      <trkpt lat="50.11054" lon="3.84292">
        <ele>191.44</ele>
        <time>2020-07-09T15:18:52Z</time>
      </trkpt>
      <trkpt lat="50.11064" lon="3.84283">
        <ele>191.44</ele>
        <time>2020-07-09T15:18:54Z</time>
      </trkpt>
      <trkpt lat="50.11068" lon="3.8428">
        <ele>191.44</ele>
        <time>2020-07-09T15:18:55Z</time>
      </trkpt>
      <trkpt lat="50.11072" lon="3.84275">
        <ele>190.96</ele>
        <time>2020-07-09T15:18:56Z</time>
      </trkpt>
      <trkpt lat="50.11127" lon="3.8422">
        <ele>190</ele>
        <time>2020-07-09T15:19:07Z</time>
      </trkpt>
      <trkpt lat="50.11192" lon="3.84166">
        <ele>190</ele>
        <time>2020-07-09T15:19:20Z</time>
      </trkpt>
      <trkpt lat="50.11196" lon="3.84161">
        <ele>190</ele>
        <time>2020-07-09T15:19:21Z</time>
      </trkpt>
      <trkpt lat="50.112" lon="3.84155">
        <ele>190</ele>
        <time>2020-07-09T15:19:22Z</time>
      </trkpt>
      <trkpt lat="50.11222" lon="3.84108">
        <ele>189.52</ele>
        <time>2020-07-09T15:19:29Z</time>
      </trkpt>
      <trkpt lat="50.11226" lon="3.84102">
        <ele>189.52</ele>
        <time>2020-07-09T15:19:30Z</time>
      </trkpt>
      <trkpt lat="50.1123" lon="3.84097">
        <ele>189.52</ele>
        <time>2020-07-09T15:19:31Z</time>
      </trkpt>
      <trkpt lat="50.11234" lon="3.84092">
        <ele>189.04</ele>
        <time>2020-07-09T15:19:32Z</time>
      </trkpt>
      <trkpt lat="50.11239" lon="3.84087">
        <ele>189.52</ele>
        <time>2020-07-09T15:19:33Z</time>
      </trkpt>
      <trkpt lat="50.11244" lon="3.84084">
        <ele>189.04</ele>
        <time>2020-07-09T15:19:34Z</time>
      </trkpt>
      <trkpt lat="50.11249" lon="3.84081">
        <ele>189.04</ele>
        <time>2020-07-09T15:19:35Z</time>
      </trkpt>
      <trkpt lat="50.11281" lon="3.84065">
        <ele>188.08</ele>
        <time>2020-07-09T15:19:41Z</time>
      </trkpt>
      <trkpt lat="50.11287" lon="3.84064">
        <ele>188.08</ele>
        <time>2020-07-09T15:19:42Z</time>
      </trkpt>
      <trkpt lat="50.11319" lon="3.84063">
        <ele>186.63</ele>
        <time>2020-07-09T15:19:47Z</time>
      </trkpt>
      <trkpt lat="50.11325" lon="3.8406">
        <ele>186.63</ele>
        <time>2020-07-09T15:19:48Z</time>
      </trkpt>
      <trkpt lat="50.11331" lon="3.84057">
        <ele>186.63</ele>
        <time>2020-07-09T15:19:49Z</time>
      </trkpt>
      <trkpt lat="50.11359" lon="3.84036">
        <ele>185.19</ele>
        <time>2020-07-09T15:19:53Z</time>
      </trkpt>
      <trkpt lat="50.11368" lon="3.84033">
        <ele>185.19</ele>
        <time>2020-07-09T15:19:54Z</time>
      </trkpt>
      <trkpt lat="50.11376" lon="3.84032">
        <ele>183.75</ele>
        <time>2020-07-09T15:19:55Z</time>
      </trkpt>
      <trkpt lat="50.11385" lon="3.84034">
        <ele>182.79</ele>
        <time>2020-07-09T15:19:56Z</time>
      </trkpt>
      <trkpt lat="50.11395" lon="3.84036">
        <ele>182.31</ele>
        <time>2020-07-09T15:19:57Z</time>
      </trkpt>
      <trkpt lat="50.11438" lon="3.84049">
        <ele>178.94</ele>
        <time>2020-07-09T15:20:01Z</time>
      </trkpt>
      <trkpt lat="50.11474" lon="3.84057">
        <ele>175.58</ele>
        <time>2020-07-09T15:20:04Z</time>
      </trkpt>
      <trkpt lat="50.11513" lon="3.84061">
        <ele>172.21</ele>
        <time>2020-07-09T15:20:07Z</time>
      </trkpt>
      <trkpt lat="50.11562" lon="3.84065">
        <ele>168.85</ele>
        <time>2020-07-09T15:20:11Z</time>
      </trkpt>
      <trkpt lat="50.11573" lon="3.84068">
        <ele>167.89</ele>
        <time>2020-07-09T15:20:12Z</time>
      </trkpt>
      <trkpt lat="50.11584" lon="3.84073">
        <ele>167.89</ele>
        <time>2020-07-09T15:20:13Z</time>
      </trkpt>
      <trkpt lat="50.11595" lon="3.84081">
        <ele>166.45</ele>
        <time>2020-07-09T15:20:14Z</time>
      </trkpt>
      <trkpt lat="50.11605" lon="3.84091">
        <ele>165.96</ele>
        <time>2020-07-09T15:20:15Z</time>
      </trkpt>
      <trkpt lat="50.11614" lon="3.84103">
        <ele>165</ele>
        <time>2020-07-09T15:20:16Z</time>
      </trkpt>
      <trkpt lat="50.11623" lon="3.84116">
        <ele>165</ele>
        <time>2020-07-09T15:20:17Z</time>
      </trkpt>
      <trkpt lat="50.11631" lon="3.84129">
        <ele>164.52</ele>
        <time>2020-07-09T15:20:18Z</time>
      </trkpt>
      <trkpt lat="50.11649" lon="3.84154">
        <ele>164.04</ele>
        <time>2020-07-09T15:20:20Z</time>
      </trkpt>
      <trkpt lat="50.11678" lon="3.84186">
        <ele>162.12</ele>
        <time>2020-07-09T15:20:23Z</time>
      </trkpt>
      <trkpt lat="50.11721" lon="3.84213">
        <ele>161.16</ele>
        <time>2020-07-09T15:20:27Z</time>
      </trkpt>
      <trkpt lat="50.11731" lon="3.84218">
        <ele>161.64</ele>
        <time>2020-07-09T15:20:28Z</time>
      </trkpt>
      <trkpt lat="50.11742" lon="3.8422">
        <ele>161.16</ele>
        <time>2020-07-09T15:20:29Z</time>
      </trkpt>
      <trkpt lat="50.11846" lon="3.84244">
        <ele>160.68</ele>
        <time>2020-07-09T15:20:40Z</time>
      </trkpt>
      <trkpt lat="50.11853" lon="3.84248">
        <ele>160.68</ele>
        <time>2020-07-09T15:20:41Z</time>
      </trkpt>
      <trkpt lat="50.11942" lon="3.84298">
        <ele>160.68</ele>
        <time>2020-07-09T15:20:55Z</time>
      </trkpt>
      <trkpt lat="50.12031" lon="3.84293">
        <ele>159.24</ele>
        <time>2020-07-09T15:21:09Z</time>
      </trkpt>
      <trkpt lat="50.12038" lon="3.84293">
        <ele>159.24</ele>
        <time>2020-07-09T15:21:10Z</time>
      </trkpt>
      <trkpt lat="50.12044" lon="3.84295">
        <ele>158.75</ele>
        <time>2020-07-09T15:21:11Z</time>
      </trkpt>
      <trkpt lat="50.12057" lon="3.84301">
        <ele>158.27</ele>
        <time>2020-07-09T15:21:13Z</time>
      </trkpt>
      <trkpt lat="50.12063" lon="3.84305">
        <ele>158.27</ele>
        <time>2020-07-09T15:21:14Z</time>
      </trkpt>
      <trkpt lat="50.12103" lon="3.84338">
        <ele>157.31</ele>
        <time>2020-07-09T15:21:21Z</time>
      </trkpt>
      <trkpt lat="50.12108" lon="3.84343">
        <ele>157.31</ele>
        <time>2020-07-09T15:21:22Z</time>
      </trkpt>
      <trkpt lat="50.1212" lon="3.84352">
        <ele>157.31</ele>
        <time>2020-07-09T15:21:24Z</time>
      </trkpt>
      <trkpt lat="50.12127" lon="3.84355">
        <ele>157.31</ele>
        <time>2020-07-09T15:21:25Z</time>
      </trkpt>
      <trkpt lat="50.12133" lon="3.84357">
        <ele>156.83</ele>
        <time>2020-07-09T15:21:26Z</time>
      </trkpt>
      <trkpt lat="50.1214" lon="3.84358">
        <ele>156.83</ele>
        <time>2020-07-09T15:21:27Z</time>
      </trkpt>
      <trkpt lat="50.12146" lon="3.84358">
        <ele>156.83</ele>
        <time>2020-07-09T15:21:28Z</time>
      </trkpt>
      <trkpt lat="50.12153" lon="3.84357">
        <ele>156.83</ele>
        <time>2020-07-09T15:21:29Z</time>
      </trkpt>
      <trkpt lat="50.12159" lon="3.84356">
        <ele>156.83</ele>
        <time>2020-07-09T15:21:30Z</time>
      </trkpt>
      <trkpt lat="50.12165" lon="3.84354">
        <ele>156.83</ele>
        <time>2020-07-09T15:21:31Z</time>
      </trkpt>
      <trkpt lat="50.12171" lon="3.84353">
        <ele>156.83</ele>
        <time>2020-07-09T15:21:32Z</time>
      </trkpt>
      <trkpt lat="50.12176" lon="3.8435">
        <ele>156.83</ele>
        <time>2020-07-09T15:21:33Z</time>
      </trkpt>
      <trkpt lat="50.12182" lon="3.84347">
        <ele>156.83</ele>
        <time>2020-07-09T15:21:34Z</time>
      </trkpt>
      <trkpt lat="50.12187" lon="3.84343">
        <ele>156.83</ele>
        <time>2020-07-09T15:21:35Z</time>
      </trkpt>
      <trkpt lat="50.12192" lon="3.84339">
        <ele>156.83</ele>
        <time>2020-07-09T15:21:36Z</time>
      </trkpt>
      <trkpt lat="50.12228" lon="3.84294">
        <ele>156.35</ele>
        <time>2020-07-09T15:21:44Z</time>
      </trkpt>
      <trkpt lat="50.12254" lon="3.84271">
        <ele>156.35</ele>
        <time>2020-07-09T15:21:49Z</time>
      </trkpt>
      <trkpt lat="50.12271" lon="3.84262">
        <ele>156.35</ele>
        <time>2020-07-09T15:21:52Z</time>
      </trkpt>
      <trkpt lat="50.12363" lon="3.84245">
        <ele>155.87</ele>
        <time>2020-07-09T15:22:08Z</time>
      </trkpt>
      <trkpt lat="50.12369" lon="3.84244">
        <ele>155.87</ele>
        <time>2020-07-09T15:22:09Z</time>
      </trkpt>
      <trkpt lat="50.12402" lon="3.84236">
        <ele>155.39</ele>
        <time>2020-07-09T15:22:15Z</time>
      </trkpt>
      <trkpt lat="50.12412" lon="3.84232">
        <ele>155.39</ele>
        <time>2020-07-09T15:22:17Z</time>
      </trkpt>
      <trkpt lat="50.12417" lon="3.84229">
        <ele>155.39</ele>
        <time>2020-07-09T15:22:18Z</time>
      </trkpt>
      <trkpt lat="50.12422" lon="3.84225">
        <ele>155.39</ele>
        <time>2020-07-09T15:22:19Z</time>
      </trkpt>
      <trkpt lat="50.12441" lon="3.84204">
        <ele>153.95</ele>
        <time>2020-07-09T15:22:23Z</time>
      </trkpt>
      <trkpt lat="50.12466" lon="3.84171">
        <ele>153.47</ele>
        <time>2020-07-09T15:22:28Z</time>
      </trkpt>
      <trkpt lat="50.12519" lon="3.84135">
        <ele>153.47</ele>
        <time>2020-07-09T15:22:39Z</time>
      </trkpt>
      <trkpt lat="50.12524" lon="3.84134">
        <ele>153.47</ele>
        <time>2020-07-09T15:22:40Z</time>
      </trkpt>
      <trkpt lat="50.1255" lon="3.84132">
        <ele>152.51</ele>
        <time>2020-07-09T15:22:44Z</time>
      </trkpt>
      <trkpt lat="50.12564" lon="3.84134">
        <ele>152.03</ele>
        <time>2020-07-09T15:22:46Z</time>
      </trkpt>
      <trkpt lat="50.12629" lon="3.84147">
        <ele>148.18</ele>
        <time>2020-07-09T15:22:54Z</time>
      </trkpt>
      <trkpt lat="50.12657" lon="3.84149">
        <ele>147.22</ele>
        <time>2020-07-09T15:22:57Z</time>
      </trkpt>
      <trkpt lat="50.12666" lon="3.84147">
        <ele>147.22</ele>
        <time>2020-07-09T15:22:58Z</time>
      </trkpt>
      <trkpt lat="50.12675" lon="3.84143">
        <ele>147.22</ele>
        <time>2020-07-09T15:22:59Z</time>
      </trkpt>
      <trkpt lat="50.12684" lon="3.84138">
        <ele>146.74</ele>
        <time>2020-07-09T15:23:00Z</time>
      </trkpt>
      <trkpt lat="50.12692" lon="3.84133">
        <ele>146.74</ele>
        <time>2020-07-09T15:23:01Z</time>
      </trkpt>
      <trkpt lat="50.127" lon="3.84128">
        <ele>146.26</ele>
        <time>2020-07-09T15:23:02Z</time>
      </trkpt>
      <trkpt lat="50.12708" lon="3.84124">
        <ele>146.26</ele>
        <time>2020-07-09T15:23:03Z</time>
      </trkpt>
      <trkpt lat="50.12744" lon="3.84101">
        <ele>145.3</ele>
        <time>2020-07-09T15:23:08Z</time>
      </trkpt>
      <trkpt lat="50.12752" lon="3.84099">
        <ele>145.3</ele>
        <time>2020-07-09T15:23:09Z</time>
      </trkpt>
      <trkpt lat="50.12796" lon="3.84101">
        <ele>144.34</ele>
        <time>2020-07-09T15:23:15Z</time>
      </trkpt>
      <trkpt lat="50.1282" lon="3.84107">
        <ele>144.34</ele>
        <time>2020-07-09T15:23:21Z</time>
      </trkpt>
      <trkpt lat="50.12823" lon="3.84104">
        <ele>144.34</ele>
        <time>2020-07-09T15:23:22Z</time>
      </trkpt>
      <trkpt lat="50.12826" lon="3.84098">
        <ele>144.34</ele>
        <time>2020-07-09T15:23:23Z</time>
      </trkpt>
      <trkpt lat="50.12827" lon="3.84092">
        <ele>144.34</ele>
        <time>2020-07-09T15:23:24Z</time>
      </trkpt>
      <trkpt lat="50.12827" lon="3.84084">
        <ele>144.34</ele>
        <time>2020-07-09T15:23:25Z</time>
      </trkpt>
      <trkpt lat="50.12828" lon="3.84075">
        <ele>144.34</ele>
        <time>2020-07-09T15:23:26Z</time>
      </trkpt>
      <trkpt lat="50.12829" lon="3.84067">
        <ele>144.34</ele>
        <time>2020-07-09T15:23:27Z</time>
      </trkpt>
      <trkpt lat="50.1283" lon="3.84059">
        <ele>144.34</ele>
        <time>2020-07-09T15:23:28Z</time>
      </trkpt>
      <trkpt lat="50.12831" lon="3.84051">
        <ele>144.34</ele>
        <time>2020-07-09T15:23:29Z</time>
      </trkpt>
      <trkpt lat="50.12831" lon="3.84043">
        <ele>144.34</ele>
        <time>2020-07-09T15:23:30Z</time>
      </trkpt>
      <trkpt lat="50.12833" lon="3.84035">
        <ele>144.34</ele>
        <time>2020-07-09T15:23:31Z</time>
      </trkpt>
      <trkpt lat="50.12837" lon="3.83986">
        <ele>144.34</ele>
        <time>2020-07-09T15:23:37Z</time>
      </trkpt>
      <trkpt lat="50.12849" lon="3.83869">
        <ele>147.22</ele>
        <time>2020-07-09T15:23:53Z</time>
      </trkpt>
      <trkpt lat="50.12852" lon="3.83836">
        <ele>147.7</ele>
        <time>2020-07-09T15:23:58Z</time>
      </trkpt>
      <trkpt lat="50.12856" lon="3.83804">
        <ele>149.14</ele>
        <time>2020-07-09T15:24:03Z</time>
      </trkpt>
      <trkpt lat="50.12857" lon="3.83791">
        <ele>149.62</ele>
        <time>2020-07-09T15:24:05Z</time>
      </trkpt>
      <trkpt lat="50.12855" lon="3.83784">
        <ele>150.1</ele>
        <time>2020-07-09T15:24:06Z</time>
      </trkpt>
      <trkpt lat="50.12853" lon="3.83779">
        <ele>150.1</ele>
        <time>2020-07-09T15:24:07Z</time>
      </trkpt>
      <trkpt lat="50.12851" lon="3.83775">
        <ele>150.58</ele>
        <time>2020-07-09T15:24:08Z</time>
      </trkpt>
      <trkpt lat="50.12849" lon="3.83771">
        <ele>150.58</ele>
        <time>2020-07-09T15:24:09Z</time>
      </trkpt>
      <trkpt lat="50.12846" lon="3.83767">
        <ele>150.58</ele>
        <time>2020-07-09T15:24:10Z</time>
      </trkpt>
      <trkpt lat="50.12843" lon="3.83764">
        <ele>150.58</ele>
        <time>2020-07-09T15:24:11Z</time>
      </trkpt>
      <trkpt lat="50.12841" lon="3.8376">
        <ele>151.54</ele>
        <time>2020-07-09T15:24:12Z</time>
      </trkpt>
      <trkpt lat="50.12838" lon="3.83757">
        <ele>151.54</ele>
        <time>2020-07-09T15:24:13Z</time>
      </trkpt>
      <trkpt lat="50.1279" lon="3.83689">
        <ele>152.51</ele>
        <time>2020-07-09T15:24:30Z</time>
      </trkpt>
      <trkpt lat="50.12755" lon="3.83586">
        <ele>153.95</ele>
        <time>2020-07-09T15:24:50Z</time>
      </trkpt>
      <trkpt lat="50.12754" lon="3.83574">
        <ele>154.43</ele>
        <time>2020-07-09T15:24:52Z</time>
      </trkpt>
      <trkpt lat="50.12754" lon="3.83567">
        <ele>154.43</ele>
        <time>2020-07-09T15:24:53Z</time>
      </trkpt>
      <trkpt lat="50.12751" lon="3.83494">
        <ele>156.35</ele>
        <time>2020-07-09T15:25:05Z</time>
      </trkpt>
      <trkpt lat="50.1275" lon="3.83488">
        <ele>156.35</ele>
        <time>2020-07-09T15:25:06Z</time>
      </trkpt>
      <trkpt lat="50.12749" lon="3.83482">
        <ele>156.35</ele>
        <time>2020-07-09T15:25:07Z</time>
      </trkpt>
      <trkpt lat="50.12725" lon="3.83406">
        <ele>158.27</ele>
        <time>2020-07-09T15:25:21Z</time>
      </trkpt>
      <trkpt lat="50.12685" lon="3.8332">
        <ele>159.24</ele>
        <time>2020-07-09T15:25:38Z</time>
      </trkpt>
      <trkpt lat="50.12652" lon="3.83243">
        <ele>159.24</ele>
        <time>2020-07-09T15:25:53Z</time>
      </trkpt>
      <trkpt lat="50.12647" lon="3.83232">
        <ele>159.24</ele>
        <time>2020-07-09T15:25:55Z</time>
      </trkpt>
      <trkpt lat="50.12644" lon="3.83226">
        <ele>159.24</ele>
        <time>2020-07-09T15:25:56Z</time>
      </trkpt>
      <trkpt lat="50.12584" lon="3.83148">
        <ele>158.27</ele>
        <time>2020-07-09T15:26:10Z</time>
      </trkpt>
      <trkpt lat="50.12578" lon="3.83142">
        <ele>158.27</ele>
        <time>2020-07-09T15:26:11Z</time>
      </trkpt>
      <trkpt lat="50.12535" lon="3.83077">
        <ele>159.24</ele>
        <time>2020-07-09T15:26:19Z</time>
      </trkpt>
      <trkpt lat="50.12522" lon="3.83054">
        <ele>160.2</ele>
        <time>2020-07-09T15:26:22Z</time>
      </trkpt>
      <trkpt lat="50.12512" lon="3.83031">
        <ele>160.2</ele>
        <time>2020-07-09T15:26:25Z</time>
      </trkpt>
      <trkpt lat="50.12492" lon="3.8298">
        <ele>162.12</ele>
        <time>2020-07-09T15:26:32Z</time>
      </trkpt>
      <trkpt lat="50.12464" lon="3.82907">
        <ele>165.48</ele>
        <time>2020-07-09T15:26:44Z</time>
      </trkpt>
      <trkpt lat="50.12434" lon="3.82836">
        <ele>168.85</ele>
        <time>2020-07-09T15:26:57Z</time>
      </trkpt>
      <trkpt lat="50.12413" lon="3.82799">
        <ele>170.77</ele>
        <time>2020-07-09T15:27:07Z</time>
      </trkpt>
      <trkpt lat="50.12388" lon="3.82763">
        <ele>173.17</ele>
        <time>2020-07-09T15:27:16Z</time>
      </trkpt>
      <trkpt lat="50.12385" lon="3.82758">
        <ele>173.17</ele>
        <time>2020-07-09T15:27:17Z</time>
      </trkpt>
      <trkpt lat="50.12378" lon="3.82751">
        <ele>174.14</ele>
        <time>2020-07-09T15:27:19Z</time>
      </trkpt>
      <trkpt lat="50.12374" lon="3.82747">
        <ele>174.14</ele>
        <time>2020-07-09T15:27:20Z</time>
      </trkpt>
      <trkpt lat="50.12342" lon="3.82719">
        <ele>175.58</ele>
        <time>2020-07-09T15:27:31Z</time>
      </trkpt>
      <trkpt lat="50.1229" lon="3.8268">
        <ele>178.46</ele>
        <time>2020-07-09T15:27:48Z</time>
      </trkpt>
      <trkpt lat="50.12243" lon="3.82642">
        <ele>180.87</ele>
        <time>2020-07-09T15:28:03Z</time>
      </trkpt>
      <trkpt lat="50.12195" lon="3.82606">
        <ele>183.27</ele>
        <time>2020-07-09T15:28:18Z</time>
      </trkpt>
      <trkpt lat="50.12141" lon="3.82565">
        <ele>184.71</ele>
        <time>2020-07-09T15:28:36Z</time>
      </trkpt>
      <trkpt lat="50.12116" lon="3.82535">
        <ele>186.15</ele>
        <time>2020-07-09T15:28:45Z</time>
      </trkpt>
      <trkpt lat="50.12113" lon="3.8253">
        <ele>186.63</ele>
        <time>2020-07-09T15:28:46Z</time>
      </trkpt>
      <trkpt lat="50.1211" lon="3.82525">
        <ele>186.63</ele>
        <time>2020-07-09T15:28:47Z</time>
      </trkpt>
      <trkpt lat="50.12082" lon="3.8247">
        <ele>189.04</ele>
        <time>2020-07-09T15:28:59Z</time>
      </trkpt>
      <trkpt lat="50.12061" lon="3.82424">
        <ele>191.44</ele>
        <time>2020-07-09T15:29:11Z</time>
      </trkpt>
      <trkpt lat="50.12029" lon="3.82352">
        <ele>193.36</ele>
        <time>2020-07-09T15:29:28Z</time>
      </trkpt>
      <trkpt lat="50.11998" lon="3.82267">
        <ele>193.36</ele>
        <time>2020-07-09T15:29:44Z</time>
      </trkpt>
      <trkpt lat="50.1198" lon="3.82192">
        <ele>191.44</ele>
        <time>2020-07-09T15:29:53Z</time>
      </trkpt>
      <trkpt lat="50.11932" lon="3.82066">
        <ele>188.08</ele>
        <time>2020-07-09T15:30:07Z</time>
      </trkpt>
      <trkpt lat="50.11878" lon="3.81976">
        <ele>184.71</ele>
        <time>2020-07-09T15:30:17Z</time>
      </trkpt>
      <trkpt lat="50.11841" lon="3.8193">
        <ele>181.83</ele>
        <time>2020-07-09T15:30:22Z</time>
      </trkpt>
      <trkpt lat="50.11797" lon="3.81886">
        <ele>177.98</ele>
        <time>2020-07-09T15:30:27Z</time>
      </trkpt>
      <trkpt lat="50.11748" lon="3.81839">
        <ele>174.62</ele>
        <time>2020-07-09T15:30:32Z</time>
      </trkpt>
      <trkpt lat="50.11729" lon="3.81818">
        <ele>173.17</ele>
        <time>2020-07-09T15:30:34Z</time>
      </trkpt>
      <trkpt lat="50.1172" lon="3.81806">
        <ele>172.21</ele>
        <time>2020-07-09T15:30:35Z</time>
      </trkpt>
      <trkpt lat="50.11684" lon="3.81758">
        <ele>168.85</ele>
        <time>2020-07-09T15:30:39Z</time>
      </trkpt>
      <trkpt lat="50.11655" lon="3.8172">
        <ele>165.48</ele>
        <time>2020-07-09T15:30:42Z</time>
      </trkpt>
      <trkpt lat="50.11618" lon="3.81661">
        <ele>163.08</ele>
        <time>2020-07-09T15:30:46Z</time>
      </trkpt>
      <trkpt lat="50.11591" lon="3.81614">
        <ele>159.72</ele>
        <time>2020-07-09T15:30:49Z</time>
      </trkpt>
      <trkpt lat="50.11583" lon="3.81599">
        <ele>159.72</ele>
        <time>2020-07-09T15:30:50Z</time>
      </trkpt>
      <trkpt lat="50.11553" lon="3.81547">
        <ele>156.35</ele>
        <time>2020-07-09T15:30:54Z</time>
      </trkpt>
      <trkpt lat="50.11531" lon="3.81516">
        <ele>154.91</ele>
        <time>2020-07-09T15:30:57Z</time>
      </trkpt>
      <trkpt lat="50.11525" lon="3.81507">
        <ele>154.91</ele>
        <time>2020-07-09T15:30:58Z</time>
      </trkpt>
      <trkpt lat="50.11519" lon="3.81496">
        <ele>154.43</ele>
        <time>2020-07-09T15:30:59Z</time>
      </trkpt>
      <trkpt lat="50.11516" lon="3.81485">
        <ele>154.43</ele>
        <time>2020-07-09T15:31:00Z</time>
      </trkpt>
      <trkpt lat="50.11514" lon="3.81472">
        <ele>153.47</ele>
        <time>2020-07-09T15:31:01Z</time>
      </trkpt>
      <trkpt lat="50.11513" lon="3.81458">
        <ele>152.51</ele>
        <time>2020-07-09T15:31:02Z</time>
      </trkpt>
      <trkpt lat="50.11515" lon="3.81444">
        <ele>152.51</ele>
        <time>2020-07-09T15:31:03Z</time>
      </trkpt>
      <trkpt lat="50.11517" lon="3.8143">
        <ele>151.54</ele>
        <time>2020-07-09T15:31:04Z</time>
      </trkpt>
      <trkpt lat="50.11519" lon="3.81416">
        <ele>151.54</ele>
        <time>2020-07-09T15:31:05Z</time>
      </trkpt>
      <trkpt lat="50.11522" lon="3.81402">
        <ele>151.06</ele>
        <time>2020-07-09T15:31:06Z</time>
      </trkpt>
      <trkpt lat="50.11525" lon="3.81389">
        <ele>151.06</ele>
        <time>2020-07-09T15:31:07Z</time>
      </trkpt>
      <trkpt lat="50.11526" lon="3.81375">
        <ele>150.58</ele>
        <time>2020-07-09T15:31:08Z</time>
      </trkpt>
      <trkpt lat="50.11525" lon="3.81361">
        <ele>150.58</ele>
        <time>2020-07-09T15:31:09Z</time>
      </trkpt>
      <trkpt lat="50.11522" lon="3.81347">
        <ele>149.62</ele>
        <time>2020-07-09T15:31:10Z</time>
      </trkpt>
      <trkpt lat="50.11517" lon="3.81335">
        <ele>148.66</ele>
        <time>2020-07-09T15:31:11Z</time>
      </trkpt>
      <trkpt lat="50.11509" lon="3.81324">
        <ele>148.18</ele>
        <time>2020-07-09T15:31:12Z</time>
      </trkpt>
      <trkpt lat="50.11501" lon="3.81314">
        <ele>147.7</ele>
        <time>2020-07-09T15:31:13Z</time>
      </trkpt>
      <trkpt lat="50.1147" lon="3.8128">
        <ele>145.78</ele>
        <time>2020-07-09T15:31:17Z</time>
      </trkpt>
      <trkpt lat="50.11465" lon="3.81272">
        <ele>145.3</ele>
        <time>2020-07-09T15:31:18Z</time>
      </trkpt>
      <trkpt lat="50.11461" lon="3.81264">
        <ele>145.3</ele>
        <time>2020-07-09T15:31:19Z</time>
      </trkpt>
      <trkpt lat="50.1146" lon="3.81256">
        <ele>144.82</ele>
        <time>2020-07-09T15:31:20Z</time>
      </trkpt>
      <trkpt lat="50.11459" lon="3.81246">
        <ele>144.82</ele>
        <time>2020-07-09T15:31:21Z</time>
      </trkpt>
      <trkpt lat="50.11461" lon="3.81237">
        <ele>145.3</ele>
        <time>2020-07-09T15:31:22Z</time>
      </trkpt>
      <trkpt lat="50.11464" lon="3.81228">
        <ele>145.3</ele>
        <time>2020-07-09T15:31:23Z</time>
      </trkpt>
      <trkpt lat="50.11467" lon="3.81221">
        <ele>145.3</ele>
        <time>2020-07-09T15:31:24Z</time>
      </trkpt>
      <trkpt lat="50.11471" lon="3.81214">
        <ele>144.82</ele>
        <time>2020-07-09T15:31:25Z</time>
      </trkpt>
      <trkpt lat="50.11475" lon="3.81207">
        <ele>144.82</ele>
        <time>2020-07-09T15:31:26Z</time>
      </trkpt>
      <trkpt lat="50.11485" lon="3.81186">
        <ele>144.82</ele>
        <time>2020-07-09T15:31:29Z</time>
      </trkpt>
      <trkpt lat="50.11492" lon="3.81173">
        <ele>144.82</ele>
        <time>2020-07-09T15:31:31Z</time>
      </trkpt>
      <trkpt lat="50.11495" lon="3.81166">
        <ele>144.34</ele>
        <time>2020-07-09T15:31:32Z</time>
      </trkpt>
      <trkpt lat="50.11505" lon="3.81146">
        <ele>143.85</ele>
        <time>2020-07-09T15:31:35Z</time>
      </trkpt>
      <trkpt lat="50.11508" lon="3.8114">
        <ele>143.85</ele>
        <time>2020-07-09T15:31:36Z</time>
      </trkpt>
      <trkpt lat="50.11529" lon="3.811">
        <ele>142.41</ele>
        <time>2020-07-09T15:31:42Z</time>
      </trkpt>
      <trkpt lat="50.11546" lon="3.81077">
        <ele>142.41</ele>
        <time>2020-07-09T15:31:49Z</time>
      </trkpt>
      <trkpt lat="50.11546" lon="3.81072">
        <ele>141.93</ele>
        <time>2020-07-09T15:31:50Z</time>
      </trkpt>
      <trkpt lat="50.11546" lon="3.81067">
        <ele>141.93</ele>
        <time>2020-07-09T15:31:51Z</time>
      </trkpt>
      <trkpt lat="50.11544" lon="3.81061">
        <ele>141.93</ele>
        <time>2020-07-09T15:31:52Z</time>
      </trkpt>
      <trkpt lat="50.11543" lon="3.81055">
        <ele>141.93</ele>
        <time>2020-07-09T15:31:53Z</time>
      </trkpt>
      <trkpt lat="50.11541" lon="3.81048">
        <ele>141.93</ele>
        <time>2020-07-09T15:31:54Z</time>
      </trkpt>
      <trkpt lat="50.11539" lon="3.81041">
        <ele>141.93</ele>
        <time>2020-07-09T15:31:55Z</time>
      </trkpt>
      <trkpt lat="50.11536" lon="3.81034">
        <ele>141.45</ele>
        <time>2020-07-09T15:31:56Z</time>
      </trkpt>
      <trkpt lat="50.11533" lon="3.81027">
        <ele>141.45</ele>
        <time>2020-07-09T15:31:57Z</time>
      </trkpt>
      <trkpt lat="50.1153" lon="3.8102">
        <ele>141.45</ele>
        <time>2020-07-09T15:31:58Z</time>
      </trkpt>
      <trkpt lat="50.11527" lon="3.81013">
        <ele>141.45</ele>
        <time>2020-07-09T15:31:59Z</time>
      </trkpt>
      <trkpt lat="50.11524" lon="3.81005">
        <ele>141.45</ele>
        <time>2020-07-09T15:32:00Z</time>
      </trkpt>
      <trkpt lat="50.11514" lon="3.80977">
        <ele>141.45</ele>
        <time>2020-07-09T15:32:04Z</time>
      </trkpt>
      <trkpt lat="50.11482" lon="3.8089">
        <ele>142.41</ele>
        <time>2020-07-09T15:32:19Z</time>
      </trkpt>
      <trkpt lat="50.1146" lon="3.80831">
        <ele>141.93</ele>
        <time>2020-07-09T15:32:31Z</time>
      </trkpt>
      <trkpt lat="50.1143" lon="3.80755">
        <ele>141.93</ele>
        <time>2020-07-09T15:32:46Z</time>
      </trkpt>
      <trkpt lat="50.11408" lon="3.80698">
        <ele>141.93</ele>
        <time>2020-07-09T15:32:57Z</time>
      </trkpt>
      <trkpt lat="50.11406" lon="3.80692">
        <ele>141.93</ele>
        <time>2020-07-09T15:32:58Z</time>
      </trkpt>
      <trkpt lat="50.11389" lon="3.80623">
        <ele>141.93</ele>
        <time>2020-07-09T15:33:11Z</time>
      </trkpt>
      <trkpt lat="50.11381" lon="3.80587">
        <ele>141.93</ele>
        <time>2020-07-09T15:33:18Z</time>
      </trkpt>
      <trkpt lat="50.11381" lon="3.80581">
        <ele>141.93</ele>
        <time>2020-07-09T15:33:19Z</time>
      </trkpt>
      <trkpt lat="50.11381" lon="3.80575">
        <ele>141.93</ele>
        <time>2020-07-09T15:33:20Z</time>
      </trkpt>
      <trkpt lat="50.11381" lon="3.80561">
        <ele>141.93</ele>
        <time>2020-07-09T15:33:22Z</time>
      </trkpt>
      <trkpt lat="50.1138" lon="3.80492">
        <ele>141.93</ele>
        <time>2020-07-09T15:33:33Z</time>
      </trkpt>
      <trkpt lat="50.11378" lon="3.80486">
        <ele>141.93</ele>
        <time>2020-07-09T15:33:34Z</time>
      </trkpt>
      <trkpt lat="50.11375" lon="3.80481">
        <ele>141.93</ele>
        <time>2020-07-09T15:33:35Z</time>
      </trkpt>
      <trkpt lat="50.11373" lon="3.80476">
        <ele>141.93</ele>
        <time>2020-07-09T15:33:36Z</time>
      </trkpt>
      <trkpt lat="50.1137" lon="3.80471">
        <ele>141.93</ele>
        <time>2020-07-09T15:33:37Z</time>
      </trkpt>
      <trkpt lat="50.11367" lon="3.80467">
        <ele>141.93</ele>
        <time>2020-07-09T15:33:38Z</time>
      </trkpt>
      <trkpt lat="50.11364" lon="3.80463">
        <ele>141.93</ele>
        <time>2020-07-09T15:33:39Z</time>
      </trkpt>
      <trkpt lat="50.1136" lon="3.80459">
        <ele>141.93</ele>
        <time>2020-07-09T15:33:40Z</time>
      </trkpt>
      <trkpt lat="50.11307" lon="3.80413">
        <ele>142.89</ele>
        <time>2020-07-09T15:33:55Z</time>
      </trkpt>
      <trkpt lat="50.11293" lon="3.80401">
        <ele>142.89</ele>
        <time>2020-07-09T15:33:59Z</time>
      </trkpt>
      <trkpt lat="50.11289" lon="3.80398">
        <ele>142.89</ele>
        <time>2020-07-09T15:34:00Z</time>
      </trkpt>
      <trkpt lat="50.11241" lon="3.8036">
        <ele>142.89</ele>
        <time>2020-07-09T15:34:14Z</time>
      </trkpt>
      <trkpt lat="50.11206" lon="3.80312">
        <ele>142.89</ele>
        <time>2020-07-09T15:34:26Z</time>
      </trkpt>
      <trkpt lat="50.11155" lon="3.80232">
        <ele>143.85</ele>
        <time>2020-07-09T15:34:43Z</time>
      </trkpt>
      <trkpt lat="50.11151" lon="3.80226">
        <ele>143.85</ele>
        <time>2020-07-09T15:34:44Z</time>
      </trkpt>
      <trkpt lat="50.11149" lon="3.80219">
        <ele>143.85</ele>
        <time>2020-07-09T15:34:45Z</time>
      </trkpt>
      <trkpt lat="50.11149" lon="3.80213">
        <ele>143.85</ele>
        <time>2020-07-09T15:34:46Z</time>
      </trkpt>
      <trkpt lat="50.11148" lon="3.80205">
        <ele>143.85</ele>
        <time>2020-07-09T15:34:47Z</time>
      </trkpt>
      <trkpt lat="50.11148" lon="3.80198">
        <ele>143.85</ele>
        <time>2020-07-09T15:34:48Z</time>
      </trkpt>
      <trkpt lat="50.11148" lon="3.80191">
        <ele>143.85</ele>
        <time>2020-07-09T15:34:49Z</time>
      </trkpt>
      <trkpt lat="50.11148" lon="3.80184">
        <ele>143.85</ele>
        <time>2020-07-09T15:34:50Z</time>
      </trkpt>
      <trkpt lat="50.11146" lon="3.80154">
        <ele>143.85</ele>
        <time>2020-07-09T15:34:54Z</time>
      </trkpt>
      <trkpt lat="50.11137" lon="3.80107">
        <ele>142.89</ele>
        <time>2020-07-09T15:35:00Z</time>
      </trkpt>
      <trkpt lat="50.11115" lon="3.79995">
        <ele>141.93</ele>
        <time>2020-07-09T15:35:14Z</time>
      </trkpt>
      <trkpt lat="50.11111" lon="3.79963">
        <ele>141.93</ele>
        <time>2020-07-09T15:35:18Z</time>
      </trkpt>
      <trkpt lat="50.11107" lon="3.79891">
        <ele>142.89</ele>
        <time>2020-07-09T15:35:27Z</time>
      </trkpt>
      <trkpt lat="50.11101" lon="3.79787">
        <ele>144.82</ele>
        <time>2020-07-09T15:35:41Z</time>
      </trkpt>
      <trkpt lat="50.111" lon="3.79775">
        <ele>145.3</ele>
        <time>2020-07-09T15:35:43Z</time>
      </trkpt>
      <trkpt lat="50.111" lon="3.79769">
        <ele>145.3</ele>
        <time>2020-07-09T15:35:44Z</time>
      </trkpt>
      <trkpt lat="50.11099" lon="3.79762">
        <ele>145.3</ele>
        <time>2020-07-09T15:35:45Z</time>
      </trkpt>
      <trkpt lat="50.11099" lon="3.79756">
        <ele>145.3</ele>
        <time>2020-07-09T15:35:46Z</time>
      </trkpt>
      <trkpt lat="50.11099" lon="3.7975">
        <ele>145.3</ele>
        <time>2020-07-09T15:35:47Z</time>
      </trkpt>
      <trkpt lat="50.11099" lon="3.79744">
        <ele>145.3</ele>
        <time>2020-07-09T15:35:48Z</time>
      </trkpt>
      <trkpt lat="50.11099" lon="3.79738">
        <ele>145.3</ele>
        <time>2020-07-09T15:35:49Z</time>
      </trkpt>
      <trkpt lat="50.11101" lon="3.79713">
        <ele>145.3</ele>
        <time>2020-07-09T15:35:53Z</time>
      </trkpt>
      <trkpt lat="50.11101" lon="3.79686">
        <ele>145.3</ele>
        <time>2020-07-09T15:35:57Z</time>
      </trkpt>
      <trkpt lat="50.11101" lon="3.79672">
        <ele>145.3</ele>
        <time>2020-07-09T15:35:59Z</time>
      </trkpt>
      <trkpt lat="50.11098" lon="3.79635">
        <ele>143.85</ele>
        <time>2020-07-09T15:36:04Z</time>
      </trkpt>
      <trkpt lat="50.11097" lon="3.79627">
        <ele>143.37</ele>
        <time>2020-07-09T15:36:05Z</time>
      </trkpt>
      <trkpt lat="50.11095" lon="3.79603">
        <ele>143.37</ele>
        <time>2020-07-09T15:36:08Z</time>
      </trkpt>
      <trkpt lat="50.11092" lon="3.79596">
        <ele>143.37</ele>
        <time>2020-07-09T15:36:09Z</time>
      </trkpt>
      <trkpt lat="50.11091" lon="3.79588">
        <ele>142.89</ele>
        <time>2020-07-09T15:36:10Z</time>
      </trkpt>
      <trkpt lat="50.11093" lon="3.79536">
        <ele>142.89</ele>
        <time>2020-07-09T15:36:16Z</time>
      </trkpt>
      <trkpt lat="50.11096" lon="3.79518">
        <ele>142.89</ele>
        <time>2020-07-09T15:36:18Z</time>
      </trkpt>
      <trkpt lat="50.11101" lon="3.79492">
        <ele>142.89</ele>
        <time>2020-07-09T15:36:21Z</time>
      </trkpt>
      <trkpt lat="50.11104" lon="3.79467">
        <ele>142.89</ele>
        <time>2020-07-09T15:36:24Z</time>
      </trkpt>
      <trkpt lat="50.11109" lon="3.7937">
        <ele>142.89</ele>
        <time>2020-07-09T15:36:35Z</time>
      </trkpt>
      <trkpt lat="50.11107" lon="3.79362">
        <ele>142.89</ele>
        <time>2020-07-09T15:36:36Z</time>
      </trkpt>
      <trkpt lat="50.11104" lon="3.79354">
        <ele>142.89</ele>
        <time>2020-07-09T15:36:37Z</time>
      </trkpt>
      <trkpt lat="50.11101" lon="3.79347">
        <ele>142.89</ele>
        <time>2020-07-09T15:36:38Z</time>
      </trkpt>
      <trkpt lat="50.11098" lon="3.79341">
        <ele>144.34</ele>
        <time>2020-07-09T15:36:39Z</time>
      </trkpt>
      <trkpt lat="50.1107" lon="3.79288">
        <ele>145.3</ele>
        <time>2020-07-09T15:36:49Z</time>
      </trkpt>
      <trkpt lat="50.11055" lon="3.79256">
        <ele>145.78</ele>
        <time>2020-07-09T15:36:55Z</time>
      </trkpt>
      <trkpt lat="50.11053" lon="3.7925">
        <ele>145.78</ele>
        <time>2020-07-09T15:36:56Z</time>
      </trkpt>
      <trkpt lat="50.11052" lon="3.79242">
        <ele>145.78</ele>
        <time>2020-07-09T15:36:57Z</time>
      </trkpt>
      <trkpt lat="50.11052" lon="3.79235">
        <ele>145.78</ele>
        <time>2020-07-09T15:36:58Z</time>
      </trkpt>
      <trkpt lat="50.11055" lon="3.79228">
        <ele>145.78</ele>
        <time>2020-07-09T15:36:59Z</time>
      </trkpt>
      <trkpt lat="50.11057" lon="3.79223">
        <ele>145.78</ele>
        <time>2020-07-09T15:37:00Z</time>
      </trkpt>
      <trkpt lat="50.11069" lon="3.7919">
        <ele>145.78</ele>
        <time>2020-07-09T15:37:05Z</time>
      </trkpt>
      <trkpt lat="50.11071" lon="3.79182">
        <ele>145.78</ele>
        <time>2020-07-09T15:37:06Z</time>
      </trkpt>
      <trkpt lat="50.11089" lon="3.79116">
        <ele>148.18</ele>
        <time>2020-07-09T15:37:14Z</time>
      </trkpt>
      <trkpt lat="50.11091" lon="3.79103">
        <ele>148.18</ele>
        <time>2020-07-09T15:37:16Z</time>
      </trkpt>
      <trkpt lat="50.11092" lon="3.79095">
        <ele>148.18</ele>
        <time>2020-07-09T15:37:17Z</time>
      </trkpt>
      <trkpt lat="50.11093" lon="3.79087">
        <ele>148.18</ele>
        <time>2020-07-09T15:37:18Z</time>
      </trkpt>
      <trkpt lat="50.11094" lon="3.79079">
        <ele>149.14</ele>
        <time>2020-07-09T15:37:19Z</time>
      </trkpt>
      <trkpt lat="50.11095" lon="3.79071">
        <ele>149.14</ele>
        <time>2020-07-09T15:37:20Z</time>
      </trkpt>
      <trkpt lat="50.11095" lon="3.79063">
        <ele>149.14</ele>
        <time>2020-07-09T15:37:21Z</time>
      </trkpt>
      <trkpt lat="50.11095" lon="3.79055">
        <ele>149.14</ele>
        <time>2020-07-09T15:37:22Z</time>
      </trkpt>
      <trkpt lat="50.11097" lon="3.79027">
        <ele>149.14</ele>
        <time>2020-07-09T15:37:25Z</time>
      </trkpt>
      <trkpt lat="50.11095" lon="3.7896">
        <ele>148.66</ele>
        <time>2020-07-09T15:37:32Z</time>
      </trkpt>
      <trkpt lat="50.11083" lon="3.78837">
        <ele>146.74</ele>
        <time>2020-07-09T15:37:46Z</time>
      </trkpt>
      <trkpt lat="50.11076" lon="3.78773">
        <ele>146.26</ele>
        <time>2020-07-09T15:37:53Z</time>
      </trkpt>
      <trkpt lat="50.11073" lon="3.78702">
        <ele>145.78</ele>
        <time>2020-07-09T15:38:02Z</time>
      </trkpt>
      <trkpt lat="50.11073" lon="3.78695">
        <ele>145.78</ele>
        <time>2020-07-09T15:38:03Z</time>
      </trkpt>
      <trkpt lat="50.11071" lon="3.78621">
        <ele>145.78</ele>
        <time>2020-07-09T15:38:13Z</time>
      </trkpt>
      <trkpt lat="50.11069" lon="3.78606">
        <ele>145.3</ele>
        <time>2020-07-09T15:38:15Z</time>
      </trkpt>
      <trkpt lat="50.11067" lon="3.78591">
        <ele>145.3</ele>
        <time>2020-07-09T15:38:17Z</time>
      </trkpt>
      <trkpt lat="50.11048" lon="3.78506">
        <ele>145.3</ele>
        <time>2020-07-09T15:38:29Z</time>
      </trkpt>
      <trkpt lat="50.11036" lon="3.78473">
        <ele>145.3</ele>
        <time>2020-07-09T15:38:34Z</time>
      </trkpt>
      <trkpt lat="50.11031" lon="3.7846">
        <ele>144.82</ele>
        <time>2020-07-09T15:38:36Z</time>
      </trkpt>
      <trkpt lat="50.11016" lon="3.78417">
        <ele>144.82</ele>
        <time>2020-07-09T15:38:42Z</time>
      </trkpt>
      <trkpt lat="50.1101" lon="3.78389">
        <ele>144.82</ele>
        <time>2020-07-09T15:38:46Z</time>
      </trkpt>
      <trkpt lat="50.11006" lon="3.78353">
        <ele>144.34</ele>
        <time>2020-07-09T15:38:51Z</time>
      </trkpt>
      <trkpt lat="50.11005" lon="3.78346">
        <ele>144.34</ele>
        <time>2020-07-09T15:38:52Z</time>
      </trkpt>
      <trkpt lat="50.11003" lon="3.78322">
        <ele>144.34</ele>
        <time>2020-07-09T15:38:55Z</time>
      </trkpt>
      <trkpt lat="50.11003" lon="3.78315">
        <ele>144.34</ele>
        <time>2020-07-09T15:38:56Z</time>
      </trkpt>
      <trkpt lat="50.11003" lon="3.78307">
        <ele>144.34</ele>
        <time>2020-07-09T15:38:57Z</time>
      </trkpt>
      <trkpt lat="50.11003" lon="3.78299">
        <ele>144.34</ele>
        <time>2020-07-09T15:38:58Z</time>
      </trkpt>
      <trkpt lat="50.11003" lon="3.78292">
        <ele>144.34</ele>
        <time>2020-07-09T15:38:59Z</time>
      </trkpt>
      <trkpt lat="50.11003" lon="3.78166">
        <ele>144.34</ele>
        <time>2020-07-09T15:39:16Z</time>
      </trkpt>
      <trkpt lat="50.11001" lon="3.78056">
        <ele>145.3</ele>
        <time>2020-07-09T15:39:30Z</time>
      </trkpt>
      <trkpt lat="50.10984" lon="3.77936">
        <ele>145.3</ele>
        <time>2020-07-09T15:39:45Z</time>
      </trkpt>
      <trkpt lat="50.10967" lon="3.77797">
        <ele>146.26</ele>
        <time>2020-07-09T15:39:59Z</time>
      </trkpt>
      <trkpt lat="50.10943" lon="3.77629">
        <ele>149.62</ele>
        <time>2020-07-09T15:40:16Z</time>
      </trkpt>
      <trkpt lat="50.10921" lon="3.77512">
        <ele>152.03</ele>
        <time>2020-07-09T15:40:29Z</time>
      </trkpt>
      <trkpt lat="50.109" lon="3.77422">
        <ele>153.95</ele>
        <time>2020-07-09T15:40:42Z</time>
      </trkpt>
      <trkpt lat="50.10898" lon="3.77417">
        <ele>153.95</ele>
        <time>2020-07-09T15:40:43Z</time>
      </trkpt>
      <trkpt lat="50.10897" lon="3.77411">
        <ele>154.43</ele>
        <time>2020-07-09T15:40:44Z</time>
      </trkpt>
      <trkpt lat="50.10883" lon="3.77349">
        <ele>154.91</ele>
        <time>2020-07-09T15:40:56Z</time>
      </trkpt>
      <trkpt lat="50.10878" lon="3.77263">
        <ele>155.39</ele>
        <time>2020-07-09T15:41:10Z</time>
      </trkpt>
      <trkpt lat="50.10877" lon="3.77257">
        <ele>155.39</ele>
        <time>2020-07-09T15:41:11Z</time>
      </trkpt>
      <trkpt lat="50.10857" lon="3.7719">
        <ele>156.35</ele>
        <time>2020-07-09T15:41:24Z</time>
      </trkpt>
      <trkpt lat="50.10843" lon="3.77149">
        <ele>157.31</ele>
        <time>2020-07-09T15:41:32Z</time>
      </trkpt>
      <trkpt lat="50.10828" lon="3.77057">
        <ele>157.31</ele>
        <time>2020-07-09T15:41:48Z</time>
      </trkpt>
      <trkpt lat="50.10824" lon="3.77026">
        <ele>157.31</ele>
        <time>2020-07-09T15:41:53Z</time>
      </trkpt>
      <trkpt lat="50.10824" lon="3.7702">
        <ele>157.31</ele>
        <time>2020-07-09T15:41:54Z</time>
      </trkpt>
      <trkpt lat="50.10824" lon="3.77014">
        <ele>157.31</ele>
        <time>2020-07-09T15:41:55Z</time>
      </trkpt>
      <trkpt lat="50.10823" lon="3.77008">
        <ele>157.31</ele>
        <time>2020-07-09T15:41:56Z</time>
      </trkpt>
      <trkpt lat="50.10823" lon="3.77001">
        <ele>157.31</ele>
        <time>2020-07-09T15:41:57Z</time>
      </trkpt>
      <trkpt lat="50.1082" lon="3.76965">
        <ele>157.31</ele>
        <time>2020-07-09T15:42:03Z</time>
      </trkpt>
      <trkpt lat="50.1082" lon="3.76907">
        <ele>157.31</ele>
        <time>2020-07-09T15:42:12Z</time>
      </trkpt>
      <trkpt lat="50.10821" lon="3.769">
        <ele>157.31</ele>
        <time>2020-07-09T15:42:13Z</time>
      </trkpt>
      <trkpt lat="50.10822" lon="3.76893">
        <ele>157.31</ele>
        <time>2020-07-09T15:42:14Z</time>
      </trkpt>
      <trkpt lat="50.10825" lon="3.76794">
        <ele>157.31</ele>
        <time>2020-07-09T15:42:28Z</time>
      </trkpt>
      <trkpt lat="50.10825" lon="3.76787">
        <ele>157.31</ele>
        <time>2020-07-09T15:42:29Z</time>
      </trkpt>
      <trkpt lat="50.10825" lon="3.7678">
        <ele>157.31</ele>
        <time>2020-07-09T15:42:30Z</time>
      </trkpt>
      <trkpt lat="50.10829" lon="3.76664">
        <ele>157.31</ele>
        <time>2020-07-09T15:42:46Z</time>
      </trkpt>
      <trkpt lat="50.10825" lon="3.766">
        <ele>157.31</ele>
        <time>2020-07-09T15:42:55Z</time>
      </trkpt>
      <trkpt lat="50.10818" lon="3.76564">
        <ele>157.31</ele>
        <time>2020-07-09T15:43:00Z</time>
      </trkpt>
      <trkpt lat="50.10805" lon="3.76506">
        <ele>158.75</ele>
        <time>2020-07-09T15:43:08Z</time>
      </trkpt>
      <trkpt lat="50.10804" lon="3.76499">
        <ele>158.75</ele>
        <time>2020-07-09T15:43:09Z</time>
      </trkpt>
      <trkpt lat="50.108" lon="3.76486">
        <ele>159.24</ele>
        <time>2020-07-09T15:43:11Z</time>
      </trkpt>
      <trkpt lat="50.10795" lon="3.7646">
        <ele>160.2</ele>
        <time>2020-07-09T15:43:15Z</time>
      </trkpt>
      <trkpt lat="50.1078" lon="3.76384">
        <ele>162.6</ele>
        <time>2020-07-09T15:43:27Z</time>
      </trkpt>
      <trkpt lat="50.10768" lon="3.76322">
        <ele>165.48</ele>
        <time>2020-07-09T15:43:40Z</time>
      </trkpt>
      <trkpt lat="50.10763" lon="3.76281">
        <ele>166.93</ele>
        <time>2020-07-09T15:43:52Z</time>
      </trkpt>
      <trkpt lat="50.10764" lon="3.76279">
        <ele>166.93</ele>
        <time>2020-07-09T15:43:53Z</time>
      </trkpt>
      <trkpt lat="50.10767" lon="3.76279">
        <ele>167.41</ele>
        <time>2020-07-09T15:43:54Z</time>
      </trkpt>
      <trkpt lat="50.10769" lon="3.7628">
        <ele>167.41</ele>
        <time>2020-07-09T15:43:55Z</time>
      </trkpt>
      <trkpt lat="50.10772" lon="3.76281">
        <ele>167.41</ele>
        <time>2020-07-09T15:43:56Z</time>
      </trkpt>
      <trkpt lat="50.10815" lon="3.76287">
        <ele>167.89</ele>
        <time>2020-07-09T15:44:06Z</time>
      </trkpt>
      <trkpt lat="50.10906" lon="3.76294">
        <ele>168.37</ele>
        <time>2020-07-09T15:44:23Z</time>
      </trkpt>
      <trkpt lat="50.10944" lon="3.76296">
        <ele>168.37</ele>
        <time>2020-07-09T15:44:30Z</time>
      </trkpt>
      <trkpt lat="50.1095" lon="3.76294">
        <ele>168.85</ele>
        <time>2020-07-09T15:44:31Z</time>
      </trkpt>
      <trkpt lat="50.10955" lon="3.76292">
        <ele>168.85</ele>
        <time>2020-07-09T15:44:32Z</time>
      </trkpt>
      <trkpt lat="50.11034" lon="3.76242">
        <ele>169.81</ele>
        <time>2020-07-09T15:44:47Z</time>
      </trkpt>
      <trkpt lat="50.1109" lon="3.76197">
        <ele>171.73</ele>
        <time>2020-07-09T15:45:00Z</time>
      </trkpt>
      <trkpt lat="50.11172" lon="3.76139">
        <ele>171.73</ele>
        <time>2020-07-09T15:45:19Z</time>
      </trkpt>
      <trkpt lat="50.11257" lon="3.76098">
        <ele>170.29</ele>
        <time>2020-07-09T15:45:35Z</time>
      </trkpt>
      <trkpt lat="50.1127" lon="3.76091">
        <ele>169.33</ele>
        <time>2020-07-09T15:45:37Z</time>
      </trkpt>
      <trkpt lat="50.11276" lon="3.76086">
        <ele>169.33</ele>
        <time>2020-07-09T15:45:38Z</time>
      </trkpt>
      <trkpt lat="50.11283" lon="3.76083">
        <ele>169.33</ele>
        <time>2020-07-09T15:45:39Z</time>
      </trkpt>
      <trkpt lat="50.11327" lon="3.76072">
        <ele>167.41</ele>
        <time>2020-07-09T15:45:45Z</time>
      </trkpt>
      <trkpt lat="50.11443" lon="3.76085">
        <ele>165</ele>
        <time>2020-07-09T15:46:01Z</time>
      </trkpt>
      <trkpt lat="50.11518" lon="3.76075">
        <ele>161.64</ele>
        <time>2020-07-09T15:46:11Z</time>
      </trkpt>
      <trkpt lat="50.11572" lon="3.76059">
        <ele>158.75</ele>
        <time>2020-07-09T15:46:17Z</time>
      </trkpt>
      <trkpt lat="50.11581" lon="3.76055">
        <ele>158.27</ele>
        <time>2020-07-09T15:46:18Z</time>
      </trkpt>
      <trkpt lat="50.11591" lon="3.76054">
        <ele>157.79</ele>
        <time>2020-07-09T15:46:19Z</time>
      </trkpt>
      <trkpt lat="50.11601" lon="3.76053">
        <ele>157.79</ele>
        <time>2020-07-09T15:46:20Z</time>
      </trkpt>
      <trkpt lat="50.11611" lon="3.76053">
        <ele>156.83</ele>
        <time>2020-07-09T15:46:21Z</time>
      </trkpt>
      <trkpt lat="50.11621" lon="3.76054">
        <ele>156.35</ele>
        <time>2020-07-09T15:46:22Z</time>
      </trkpt>
      <trkpt lat="50.11669" lon="3.76071">
        <ele>154.43</ele>
        <time>2020-07-09T15:46:27Z</time>
      </trkpt>
      <trkpt lat="50.11726" lon="3.76111">
        <ele>151.06</ele>
        <time>2020-07-09T15:46:33Z</time>
      </trkpt>
      <trkpt lat="50.11802" lon="3.76151">
        <ele>147.7</ele>
        <time>2020-07-09T15:46:41Z</time>
      </trkpt>
      <trkpt lat="50.11887" lon="3.76201">
        <ele>144.82</ele>
        <time>2020-07-09T15:46:50Z</time>
      </trkpt>
      <trkpt lat="50.11903" lon="3.76208">
        <ele>144.34</ele>
        <time>2020-07-09T15:46:52Z</time>
      </trkpt>
      <trkpt lat="50.11911" lon="3.76208">
        <ele>144.34</ele>
        <time>2020-07-09T15:46:53Z</time>
      </trkpt>
      <trkpt lat="50.1192" lon="3.76204">
        <ele>143.37</ele>
        <time>2020-07-09T15:46:54Z</time>
      </trkpt>
      <trkpt lat="50.11927" lon="3.76197">
        <ele>143.37</ele>
        <time>2020-07-09T15:46:55Z</time>
      </trkpt>
      <trkpt lat="50.11933" lon="3.76189">
        <ele>143.37</ele>
        <time>2020-07-09T15:46:56Z</time>
      </trkpt>
      <trkpt lat="50.11938" lon="3.76179">
        <ele>143.37</ele>
        <time>2020-07-09T15:46:57Z</time>
      </trkpt>
      <trkpt lat="50.11944" lon="3.76171">
        <ele>143.37</ele>
        <time>2020-07-09T15:46:58Z</time>
      </trkpt>
      <trkpt lat="50.1195" lon="3.76163">
        <ele>143.37</ele>
        <time>2020-07-09T15:46:59Z</time>
      </trkpt>
      <trkpt lat="50.11956" lon="3.76156">
        <ele>142.89</ele>
        <time>2020-07-09T15:47:00Z</time>
      </trkpt>
      <trkpt lat="50.11962" lon="3.76151">
        <ele>142.89</ele>
        <time>2020-07-09T15:47:01Z</time>
      </trkpt>
      <trkpt lat="50.11969" lon="3.76147">
        <ele>142.89</ele>
        <time>2020-07-09T15:47:02Z</time>
      </trkpt>
      <trkpt lat="50.11976" lon="3.76144">
        <ele>142.89</ele>
        <time>2020-07-09T15:47:03Z</time>
      </trkpt>
      <trkpt lat="50.1203" lon="3.76104">
        <ele>142.89</ele>
        <time>2020-07-09T15:47:13Z</time>
      </trkpt>
      <trkpt lat="50.12058" lon="3.76072">
        <ele>142.89</ele>
        <time>2020-07-09T15:47:19Z</time>
      </trkpt>
      <trkpt lat="50.12063" lon="3.76066">
        <ele>142.89</ele>
        <time>2020-07-09T15:47:20Z</time>
      </trkpt>
      <trkpt lat="50.12066" lon="3.76059">
        <ele>142.89</ele>
        <time>2020-07-09T15:47:21Z</time>
      </trkpt>
      <trkpt lat="50.1207" lon="3.76052">
        <ele>141.93</ele>
        <time>2020-07-09T15:47:22Z</time>
      </trkpt>
      <trkpt lat="50.12073" lon="3.76045">
        <ele>141.93</ele>
        <time>2020-07-09T15:47:23Z</time>
      </trkpt>
      <trkpt lat="50.12075" lon="3.76037">
        <ele>141.93</ele>
        <time>2020-07-09T15:47:24Z</time>
      </trkpt>
      <trkpt lat="50.12122" lon="3.75925">
        <ele>141.93</ele>
        <time>2020-07-09T15:47:40Z</time>
      </trkpt>
      <trkpt lat="50.12185" lon="3.75813">
        <ele>144.82</ele>
        <time>2020-07-09T15:48:00Z</time>
      </trkpt>
      <trkpt lat="50.12193" lon="3.75796">
        <ele>144.82</ele>
        <time>2020-07-09T15:48:03Z</time>
      </trkpt>
      <trkpt lat="50.12197" lon="3.75793">
        <ele>144.82</ele>
        <time>2020-07-09T15:48:04Z</time>
      </trkpt>
      <trkpt lat="50.12203" lon="3.75793">
        <ele>144.34</ele>
        <time>2020-07-09T15:48:05Z</time>
      </trkpt>
      <trkpt lat="50.12209" lon="3.75797">
        <ele>144.34</ele>
        <time>2020-07-09T15:48:06Z</time>
      </trkpt>
      <trkpt lat="50.12212" lon="3.75801">
        <ele>144.34</ele>
        <time>2020-07-09T15:48:07Z</time>
      </trkpt>
      <trkpt lat="50.12216" lon="3.75806">
        <ele>144.82</ele>
        <time>2020-07-09T15:48:08Z</time>
      </trkpt>
      <trkpt lat="50.1222" lon="3.75812">
        <ele>144.34</ele>
        <time>2020-07-09T15:48:09Z</time>
      </trkpt>
      <trkpt lat="50.12251" lon="3.75862">
        <ele>144.34</ele>
        <time>2020-07-09T15:48:18Z</time>
      </trkpt>
      <trkpt lat="50.12254" lon="3.75867">
        <ele>144.34</ele>
        <time>2020-07-09T15:48:19Z</time>
      </trkpt>
      <trkpt lat="50.12315" lon="3.75954">
        <ele>142.41</ele>
        <time>2020-07-09T15:48:34Z</time>
      </trkpt>
      <trkpt lat="50.12334" lon="3.7598">
        <ele>142.41</ele>
        <time>2020-07-09T15:48:38Z</time>
      </trkpt>
      <trkpt lat="50.12338" lon="3.75988">
        <ele>142.41</ele>
        <time>2020-07-09T15:48:39Z</time>
      </trkpt>
      <trkpt lat="50.12348" lon="3.76012">
        <ele>142.41</ele>
        <time>2020-07-09T15:48:42Z</time>
      </trkpt>
      <trkpt lat="50.12353" lon="3.76018">
        <ele>142.41</ele>
        <time>2020-07-09T15:48:43Z</time>
      </trkpt>
      <trkpt lat="50.12358" lon="3.76024">
        <ele>142.41</ele>
        <time>2020-07-09T15:48:44Z</time>
      </trkpt>
      <trkpt lat="50.12364" lon="3.76028">
        <ele>142.41</ele>
        <time>2020-07-09T15:48:45Z</time>
      </trkpt>
      <trkpt lat="50.1237" lon="3.76032">
        <ele>141.93</ele>
        <time>2020-07-09T15:48:46Z</time>
      </trkpt>
      <trkpt lat="50.12377" lon="3.76034">
        <ele>141.93</ele>
        <time>2020-07-09T15:48:47Z</time>
      </trkpt>
      <trkpt lat="50.12383" lon="3.76036">
        <ele>141.93</ele>
        <time>2020-07-09T15:48:48Z</time>
      </trkpt>
      <trkpt lat="50.1239" lon="3.76037">
        <ele>141.93</ele>
        <time>2020-07-09T15:48:49Z</time>
      </trkpt>
      <trkpt lat="50.12397" lon="3.76037">
        <ele>141.93</ele>
        <time>2020-07-09T15:48:50Z</time>
      </trkpt>
      <trkpt lat="50.12445" lon="3.7603">
        <ele>140.97</ele>
        <time>2020-07-09T15:48:57Z</time>
      </trkpt>
      <trkpt lat="50.1245" lon="3.76026">
        <ele>140.97</ele>
        <time>2020-07-09T15:48:58Z</time>
      </trkpt>
      <trkpt lat="50.12457" lon="3.76022">
        <ele>140.49</ele>
        <time>2020-07-09T15:48:59Z</time>
      </trkpt>
      <trkpt lat="50.12462" lon="3.76017">
        <ele>140.49</ele>
        <time>2020-07-09T15:49:00Z</time>
      </trkpt>
      <trkpt lat="50.12467" lon="3.76011">
        <ele>140.49</ele>
        <time>2020-07-09T15:49:01Z</time>
      </trkpt>
      <trkpt lat="50.12499" lon="3.75968">
        <ele>139.53</ele>
        <time>2020-07-09T15:49:08Z</time>
      </trkpt>
      <trkpt lat="50.12561" lon="3.75917">
        <ele>139.53</ele>
        <time>2020-07-09T15:49:20Z</time>
      </trkpt>
      <trkpt lat="50.12566" lon="3.75914">
        <ele>139.53</ele>
        <time>2020-07-09T15:49:21Z</time>
      </trkpt>
      <trkpt lat="50.12576" lon="3.75909">
        <ele>139.53</ele>
        <time>2020-07-09T15:49:23Z</time>
      </trkpt>
      <trkpt lat="50.12582" lon="3.75907">
        <ele>139.53</ele>
        <time>2020-07-09T15:49:24Z</time>
      </trkpt>
      <trkpt lat="50.12667" lon="3.75892">
        <ele>139.05</ele>
        <time>2020-07-09T15:49:38Z</time>
      </trkpt>
      <trkpt lat="50.12737" lon="3.75872">
        <ele>138.09</ele>
        <time>2020-07-09T15:49:50Z</time>
      </trkpt>
      <trkpt lat="50.12743" lon="3.75872">
        <ele>138.09</ele>
        <time>2020-07-09T15:49:51Z</time>
      </trkpt>
      <trkpt lat="50.12756" lon="3.75878">
        <ele>138.09</ele>
        <time>2020-07-09T15:49:53Z</time>
      </trkpt>
      <trkpt lat="50.12762" lon="3.75882">
        <ele>138.09</ele>
        <time>2020-07-09T15:49:54Z</time>
      </trkpt>
      <trkpt lat="50.12768" lon="3.75888">
        <ele>138.09</ele>
        <time>2020-07-09T15:49:55Z</time>
      </trkpt>
      <trkpt lat="50.12841" lon="3.75975">
        <ele>137.13</ele>
        <time>2020-07-09T15:50:09Z</time>
      </trkpt>
      <trkpt lat="50.12858" lon="3.75989">
        <ele>137.13</ele>
        <time>2020-07-09T15:50:12Z</time>
      </trkpt>
      <trkpt lat="50.12864" lon="3.75992">
        <ele>137.13</ele>
        <time>2020-07-09T15:50:13Z</time>
      </trkpt>
      <trkpt lat="50.1287" lon="3.75995">
        <ele>137.13</ele>
        <time>2020-07-09T15:50:14Z</time>
      </trkpt>
      <trkpt lat="50.12875" lon="3.75998">
        <ele>137.13</ele>
        <time>2020-07-09T15:50:15Z</time>
      </trkpt>
      <trkpt lat="50.12881" lon="3.76">
        <ele>137.13</ele>
        <time>2020-07-09T15:50:16Z</time>
      </trkpt>
      <trkpt lat="50.12887" lon="3.76002">
        <ele>137.13</ele>
        <time>2020-07-09T15:50:17Z</time>
      </trkpt>
      <trkpt lat="50.12904" lon="3.76006">
        <ele>137.13</ele>
        <time>2020-07-09T15:50:20Z</time>
      </trkpt>
      <trkpt lat="50.1291" lon="3.76007">
        <ele>137.13</ele>
        <time>2020-07-09T15:50:21Z</time>
      </trkpt>
      <trkpt lat="50.12939" lon="3.76011">
        <ele>137.13</ele>
        <time>2020-07-09T15:50:26Z</time>
      </trkpt>
      <trkpt lat="50.12945" lon="3.7601">
        <ele>137.13</ele>
        <time>2020-07-09T15:50:27Z</time>
      </trkpt>
      <trkpt lat="50.1295" lon="3.76006">
        <ele>137.13</ele>
        <time>2020-07-09T15:50:28Z</time>
      </trkpt>
      <trkpt lat="50.12955" lon="3.75999">
        <ele>137.13</ele>
        <time>2020-07-09T15:50:29Z</time>
      </trkpt>
      <trkpt lat="50.12957" lon="3.75992">
        <ele>137.13</ele>
        <time>2020-07-09T15:50:30Z</time>
      </trkpt>
      <trkpt lat="50.1296" lon="3.75983">
        <ele>137.13</ele>
        <time>2020-07-09T15:50:31Z</time>
      </trkpt>
      <trkpt lat="50.12962" lon="3.75974">
        <ele>137.13</ele>
        <time>2020-07-09T15:50:32Z</time>
      </trkpt>
      <trkpt lat="50.12992" lon="3.75854">
        <ele>137.13</ele>
        <time>2020-07-09T15:50:47Z</time>
      </trkpt>
      <trkpt lat="50.12997" lon="3.7583">
        <ele>137.13</ele>
        <time>2020-07-09T15:50:50Z</time>
      </trkpt>
      <trkpt lat="50.13015" lon="3.75698">
        <ele>137.13</ele>
        <time>2020-07-09T15:51:06Z</time>
      </trkpt>
      <trkpt lat="50.13019" lon="3.7566">
        <ele>137.13</ele>
        <time>2020-07-09T15:51:11Z</time>
      </trkpt>
      <trkpt lat="50.1302" lon="3.75653">
        <ele>137.13</ele>
        <time>2020-07-09T15:51:12Z</time>
      </trkpt>
      <trkpt lat="50.13024" lon="3.75634">
        <ele>137.13</ele>
        <time>2020-07-09T15:51:15Z</time>
      </trkpt>
      <trkpt lat="50.13027" lon="3.75627">
        <ele>137.13</ele>
        <time>2020-07-09T15:51:16Z</time>
      </trkpt>
      <trkpt lat="50.1303" lon="3.75624">
        <ele>137.13</ele>
        <time>2020-07-09T15:51:17Z</time>
      </trkpt>
      <trkpt lat="50.13034" lon="3.75622">
        <ele>137.13</ele>
        <time>2020-07-09T15:51:18Z</time>
      </trkpt>
      <trkpt lat="50.13039" lon="3.75623">
        <ele>137.13</ele>
        <time>2020-07-09T15:51:19Z</time>
      </trkpt>
      <trkpt lat="50.13043" lon="3.75627">
        <ele>137.13</ele>
        <time>2020-07-09T15:51:20Z</time>
      </trkpt>
      <trkpt lat="50.13045" lon="3.75633">
        <ele>137.13</ele>
        <time>2020-07-09T15:51:21Z</time>
      </trkpt>
      <trkpt lat="50.13047" lon="3.75639">
        <ele>137.13</ele>
        <time>2020-07-09T15:51:22Z</time>
      </trkpt>
      <trkpt lat="50.13049" lon="3.75646">
        <ele>137.13</ele>
        <time>2020-07-09T15:51:23Z</time>
      </trkpt>
      <trkpt lat="50.1306" lon="3.75685">
        <ele>138.09</ele>
        <time>2020-07-09T15:51:28Z</time>
      </trkpt>
      <trkpt lat="50.13064" lon="3.75692">
        <ele>138.09</ele>
        <time>2020-07-09T15:51:29Z</time>
      </trkpt>
      <trkpt lat="50.13072" lon="3.75705">
        <ele>138.09</ele>
        <time>2020-07-09T15:51:31Z</time>
      </trkpt>
      <trkpt lat="50.13081" lon="3.75716">
        <ele>138.09</ele>
        <time>2020-07-09T15:51:33Z</time>
      </trkpt>
      <trkpt lat="50.13086" lon="3.75721">
        <ele>138.09</ele>
        <time>2020-07-09T15:51:34Z</time>
      </trkpt>
      <trkpt lat="50.13118" lon="3.75737">
        <ele>138.09</ele>
        <time>2020-07-09T15:51:40Z</time>
      </trkpt>
      <trkpt lat="50.13123" lon="3.75738">
        <ele>138.09</ele>
        <time>2020-07-09T15:51:41Z</time>
      </trkpt>
      <trkpt lat="50.13129" lon="3.75738">
        <ele>138.09</ele>
        <time>2020-07-09T15:51:42Z</time>
      </trkpt>
      <trkpt lat="50.13252" lon="3.75736">
        <ele>138.57</ele>
        <time>2020-07-09T15:52:02Z</time>
      </trkpt>
      <trkpt lat="50.13311" lon="3.75741">
        <ele>138.57</ele>
        <time>2020-07-09T15:52:12Z</time>
      </trkpt>
      <trkpt lat="50.13317" lon="3.75744">
        <ele>138.57</ele>
        <time>2020-07-09T15:52:13Z</time>
      </trkpt>
      <trkpt lat="50.13327" lon="3.75752">
        <ele>138.57</ele>
        <time>2020-07-09T15:52:15Z</time>
      </trkpt>
      <trkpt lat="50.13355" lon="3.75785">
        <ele>138.57</ele>
        <time>2020-07-09T15:52:21Z</time>
      </trkpt>
      <trkpt lat="50.13359" lon="3.75791">
        <ele>138.57</ele>
        <time>2020-07-09T15:52:22Z</time>
      </trkpt>
      <trkpt lat="50.1338" lon="3.75819">
        <ele>140.01</ele>
        <time>2020-07-09T15:52:27Z</time>
      </trkpt>
      <trkpt lat="50.13383" lon="3.75826">
        <ele>140.49</ele>
        <time>2020-07-09T15:52:28Z</time>
      </trkpt>
      <trkpt lat="50.13385" lon="3.75834">
        <ele>140.97</ele>
        <time>2020-07-09T15:52:29Z</time>
      </trkpt>
      <trkpt lat="50.13386" lon="3.75842">
        <ele>140.97</ele>
        <time>2020-07-09T15:52:30Z</time>
      </trkpt>
      <trkpt lat="50.13387" lon="3.7585">
        <ele>141.45</ele>
        <time>2020-07-09T15:52:31Z</time>
      </trkpt>
      <trkpt lat="50.13388" lon="3.75857">
        <ele>141.45</ele>
        <time>2020-07-09T15:52:32Z</time>
      </trkpt>
      <trkpt lat="50.13388" lon="3.75865">
        <ele>141.93</ele>
        <time>2020-07-09T15:52:33Z</time>
      </trkpt>
      <trkpt lat="50.13395" lon="3.75934">
        <ele>144.82</ele>
        <time>2020-07-09T15:52:42Z</time>
      </trkpt>
      <trkpt lat="50.13397" lon="3.75941">
        <ele>144.82</ele>
        <time>2020-07-09T15:52:43Z</time>
      </trkpt>
      <trkpt lat="50.13401" lon="3.75945">
        <ele>145.3</ele>
        <time>2020-07-09T15:52:44Z</time>
      </trkpt>
      <trkpt lat="50.13406" lon="3.75946">
        <ele>144.82</ele>
        <time>2020-07-09T15:52:45Z</time>
      </trkpt>
      <trkpt lat="50.13411" lon="3.75944">
        <ele>145.3</ele>
        <time>2020-07-09T15:52:46Z</time>
      </trkpt>
      <trkpt lat="50.13414" lon="3.7594">
        <ele>145.3</ele>
        <time>2020-07-09T15:52:47Z</time>
      </trkpt>
      <trkpt lat="50.13417" lon="3.75934">
        <ele>145.3</ele>
        <time>2020-07-09T15:52:48Z</time>
      </trkpt>
      <trkpt lat="50.1342" lon="3.75928">
        <ele>145.3</ele>
        <time>2020-07-09T15:52:49Z</time>
      </trkpt>
      <trkpt lat="50.13422" lon="3.75923">
        <ele>145.3</ele>
        <time>2020-07-09T15:52:50Z</time>
      </trkpt>
      <trkpt lat="50.1343" lon="3.75906">
        <ele>145.3</ele>
        <time>2020-07-09T15:52:53Z</time>
      </trkpt>
      <trkpt lat="50.13437" lon="3.75888">
        <ele>145.3</ele>
        <time>2020-07-09T15:52:56Z</time>
      </trkpt>
      <trkpt lat="50.1344" lon="3.75882">
        <ele>145.3</ele>
        <time>2020-07-09T15:52:57Z</time>
      </trkpt>
      <trkpt lat="50.13456" lon="3.75844">
        <ele>144.34</ele>
        <time>2020-07-09T15:53:03Z</time>
      </trkpt>
      <trkpt lat="50.13477" lon="3.75795">
        <ele>142.89</ele>
        <time>2020-07-09T15:53:10Z</time>
      </trkpt>
      <trkpt lat="50.13485" lon="3.75782">
        <ele>142.89</ele>
        <time>2020-07-09T15:53:12Z</time>
      </trkpt>
      <trkpt lat="50.13489" lon="3.75777">
        <ele>142.89</ele>
        <time>2020-07-09T15:53:13Z</time>
      </trkpt>
      <trkpt lat="50.13512" lon="3.75754">
        <ele>142.41</ele>
        <time>2020-07-09T15:53:18Z</time>
      </trkpt>
      <trkpt lat="50.13515" lon="3.75748">
        <ele>142.41</ele>
        <time>2020-07-09T15:53:19Z</time>
      </trkpt>
      <trkpt lat="50.13529" lon="3.75724">
        <ele>141.93</ele>
        <time>2020-07-09T15:53:23Z</time>
      </trkpt>
      <trkpt lat="50.13565" lon="3.75669">
        <ele>142.89</ele>
        <time>2020-07-09T15:53:35Z</time>
      </trkpt>
      <trkpt lat="50.13589" lon="3.75647">
        <ele>143.85</ele>
        <time>2020-07-09T15:53:41Z</time>
      </trkpt>
      <trkpt lat="50.13597" lon="3.75636">
        <ele>143.85</ele>
        <time>2020-07-09T15:53:43Z</time>
      </trkpt>
      <trkpt lat="50.13601" lon="3.7563">
        <ele>143.85</ele>
        <time>2020-07-09T15:53:44Z</time>
      </trkpt>
      <trkpt lat="50.13645" lon="3.75549">
        <ele>142.89</ele>
        <time>2020-07-09T15:53:57Z</time>
      </trkpt>
      <trkpt lat="50.1365" lon="3.75543">
        <ele>142.89</ele>
        <time>2020-07-09T15:53:58Z</time>
      </trkpt>
      <trkpt lat="50.13663" lon="3.75526">
        <ele>142.41</ele>
        <time>2020-07-09T15:54:01Z</time>
      </trkpt>
      <trkpt lat="50.13667" lon="3.75521">
        <ele>142.41</ele>
        <time>2020-07-09T15:54:02Z</time>
      </trkpt>
      <trkpt lat="50.13671" lon="3.75515">
        <ele>142.41</ele>
        <time>2020-07-09T15:54:03Z</time>
      </trkpt>
      <trkpt lat="50.13675" lon="3.75509">
        <ele>142.41</ele>
        <time>2020-07-09T15:54:04Z</time>
      </trkpt>
      <trkpt lat="50.13679" lon="3.75503">
        <ele>142.41</ele>
        <time>2020-07-09T15:54:05Z</time>
      </trkpt>
      <trkpt lat="50.13722" lon="3.75424">
        <ele>141.45</ele>
        <time>2020-07-09T15:54:17Z</time>
      </trkpt>
      <trkpt lat="50.13736" lon="3.75378">
        <ele>140.01</ele>
        <time>2020-07-09T15:54:22Z</time>
      </trkpt>
      <trkpt lat="50.13738" lon="3.75369">
        <ele>140.01</ele>
        <time>2020-07-09T15:54:23Z</time>
      </trkpt>
      <trkpt lat="50.1374" lon="3.75359">
        <ele>139.53</ele>
        <time>2020-07-09T15:54:24Z</time>
      </trkpt>
      <trkpt lat="50.13744" lon="3.7533">
        <ele>139.53</ele>
        <time>2020-07-09T15:54:27Z</time>
      </trkpt>
      <trkpt lat="50.13746" lon="3.75294">
        <ele>139.53</ele>
        <time>2020-07-09T15:54:31Z</time>
      </trkpt>
      <trkpt lat="50.13746" lon="3.75285">
        <ele>138.57</ele>
        <time>2020-07-09T15:54:32Z</time>
      </trkpt>
      <trkpt lat="50.13754" lon="3.75218">
        <ele>138.57</ele>
        <time>2020-07-09T15:54:40Z</time>
      </trkpt>
      <trkpt lat="50.13761" lon="3.75179">
        <ele>138.57</ele>
        <time>2020-07-09T15:54:45Z</time>
      </trkpt>
      <trkpt lat="50.13778" lon="3.75113">
        <ele>138.57</ele>
        <time>2020-07-09T15:54:54Z</time>
      </trkpt>
      <trkpt lat="50.13782" lon="3.75107">
        <ele>138.57</ele>
        <time>2020-07-09T15:54:55Z</time>
      </trkpt>
      <trkpt lat="50.13786" lon="3.751">
        <ele>138.09</ele>
        <time>2020-07-09T15:54:56Z</time>
      </trkpt>
      <trkpt lat="50.1379" lon="3.75095">
        <ele>138.09</ele>
        <time>2020-07-09T15:54:57Z</time>
      </trkpt>
      <trkpt lat="50.13794" lon="3.75089">
        <ele>138.09</ele>
        <time>2020-07-09T15:54:58Z</time>
      </trkpt>
      <trkpt lat="50.13848" lon="3.75037">
        <ele>138.09</ele>
        <time>2020-07-09T15:55:09Z</time>
      </trkpt>
      <trkpt lat="50.13852" lon="3.75031">
        <ele>137.61</ele>
        <time>2020-07-09T15:55:10Z</time>
      </trkpt>
      <trkpt lat="50.13875" lon="3.74988">
        <ele>137.13</ele>
        <time>2020-07-09T15:55:16Z</time>
      </trkpt>
      <trkpt lat="50.13891" lon="3.74929">
        <ele>137.13</ele>
        <time>2020-07-09T15:55:23Z</time>
      </trkpt>
      <trkpt lat="50.13893" lon="3.7492">
        <ele>137.13</ele>
        <time>2020-07-09T15:55:24Z</time>
      </trkpt>
      <trkpt lat="50.13895" lon="3.74911">
        <ele>137.13</ele>
        <time>2020-07-09T15:55:25Z</time>
      </trkpt>
      <trkpt lat="50.13897" lon="3.74903">
        <ele>137.13</ele>
        <time>2020-07-09T15:55:26Z</time>
      </trkpt>
      <trkpt lat="50.139" lon="3.74895">
        <ele>137.13</ele>
        <time>2020-07-09T15:55:27Z</time>
      </trkpt>
      <trkpt lat="50.13904" lon="3.74888">
        <ele>137.13</ele>
        <time>2020-07-09T15:55:28Z</time>
      </trkpt>
      <trkpt lat="50.13908" lon="3.74881">
        <ele>137.13</ele>
        <time>2020-07-09T15:55:29Z</time>
      </trkpt>
      <trkpt lat="50.13912" lon="3.74875">
        <ele>137.13</ele>
        <time>2020-07-09T15:55:30Z</time>
      </trkpt>
      <trkpt lat="50.1397" lon="3.74765">
        <ele>136.64</ele>
        <time>2020-07-09T15:55:47Z</time>
      </trkpt>
      <trkpt lat="50.14" lon="3.74648">
        <ele>136.16</ele>
        <time>2020-07-09T15:56:02Z</time>
      </trkpt>
      <trkpt lat="50.14017" lon="3.74591">
        <ele>136.16</ele>
        <time>2020-07-09T15:56:10Z</time>
      </trkpt>
      <trkpt lat="50.14062" lon="3.74491">
        <ele>136.16</ele>
        <time>2020-07-09T15:56:26Z</time>
      </trkpt>
      <trkpt lat="50.14073" lon="3.74466">
        <ele>136.16</ele>
        <time>2020-07-09T15:56:30Z</time>
      </trkpt>
      <trkpt lat="50.14076" lon="3.7446">
        <ele>136.16</ele>
        <time>2020-07-09T15:56:31Z</time>
      </trkpt>
      <trkpt lat="50.14125" lon="3.74344">
        <ele>135.68</ele>
        <time>2020-07-09T15:56:48Z</time>
      </trkpt>
      <trkpt lat="50.14136" lon="3.74316">
        <ele>135.68</ele>
        <time>2020-07-09T15:56:52Z</time>
      </trkpt>
      <trkpt lat="50.14138" lon="3.74309">
        <ele>135.68</ele>
        <time>2020-07-09T15:56:53Z</time>
      </trkpt>
      <trkpt lat="50.14141" lon="3.74302">
        <ele>135.68</ele>
        <time>2020-07-09T15:56:54Z</time>
      </trkpt>
      <trkpt lat="50.14145" lon="3.74296">
        <ele>135.68</ele>
        <time>2020-07-09T15:56:55Z</time>
      </trkpt>
      <trkpt lat="50.14147" lon="3.74289">
        <ele>135.68</ele>
        <time>2020-07-09T15:56:56Z</time>
      </trkpt>
      <trkpt lat="50.1415" lon="3.74282">
        <ele>135.68</ele>
        <time>2020-07-09T15:56:57Z</time>
      </trkpt>
      <trkpt lat="50.14202" lon="3.74155">
        <ele>134.24</ele>
        <time>2020-07-09T15:57:14Z</time>
      </trkpt>
      <trkpt lat="50.14242" lon="3.74047">
        <ele>134.24</ele>
        <time>2020-07-09T15:57:29Z</time>
      </trkpt>
      <trkpt lat="50.14267" lon="3.73942">
        <ele>134.24</ele>
        <time>2020-07-09T15:57:44Z</time>
      </trkpt>
      <trkpt lat="50.14276" lon="3.73896">
        <ele>134.24</ele>
        <time>2020-07-09T15:57:50Z</time>
      </trkpt>
      <trkpt lat="50.14278" lon="3.73888">
        <ele>134.24</ele>
        <time>2020-07-09T15:57:51Z</time>
      </trkpt>
      <trkpt lat="50.14278" lon="3.73802">
        <ele>135.68</ele>
        <time>2020-07-09T15:58:03Z</time>
      </trkpt>
      <trkpt lat="50.14273" lon="3.73712">
        <ele>135.68</ele>
        <time>2020-07-09T15:58:17Z</time>
      </trkpt>
      <trkpt lat="50.14259" lon="3.73617">
        <ele>134.24</ele>
        <time>2020-07-09T15:58:31Z</time>
      </trkpt>
      <trkpt lat="50.14244" lon="3.73528">
        <ele>134.24</ele>
        <time>2020-07-09T15:58:43Z</time>
      </trkpt>
      <trkpt lat="50.14241" lon="3.73522">
        <ele>134.24</ele>
        <time>2020-07-09T15:58:44Z</time>
      </trkpt>
      <trkpt lat="50.14238" lon="3.73515">
        <ele>134.24</ele>
        <time>2020-07-09T15:58:45Z</time>
      </trkpt>
      <trkpt lat="50.14234" lon="3.73509">
        <ele>134.24</ele>
        <time>2020-07-09T15:58:46Z</time>
      </trkpt>
      <trkpt lat="50.14231" lon="3.73504">
        <ele>134.24</ele>
        <time>2020-07-09T15:58:47Z</time>
      </trkpt>
      <trkpt lat="50.14223" lon="3.73493">
        <ele>134.24</ele>
        <time>2020-07-09T15:58:49Z</time>
      </trkpt>
      <trkpt lat="50.14139" lon="3.73432">
        <ele>134.24</ele>
        <time>2020-07-09T15:59:06Z</time>
      </trkpt>
      <trkpt lat="50.1408" lon="3.73398">
        <ele>134.24</ele>
        <time>2020-07-09T15:59:17Z</time>
      </trkpt>
      <trkpt lat="50.14076" lon="3.73394">
        <ele>134.24</ele>
        <time>2020-07-09T15:59:18Z</time>
      </trkpt>
      <trkpt lat="50.14071" lon="3.73389">
        <ele>134.24</ele>
        <time>2020-07-09T15:59:19Z</time>
      </trkpt>
      <trkpt lat="50.14058" lon="3.73372">
        <ele>134.24</ele>
        <time>2020-07-09T15:59:22Z</time>
      </trkpt>
      <trkpt lat="50.14034" lon="3.73335">
        <ele>134.24</ele>
        <time>2020-07-09T15:59:28Z</time>
      </trkpt>
      <trkpt lat="50.13996" lon="3.73271">
        <ele>134.24</ele>
        <time>2020-07-09T15:59:38Z</time>
      </trkpt>
      <trkpt lat="50.13962" lon="3.73213">
        <ele>134.24</ele>
        <time>2020-07-09T15:59:47Z</time>
      </trkpt>
      <trkpt lat="50.13958" lon="3.73207">
        <ele>134.24</ele>
        <time>2020-07-09T15:59:48Z</time>
      </trkpt>
      <trkpt lat="50.13908" lon="3.7313">
        <ele>133.76</ele>
        <time>2020-07-09T16:00:01Z</time>
      </trkpt>
      <trkpt lat="50.13892" lon="3.73108">
        <ele>133.76</ele>
        <time>2020-07-09T16:00:05Z</time>
      </trkpt>
      <trkpt lat="50.13887" lon="3.73103">
        <ele>133.76</ele>
        <time>2020-07-09T16:00:06Z</time>
      </trkpt>
      <trkpt lat="50.13818" lon="3.73023">
        <ele>133.76</ele>
        <time>2020-07-09T16:00:20Z</time>
      </trkpt>
      <trkpt lat="50.13738" lon="3.72922">
        <ele>133.76</ele>
        <time>2020-07-09T16:00:37Z</time>
      </trkpt>
      <trkpt lat="50.13655" lon="3.72839">
        <ele>133.76</ele>
        <time>2020-07-09T16:00:54Z</time>
      </trkpt>
      <trkpt lat="50.13585" lon="3.72773">
        <ele>133.76</ele>
        <time>2020-07-09T16:01:08Z</time>
      </trkpt>
      <trkpt lat="50.13497" lon="3.72731">
        <ele>134.72</ele>
        <time>2020-07-09T16:01:23Z</time>
      </trkpt>
      <trkpt lat="50.13402" lon="3.72703">
        <ele>136.64</ele>
        <time>2020-07-09T16:01:40Z</time>
      </trkpt>
      <trkpt lat="50.13393" lon="3.72701">
        <ele>136.64</ele>
        <time>2020-07-09T16:01:42Z</time>
      </trkpt>
      <trkpt lat="50.13388" lon="3.727">
        <ele>136.64</ele>
        <time>2020-07-09T16:01:43Z</time>
      </trkpt>
      <trkpt lat="50.13305" lon="3.72678">
        <ele>136.64</ele>
        <time>2020-07-09T16:01:59Z</time>
      </trkpt>
      <trkpt lat="50.1329" lon="3.7267">
        <ele>136.64</ele>
        <time>2020-07-09T16:02:02Z</time>
      </trkpt>
      <trkpt lat="50.13285" lon="3.72667">
        <ele>136.64</ele>
        <time>2020-07-09T16:02:03Z</time>
      </trkpt>
      <trkpt lat="50.1328" lon="3.72664">
        <ele>136.64</ele>
        <time>2020-07-09T16:02:04Z</time>
      </trkpt>
      <trkpt lat="50.13218" lon="3.72628">
        <ele>135.68</ele>
        <time>2020-07-09T16:02:17Z</time>
      </trkpt>
      <trkpt lat="50.13202" lon="3.72619">
        <ele>135.68</ele>
        <time>2020-07-09T16:02:20Z</time>
      </trkpt>
      <trkpt lat="50.13197" lon="3.72616">
        <ele>135.68</ele>
        <time>2020-07-09T16:02:21Z</time>
      </trkpt>
      <trkpt lat="50.13192" lon="3.72614">
        <ele>135.68</ele>
        <time>2020-07-09T16:02:22Z</time>
      </trkpt>
      <trkpt lat="50.13109" lon="3.72579">
        <ele>135.68</ele>
        <time>2020-07-09T16:02:38Z</time>
      </trkpt>
      <trkpt lat="50.13104" lon="3.72576">
        <ele>135.68</ele>
        <time>2020-07-09T16:02:39Z</time>
      </trkpt>
      <trkpt lat="50.13082" lon="3.72556">
        <ele>135.68</ele>
        <time>2020-07-09T16:02:44Z</time>
      </trkpt>
      <trkpt lat="50.13078" lon="3.7255">
        <ele>135.68</ele>
        <time>2020-07-09T16:02:45Z</time>
      </trkpt>
      <trkpt lat="50.13025" lon="3.72457">
        <ele>136.64</ele>
        <time>2020-07-09T16:03:00Z</time>
      </trkpt>
      <trkpt lat="50.13019" lon="3.72445">
        <ele>136.64</ele>
        <time>2020-07-09T16:03:02Z</time>
      </trkpt>
      <trkpt lat="50.13016" lon="3.72439">
        <ele>136.64</ele>
        <time>2020-07-09T16:03:03Z</time>
      </trkpt>
      <trkpt lat="50.12963" lon="3.72321">
        <ele>136.64</ele>
        <time>2020-07-09T16:03:21Z</time>
      </trkpt>
      <trkpt lat="50.1296" lon="3.72313">
        <ele>136.64</ele>
        <time>2020-07-09T16:03:22Z</time>
      </trkpt>
      <trkpt lat="50.12959" lon="3.72304">
        <ele>135.68</ele>
        <time>2020-07-09T16:03:23Z</time>
      </trkpt>
      <trkpt lat="50.12958" lon="3.72295">
        <ele>135.2</ele>
        <time>2020-07-09T16:03:24Z</time>
      </trkpt>
      <trkpt lat="50.12958" lon="3.72285">
        <ele>135.2</ele>
        <time>2020-07-09T16:03:25Z</time>
      </trkpt>
      <trkpt lat="50.12959" lon="3.72276">
        <ele>135.2</ele>
        <time>2020-07-09T16:03:26Z</time>
      </trkpt>
      <trkpt lat="50.12964" lon="3.72203">
        <ele>134.72</ele>
        <time>2020-07-09T16:03:34Z</time>
      </trkpt>
      <trkpt lat="50.12964" lon="3.72194">
        <ele>134.72</ele>
        <time>2020-07-09T16:03:35Z</time>
      </trkpt>
      <trkpt lat="50.12963" lon="3.72186">
        <ele>134.72</ele>
        <time>2020-07-09T16:03:36Z</time>
      </trkpt>
      <trkpt lat="50.12962" lon="3.72177">
        <ele>134.72</ele>
        <time>2020-07-09T16:03:37Z</time>
      </trkpt>
      <trkpt lat="50.1296" lon="3.72169">
        <ele>134.72</ele>
        <time>2020-07-09T16:03:38Z</time>
      </trkpt>
      <trkpt lat="50.12958" lon="3.72161">
        <ele>134.72</ele>
        <time>2020-07-09T16:03:39Z</time>
      </trkpt>
      <trkpt lat="50.12931" lon="3.72076">
        <ele>134.72</ele>
        <time>2020-07-09T16:03:50Z</time>
      </trkpt>
      <trkpt lat="50.12896" lon="3.72016">
        <ele>134.72</ele>
        <time>2020-07-09T16:03:59Z</time>
      </trkpt>
      <trkpt lat="50.12825" lon="3.71964">
        <ele>134.72</ele>
        <time>2020-07-09T16:04:13Z</time>
      </trkpt>
      <trkpt lat="50.12807" lon="3.71954">
        <ele>134.72</ele>
        <time>2020-07-09T16:04:16Z</time>
      </trkpt>
      <trkpt lat="50.12802" lon="3.7195">
        <ele>134.72</ele>
        <time>2020-07-09T16:04:17Z</time>
      </trkpt>
      <trkpt lat="50.12797" lon="3.71944">
        <ele>134.72</ele>
        <time>2020-07-09T16:04:18Z</time>
      </trkpt>
      <trkpt lat="50.12793" lon="3.71936">
        <ele>135.68</ele>
        <time>2020-07-09T16:04:19Z</time>
      </trkpt>
      <trkpt lat="50.1279" lon="3.71928">
        <ele>135.68</ele>
        <time>2020-07-09T16:04:20Z</time>
      </trkpt>
      <trkpt lat="50.12787" lon="3.71919">
        <ele>135.68</ele>
        <time>2020-07-09T16:04:21Z</time>
      </trkpt>
      <trkpt lat="50.12767" lon="3.71849">
        <ele>136.16</ele>
        <time>2020-07-09T16:04:29Z</time>
      </trkpt>
      <trkpt lat="50.12763" lon="3.71843">
        <ele>136.64</ele>
        <time>2020-07-09T16:04:30Z</time>
      </trkpt>
      <trkpt lat="50.12758" lon="3.71838">
        <ele>136.64</ele>
        <time>2020-07-09T16:04:31Z</time>
      </trkpt>
      <trkpt lat="50.12754" lon="3.71833">
        <ele>136.64</ele>
        <time>2020-07-09T16:04:32Z</time>
      </trkpt>
      <trkpt lat="50.12748" lon="3.7183">
        <ele>136.64</ele>
        <time>2020-07-09T16:04:33Z</time>
      </trkpt>
      <trkpt lat="50.12743" lon="3.71827">
        <ele>136.64</ele>
        <time>2020-07-09T16:04:34Z</time>
      </trkpt>
      <trkpt lat="50.12701" lon="3.71808">
        <ele>137.61</ele>
        <time>2020-07-09T16:04:42Z</time>
      </trkpt>
      <trkpt lat="50.12696" lon="3.71807">
        <ele>137.61</ele>
        <time>2020-07-09T16:04:43Z</time>
      </trkpt>
      <trkpt lat="50.12691" lon="3.71805">
        <ele>138.09</ele>
        <time>2020-07-09T16:04:44Z</time>
      </trkpt>
      <trkpt lat="50.1267" lon="3.718">
        <ele>138.57</ele>
        <time>2020-07-09T16:04:49Z</time>
      </trkpt>
      <trkpt lat="50.12653" lon="3.71799">
        <ele>139.05</ele>
        <time>2020-07-09T16:04:53Z</time>
      </trkpt>
      <trkpt lat="50.12649" lon="3.71798">
        <ele>139.05</ele>
        <time>2020-07-09T16:04:54Z</time>
      </trkpt>
      <trkpt lat="50.12645" lon="3.71798">
        <ele>139.05</ele>
        <time>2020-07-09T16:04:55Z</time>
      </trkpt>
      <trkpt lat="50.12589" lon="3.71773">
        <ele>140.97</ele>
        <time>2020-07-09T16:05:11Z</time>
      </trkpt>
      <trkpt lat="50.12547" lon="3.71764">
        <ele>141.93</ele>
        <time>2020-07-09T16:05:23Z</time>
      </trkpt>
      <trkpt lat="50.12542" lon="3.71766">
        <ele>141.93</ele>
        <time>2020-07-09T16:05:24Z</time>
      </trkpt>
      <trkpt lat="50.12538" lon="3.71768">
        <ele>141.93</ele>
        <time>2020-07-09T16:05:25Z</time>
      </trkpt>
      <trkpt lat="50.12494" lon="3.71784">
        <ele>142.41</ele>
        <time>2020-07-09T16:05:35Z</time>
      </trkpt>
      <trkpt lat="50.12488" lon="3.71783">
        <ele>142.41</ele>
        <time>2020-07-09T16:05:36Z</time>
      </trkpt>
      <trkpt lat="50.12482" lon="3.7178">
        <ele>140.97</ele>
        <time>2020-07-09T16:05:37Z</time>
      </trkpt>
      <trkpt lat="50.12477" lon="3.71777">
        <ele>140.97</ele>
        <time>2020-07-09T16:05:38Z</time>
      </trkpt>
      <trkpt lat="50.12471" lon="3.71772">
        <ele>140.97</ele>
        <time>2020-07-09T16:05:39Z</time>
      </trkpt>
      <trkpt lat="50.1246" lon="3.71765">
        <ele>140.49</ele>
        <time>2020-07-09T16:05:41Z</time>
      </trkpt>
      <trkpt lat="50.12442" lon="3.71757">
        <ele>140.49</ele>
        <time>2020-07-09T16:05:44Z</time>
      </trkpt>
      <trkpt lat="50.12437" lon="3.71752">
        <ele>140.49</ele>
        <time>2020-07-09T16:05:45Z</time>
      </trkpt>
      <trkpt lat="50.12433" lon="3.71744">
        <ele>140.49</ele>
        <time>2020-07-09T16:05:46Z</time>
      </trkpt>
      <trkpt lat="50.12431" lon="3.71738">
        <ele>140.49</ele>
        <time>2020-07-09T16:05:47Z</time>
      </trkpt>
      <trkpt lat="50.12428" lon="3.71729">
        <ele>140.49</ele>
        <time>2020-07-09T16:05:48Z</time>
      </trkpt>
      <trkpt lat="50.124" lon="3.7163">
        <ele>141.45</ele>
        <time>2020-07-09T16:06:02Z</time>
      </trkpt>
      <trkpt lat="50.12398" lon="3.71624">
        <ele>141.45</ele>
        <time>2020-07-09T16:06:03Z</time>
      </trkpt>
      <trkpt lat="50.12362" lon="3.71501">
        <ele>142.89</ele>
        <time>2020-07-09T16:06:21Z</time>
      </trkpt>
      <trkpt lat="50.12322" lon="3.7139">
        <ele>143.85</ele>
        <time>2020-07-09T16:06:39Z</time>
      </trkpt>
      <trkpt lat="50.12285" lon="3.71284">
        <ele>144.82</ele>
        <time>2020-07-09T16:06:56Z</time>
      </trkpt>
      <trkpt lat="50.12252" lon="3.71181">
        <ele>144.82</ele>
        <time>2020-07-09T16:07:11Z</time>
      </trkpt>
      <trkpt lat="50.1225" lon="3.71174">
        <ele>144.82</ele>
        <time>2020-07-09T16:07:12Z</time>
      </trkpt>
      <trkpt lat="50.12206" lon="3.71095">
        <ele>144.82</ele>
        <time>2020-07-09T16:07:26Z</time>
      </trkpt>
      <trkpt lat="50.12169" lon="3.71049">
        <ele>144.82</ele>
        <time>2020-07-09T16:07:36Z</time>
      </trkpt>
      <trkpt lat="50.12166" lon="3.71044">
        <ele>144.82</ele>
        <time>2020-07-09T16:07:37Z</time>
      </trkpt>
      <trkpt lat="50.12122" lon="3.70979">
        <ele>144.82</ele>
        <time>2020-07-09T16:07:50Z</time>
      </trkpt>
      <trkpt lat="50.12115" lon="3.70969">
        <ele>144.82</ele>
        <time>2020-07-09T16:07:52Z</time>
      </trkpt>
      <trkpt lat="50.12109" lon="3.7096">
        <ele>144.82</ele>
        <time>2020-07-09T16:07:54Z</time>
      </trkpt>
      <trkpt lat="50.12103" lon="3.70951">
        <ele>144.82</ele>
        <time>2020-07-09T16:07:56Z</time>
      </trkpt>
      <trkpt lat="50.12084" lon="3.70925">
        <ele>144.82</ele>
        <time>2020-07-09T16:08:02Z</time>
      </trkpt>
      <trkpt lat="50.12081" lon="3.70919">
        <ele>144.82</ele>
        <time>2020-07-09T16:08:03Z</time>
      </trkpt>
      <trkpt lat="50.12078" lon="3.70914">
        <ele>144.82</ele>
        <time>2020-07-09T16:08:04Z</time>
      </trkpt>
      <trkpt lat="50.12062" lon="3.70884">
        <ele>144.82</ele>
        <time>2020-07-09T16:08:10Z</time>
      </trkpt>
      <trkpt lat="50.12059" lon="3.70872">
        <ele>144.82</ele>
        <time>2020-07-09T16:08:12Z</time>
      </trkpt>
      <trkpt lat="50.12034" lon="3.70761">
        <ele>144.82</ele>
        <time>2020-07-09T16:08:28Z</time>
      </trkpt>
      <trkpt lat="50.12024" lon="3.70745">
        <ele>144.82</ele>
        <time>2020-07-09T16:08:31Z</time>
      </trkpt>
      <trkpt lat="50.1202" lon="3.7074">
        <ele>144.82</ele>
        <time>2020-07-09T16:08:32Z</time>
      </trkpt>
      <trkpt lat="50.11951" lon="3.70669">
        <ele>141.93</ele>
        <time>2020-07-09T16:08:47Z</time>
      </trkpt>
      <trkpt lat="50.11876" lon="3.70593">
        <ele>141.45</ele>
        <time>2020-07-09T16:09:05Z</time>
      </trkpt>
      <trkpt lat="50.11871" lon="3.70586">
        <ele>141.45</ele>
        <time>2020-07-09T16:09:08Z</time>
      </trkpt>
      <trkpt lat="50.1187" lon="3.70581">
        <ele>141.45</ele>
        <time>2020-07-09T16:09:09Z</time>
      </trkpt>
      <trkpt lat="50.11869" lon="3.70577">
        <ele>141.45</ele>
        <time>2020-07-09T16:09:10Z</time>
      </trkpt>
      <trkpt lat="50.11869" lon="3.70573">
        <ele>141.45</ele>
        <time>2020-07-09T16:09:11Z</time>
      </trkpt>
      <trkpt lat="50.11867" lon="3.70568">
        <ele>141.45</ele>
        <time>2020-07-09T16:09:12Z</time>
      </trkpt>
      <trkpt lat="50.11866" lon="3.70563">
        <ele>141.45</ele>
        <time>2020-07-09T16:09:13Z</time>
      </trkpt>
      <trkpt lat="50.11858" lon="3.70531">
        <ele>141.45</ele>
        <time>2020-07-09T16:09:18Z</time>
      </trkpt>
      <trkpt lat="50.11844" lon="3.70463">
        <ele>141.45</ele>
        <time>2020-07-09T16:09:27Z</time>
      </trkpt>
      <trkpt lat="50.11843" lon="3.70452">
        <ele>141.45</ele>
        <time>2020-07-09T16:09:28Z</time>
      </trkpt>
      <trkpt lat="50.11844" lon="3.70424">
        <ele>141.45</ele>
        <time>2020-07-09T16:09:31Z</time>
      </trkpt>
      <trkpt lat="50.11846" lon="3.70416">
        <ele>141.45</ele>
        <time>2020-07-09T16:09:32Z</time>
      </trkpt>
      <trkpt lat="50.11869" lon="3.70276">
        <ele>141.45</ele>
        <time>2020-07-09T16:09:49Z</time>
      </trkpt>
      <trkpt lat="50.11898" lon="3.70116">
        <ele>140.49</ele>
        <time>2020-07-09T16:10:07Z</time>
      </trkpt>
      <trkpt lat="50.11926" lon="3.69961">
        <ele>140.49</ele>
        <time>2020-07-09T16:10:24Z</time>
      </trkpt>
      <trkpt lat="50.11953" lon="3.69811">
        <ele>141.93</ele>
        <time>2020-07-09T16:10:42Z</time>
      </trkpt>
      <trkpt lat="50.11961" lon="3.69781">
        <ele>141.93</ele>
        <time>2020-07-09T16:10:46Z</time>
      </trkpt>
      <trkpt lat="50.11963" lon="3.69775">
        <ele>142.41</ele>
        <time>2020-07-09T16:10:47Z</time>
      </trkpt>
      <trkpt lat="50.11969" lon="3.69763">
        <ele>142.41</ele>
        <time>2020-07-09T16:10:49Z</time>
      </trkpt>
      <trkpt lat="50.11973" lon="3.69757">
        <ele>142.41</ele>
        <time>2020-07-09T16:10:50Z</time>
      </trkpt>
      <trkpt lat="50.11977" lon="3.6975">
        <ele>142.41</ele>
        <time>2020-07-09T16:10:51Z</time>
      </trkpt>
      <trkpt lat="50.1198" lon="3.69745">
        <ele>142.41</ele>
        <time>2020-07-09T16:10:52Z</time>
      </trkpt>
      <trkpt lat="50.11983" lon="3.69739">
        <ele>142.41</ele>
        <time>2020-07-09T16:10:53Z</time>
      </trkpt>
      <trkpt lat="50.11998" lon="3.69715">
        <ele>142.41</ele>
        <time>2020-07-09T16:10:57Z</time>
      </trkpt>
      <trkpt lat="50.12006" lon="3.69705">
        <ele>142.41</ele>
        <time>2020-07-09T16:10:59Z</time>
      </trkpt>
      <trkpt lat="50.12028" lon="3.69673">
        <ele>142.41</ele>
        <time>2020-07-09T16:11:05Z</time>
      </trkpt>
      <trkpt lat="50.12043" lon="3.6965">
        <ele>142.41</ele>
        <time>2020-07-09T16:11:09Z</time>
      </trkpt>
      <trkpt lat="50.12047" lon="3.69646">
        <ele>142.41</ele>
        <time>2020-07-09T16:11:10Z</time>
      </trkpt>
      <trkpt lat="50.12119" lon="3.69551">
        <ele>142.41</ele>
        <time>2020-07-09T16:11:28Z</time>
      </trkpt>
      <trkpt lat="50.12178" lon="3.69484">
        <ele>141.45</ele>
        <time>2020-07-09T16:11:41Z</time>
      </trkpt>
      <trkpt lat="50.12237" lon="3.69402">
        <ele>141.45</ele>
        <time>2020-07-09T16:11:55Z</time>
      </trkpt>
      <trkpt lat="50.12309" lon="3.69292">
        <ele>140.01</ele>
        <time>2020-07-09T16:12:13Z</time>
      </trkpt>
      <trkpt lat="50.12358" lon="3.69211">
        <ele>139.53</ele>
        <time>2020-07-09T16:12:26Z</time>
      </trkpt>
      <trkpt lat="50.12372" lon="3.69176">
        <ele>139.53</ele>
        <time>2020-07-09T16:12:31Z</time>
      </trkpt>
      <trkpt lat="50.12374" lon="3.69169">
        <ele>139.05</ele>
        <time>2020-07-09T16:12:32Z</time>
      </trkpt>
      <trkpt lat="50.12388" lon="3.69118">
        <ele>139.05</ele>
        <time>2020-07-09T16:12:39Z</time>
      </trkpt>
      <trkpt lat="50.12439" lon="3.69008">
        <ele>138.57</ele>
        <time>2020-07-09T16:12:53Z</time>
      </trkpt>
      <trkpt lat="50.12485" lon="3.68936">
        <ele>138.57</ele>
        <time>2020-07-09T16:13:04Z</time>
      </trkpt>
      <trkpt lat="50.12502" lon="3.68909">
        <ele>138.57</ele>
        <time>2020-07-09T16:13:08Z</time>
      </trkpt>
      <trkpt lat="50.12507" lon="3.68904">
        <ele>138.57</ele>
        <time>2020-07-09T16:13:09Z</time>
      </trkpt>
      <trkpt lat="50.12531" lon="3.68881">
        <ele>138.57</ele>
        <time>2020-07-09T16:13:14Z</time>
      </trkpt>
      <trkpt lat="50.12604" lon="3.68836">
        <ele>137.61</ele>
        <time>2020-07-09T16:13:27Z</time>
      </trkpt>
      <trkpt lat="50.12627" lon="3.68827">
        <ele>137.61</ele>
        <time>2020-07-09T16:13:31Z</time>
      </trkpt>
      <trkpt lat="50.12643" lon="3.68822">
        <ele>139.05</ele>
        <time>2020-07-09T16:13:34Z</time>
      </trkpt>
      <trkpt lat="50.12647" lon="3.6882">
        <ele>139.05</ele>
        <time>2020-07-09T16:13:35Z</time>
      </trkpt>
      <trkpt lat="50.1268" lon="3.68783">
        <ele>139.53</ele>
        <time>2020-07-09T16:13:45Z</time>
      </trkpt>
      <trkpt lat="50.12683" lon="3.68779">
        <ele>139.53</ele>
        <time>2020-07-09T16:13:46Z</time>
      </trkpt>
      <trkpt lat="50.12695" lon="3.68766">
        <ele>139.53</ele>
        <time>2020-07-09T16:13:49Z</time>
      </trkpt>
      <trkpt lat="50.12702" lon="3.68755">
        <ele>139.53</ele>
        <time>2020-07-09T16:13:51Z</time>
      </trkpt>
      <trkpt lat="50.12706" lon="3.68749">
        <ele>138.09</ele>
        <time>2020-07-09T16:13:52Z</time>
      </trkpt>
      <trkpt lat="50.12768" lon="3.68665">
        <ele>137.13</ele>
        <time>2020-07-09T16:14:06Z</time>
      </trkpt>
      <trkpt lat="50.12798" lon="3.68622">
        <ele>137.13</ele>
        <time>2020-07-09T16:14:14Z</time>
      </trkpt>
      <trkpt lat="50.12801" lon="3.68616">
        <ele>137.13</ele>
        <time>2020-07-09T16:14:15Z</time>
      </trkpt>
      <trkpt lat="50.12813" lon="3.68585">
        <ele>138.57</ele>
        <time>2020-07-09T16:14:20Z</time>
      </trkpt>
      <trkpt lat="50.12815" lon="3.68578">
        <ele>138.57</ele>
        <time>2020-07-09T16:14:21Z</time>
      </trkpt>
      <trkpt lat="50.12827" lon="3.6853">
        <ele>139.05</ele>
        <time>2020-07-09T16:14:28Z</time>
      </trkpt>
      <trkpt lat="50.12833" lon="3.68503">
        <ele>139.05</ele>
        <time>2020-07-09T16:14:32Z</time>
      </trkpt>
      <trkpt lat="50.12836" lon="3.68496">
        <ele>139.05</ele>
        <time>2020-07-09T16:14:33Z</time>
      </trkpt>
      <trkpt lat="50.12863" lon="3.6841">
        <ele>140.97</ele>
        <time>2020-07-09T16:14:48Z</time>
      </trkpt>
      <trkpt lat="50.12864" lon="3.68405">
        <ele>140.97</ele>
        <time>2020-07-09T16:14:49Z</time>
      </trkpt>
      <trkpt lat="50.12862" lon="3.68399">
        <ele>140.97</ele>
        <time>2020-07-09T16:14:50Z</time>
      </trkpt>
      <trkpt lat="50.12861" lon="3.68396">
        <ele>140.97</ele>
        <time>2020-07-09T16:14:51Z</time>
      </trkpt>
      <trkpt lat="50.12858" lon="3.68394">
        <ele>140.97</ele>
        <time>2020-07-09T16:14:52Z</time>
      </trkpt>
      <trkpt lat="50.12852" lon="3.68392">
        <ele>140.97</ele>
        <time>2020-07-09T16:14:53Z</time>
      </trkpt>
      <trkpt lat="50.12848" lon="3.68397">
        <ele>140.97</ele>
        <time>2020-07-09T16:14:54Z</time>
      </trkpt>
      <trkpt lat="50.12846" lon="3.68401">
        <ele>140.97</ele>
        <time>2020-07-09T16:14:55Z</time>
      </trkpt>
      <trkpt lat="50.12842" lon="3.68406">
        <ele>140.01</ele>
        <time>2020-07-09T16:14:56Z</time>
      </trkpt>
      <trkpt lat="50.12838" lon="3.68411">
        <ele>139.53</ele>
        <time>2020-07-09T16:14:57Z</time>
      </trkpt>
      <trkpt lat="50.12833" lon="3.68416">
        <ele>138.57</ele>
        <time>2020-07-09T16:14:58Z</time>
      </trkpt>
      <trkpt lat="50.12813" lon="3.68434">
        <ele>138.57</ele>
        <time>2020-07-09T16:15:02Z</time>
      </trkpt>
      <trkpt lat="50.12807" lon="3.68435">
        <ele>138.57</ele>
        <time>2020-07-09T16:15:03Z</time>
      </trkpt>
      <trkpt lat="50.128" lon="3.68431">
        <ele>138.57</ele>
        <time>2020-07-09T16:15:04Z</time>
      </trkpt>
      <trkpt lat="50.12797" lon="3.68426">
        <ele>138.57</ele>
        <time>2020-07-09T16:15:05Z</time>
      </trkpt>
      <trkpt lat="50.12794" lon="3.68419">
        <ele>138.57</ele>
        <time>2020-07-09T16:15:06Z</time>
      </trkpt>
      <trkpt lat="50.12752" lon="3.683">
        <ele>138.09</ele>
        <time>2020-07-09T16:15:22Z</time>
      </trkpt>
      <trkpt lat="50.12715" lon="3.68191">
        <ele>137.61</ele>
        <time>2020-07-09T16:15:37Z</time>
      </trkpt>
      <trkpt lat="50.12683" lon="3.68126">
        <ele>137.13</ele>
        <time>2020-07-09T16:15:47Z</time>
      </trkpt>
      <trkpt lat="50.1268" lon="3.68119">
        <ele>137.13</ele>
        <time>2020-07-09T16:15:48Z</time>
      </trkpt>
      <trkpt lat="50.12676" lon="3.68112">
        <ele>137.13</ele>
        <time>2020-07-09T16:15:49Z</time>
      </trkpt>
      <trkpt lat="50.12673" lon="3.68106">
        <ele>137.13</ele>
        <time>2020-07-09T16:15:50Z</time>
      </trkpt>
      <trkpt lat="50.1267" lon="3.68098">
        <ele>137.13</ele>
        <time>2020-07-09T16:15:51Z</time>
      </trkpt>
      <trkpt lat="50.12667" lon="3.68091">
        <ele>137.13</ele>
        <time>2020-07-09T16:15:52Z</time>
      </trkpt>
      <trkpt lat="50.12638" lon="3.68024">
        <ele>136.64</ele>
        <time>2020-07-09T16:16:02Z</time>
      </trkpt>
      <trkpt lat="50.1261" lon="3.67975">
        <ele>136.64</ele>
        <time>2020-07-09T16:16:12Z</time>
      </trkpt>
      <trkpt lat="50.12572" lon="3.67907">
        <ele>136.64</ele>
        <time>2020-07-09T16:16:24Z</time>
      </trkpt>
      <trkpt lat="50.12567" lon="3.67902">
        <ele>136.64</ele>
        <time>2020-07-09T16:16:25Z</time>
      </trkpt>
      <trkpt lat="50.12562" lon="3.67898">
        <ele>136.64</ele>
        <time>2020-07-09T16:16:26Z</time>
      </trkpt>
      <trkpt lat="50.12549" lon="3.67888">
        <ele>136.64</ele>
        <time>2020-07-09T16:16:29Z</time>
      </trkpt>
      <trkpt lat="50.12531" lon="3.67877">
        <ele>136.64</ele>
        <time>2020-07-09T16:16:33Z</time>
      </trkpt>
      <trkpt lat="50.12528" lon="3.67873">
        <ele>136.64</ele>
        <time>2020-07-09T16:16:34Z</time>
      </trkpt>
      <trkpt lat="50.12524" lon="3.67868">
        <ele>136.64</ele>
        <time>2020-07-09T16:16:35Z</time>
      </trkpt>
      <trkpt lat="50.12521" lon="3.67864">
        <ele>136.64</ele>
        <time>2020-07-09T16:16:36Z</time>
      </trkpt>
      <trkpt lat="50.12517" lon="3.67859">
        <ele>136.64</ele>
        <time>2020-07-09T16:16:37Z</time>
      </trkpt>
      <trkpt lat="50.12514" lon="3.67855">
        <ele>136.64</ele>
        <time>2020-07-09T16:16:38Z</time>
      </trkpt>
      <trkpt lat="50.12477" lon="3.67813">
        <ele>136.64</ele>
        <time>2020-07-09T16:16:52Z</time>
      </trkpt>
    </trkseg>
  </trk>
</gpx>